<?xml version="1.0" encoding="UTF-8" standalone="no" ?>
<gpx xmlns="http://www.topografix.com/GPX/1/1" xmlns:xsi="http://www.w3.org/2001/XMLSchema-instance" xsi:schemaLocation="http://www.topografix.com/GPX/1/1 http://www.topografix.com/GPX/1/1/gpx.xsd" version="1.1" creator="VisuGPX - https://www.visugpx.com">
  <metadata>
    <name>83-D -Pennafort</name>
    <desc><![CDATA[83-D -Pennafort : Notre-Dame par l'Endre]]></desc>
  </metadata>
  <trk>
    <name><![CDATA[2017-01-08-01 - pennafort]]></name>
    <trkseg>
      <trkpt lat="43.527" lon="6.56581">
        <ele>282.4</ele>
        <time>2017-01-08T08:08:11Z</time>
      </trkpt>
      <trkpt lat="43.527" lon="6.56581">
        <ele>282.4</ele>
        <time>2017-01-08T08:08:12Z</time>
      </trkpt>
      <trkpt lat="43.52692" lon="6.56573">
        <ele>282.6</ele>
        <time>2017-01-08T08:10:20Z</time>
      </trkpt>
      <trkpt lat="43.52697" lon="6.56585">
        <ele>281.9</ele>
        <time>2017-01-08T08:13:46Z</time>
      </trkpt>
      <trkpt lat="43.52687" lon="6.56586">
        <ele>281.1</ele>
        <time>2017-01-08T08:15:30Z</time>
      </trkpt>
      <trkpt lat="43.5268" lon="6.56577">
        <ele>280.8</ele>
        <time>2017-01-08T08:15:43Z</time>
      </trkpt>
      <trkpt lat="43.52671" lon="6.56573">
        <ele>280.8</ele>
        <time>2017-01-08T08:15:48Z</time>
      </trkpt>
      <trkpt lat="43.52662" lon="6.5657">
        <ele>280.8</ele>
        <time>2017-01-08T08:15:55Z</time>
      </trkpt>
      <trkpt lat="43.52653" lon="6.56565">
        <ele>280.8</ele>
        <time>2017-01-08T08:16:05Z</time>
      </trkpt>
      <trkpt lat="43.52644" lon="6.56561">
        <ele>280.8</ele>
        <time>2017-01-08T08:16:14Z</time>
      </trkpt>
      <trkpt lat="43.52635" lon="6.56558">
        <ele>280.6</ele>
        <time>2017-01-08T08:16:22Z</time>
      </trkpt>
      <trkpt lat="43.52626" lon="6.56561">
        <ele>280.9</ele>
        <time>2017-01-08T08:16:28Z</time>
      </trkpt>
      <trkpt lat="43.52617" lon="6.56561">
        <ele>280.8</ele>
        <time>2017-01-08T08:16:36Z</time>
      </trkpt>
      <trkpt lat="43.52608" lon="6.5656">
        <ele>280.6</ele>
        <time>2017-01-08T08:16:44Z</time>
      </trkpt>
      <trkpt lat="43.52603" lon="6.56573">
        <ele>280.6</ele>
        <time>2017-01-08T08:16:52Z</time>
      </trkpt>
      <trkpt lat="43.52601" lon="6.56585">
        <ele>279.9</ele>
        <time>2017-01-08T08:17:03Z</time>
      </trkpt>
      <trkpt lat="43.52597" lon="6.56598">
        <ele>279.2</ele>
        <time>2017-01-08T08:17:10Z</time>
      </trkpt>
      <trkpt lat="43.52594" lon="6.56611">
        <ele>278.7</ele>
        <time>2017-01-08T08:17:17Z</time>
      </trkpt>
      <trkpt lat="43.52593" lon="6.56623">
        <ele>278.3</ele>
        <time>2017-01-08T08:17:24Z</time>
      </trkpt>
      <trkpt lat="43.52589" lon="6.56635">
        <ele>277.4</ele>
        <time>2017-01-08T08:17:35Z</time>
      </trkpt>
      <trkpt lat="43.52586" lon="6.56647">
        <ele>276.7</ele>
        <time>2017-01-08T08:17:42Z</time>
      </trkpt>
      <trkpt lat="43.52584" lon="6.56659">
        <ele>276.2</ele>
        <time>2017-01-08T08:17:48Z</time>
      </trkpt>
      <trkpt lat="43.52581" lon="6.56673">
        <ele>275.6</ele>
        <time>2017-01-08T08:17:56Z</time>
      </trkpt>
      <trkpt lat="43.5258" lon="6.56686">
        <ele>275.2</ele>
        <time>2017-01-08T08:18:03Z</time>
      </trkpt>
      <trkpt lat="43.52578" lon="6.56699">
        <ele>274.7</ele>
        <time>2017-01-08T08:18:12Z</time>
      </trkpt>
      <trkpt lat="43.52577" lon="6.56711">
        <ele>274.1</ele>
        <time>2017-01-08T08:18:19Z</time>
      </trkpt>
      <trkpt lat="43.52572" lon="6.56722">
        <ele>273.2</ele>
        <time>2017-01-08T08:18:28Z</time>
      </trkpt>
      <trkpt lat="43.5257" lon="6.56735">
        <ele>272.6</ele>
        <time>2017-01-08T08:18:35Z</time>
      </trkpt>
      <trkpt lat="43.52568" lon="6.56748">
        <ele>271.7</ele>
        <time>2017-01-08T08:18:43Z</time>
      </trkpt>
      <trkpt lat="43.52563" lon="6.56759">
        <ele>271.4</ele>
        <time>2017-01-08T08:18:53Z</time>
      </trkpt>
      <trkpt lat="43.52558" lon="6.5677">
        <ele>270.7</ele>
        <time>2017-01-08T08:19:00Z</time>
      </trkpt>
      <trkpt lat="43.52551" lon="6.5678">
        <ele>270.3</ele>
        <time>2017-01-08T08:19:09Z</time>
      </trkpt>
      <trkpt lat="43.52543" lon="6.56786">
        <ele>269.1</ele>
        <time>2017-01-08T08:19:19Z</time>
      </trkpt>
      <trkpt lat="43.52535" lon="6.56791">
        <ele>268.7</ele>
        <time>2017-01-08T08:19:27Z</time>
      </trkpt>
      <trkpt lat="43.52526" lon="6.56794">
        <ele>267.7</ele>
        <time>2017-01-08T08:19:36Z</time>
      </trkpt>
      <trkpt lat="43.52515" lon="6.56796">
        <ele>266.7</ele>
        <time>2017-01-08T08:19:44Z</time>
      </trkpt>
      <trkpt lat="43.52506" lon="6.56796">
        <ele>265.9</ele>
        <time>2017-01-08T08:19:52Z</time>
      </trkpt>
      <trkpt lat="43.52497" lon="6.56794">
        <ele>264.5</ele>
        <time>2017-01-08T08:20:01Z</time>
      </trkpt>
      <trkpt lat="43.52488" lon="6.56794">
        <ele>263.5</ele>
        <time>2017-01-08T08:20:09Z</time>
      </trkpt>
      <trkpt lat="43.52478" lon="6.56794">
        <ele>262.4</ele>
        <time>2017-01-08T08:20:17Z</time>
      </trkpt>
      <trkpt lat="43.52469" lon="6.56792">
        <ele>261.9</ele>
        <time>2017-01-08T08:20:24Z</time>
      </trkpt>
      <trkpt lat="43.52459" lon="6.56793">
        <ele>261.5</ele>
        <time>2017-01-08T08:20:33Z</time>
      </trkpt>
      <trkpt lat="43.52451" lon="6.56799">
        <ele>261.4</ele>
        <time>2017-01-08T08:20:41Z</time>
      </trkpt>
      <trkpt lat="43.52443" lon="6.56808">
        <ele>261.2</ele>
        <time>2017-01-08T08:20:49Z</time>
      </trkpt>
      <trkpt lat="43.52437" lon="6.56817">
        <ele>261</ele>
        <time>2017-01-08T08:20:57Z</time>
      </trkpt>
      <trkpt lat="43.52431" lon="6.56827">
        <ele>260.8</ele>
        <time>2017-01-08T08:21:06Z</time>
      </trkpt>
      <trkpt lat="43.52427" lon="6.56838">
        <ele>260.2</ele>
        <time>2017-01-08T08:21:14Z</time>
      </trkpt>
      <trkpt lat="43.52426" lon="6.56851">
        <ele>259.7</ele>
        <time>2017-01-08T08:21:23Z</time>
      </trkpt>
      <trkpt lat="43.52425" lon="6.56864">
        <ele>259.1</ele>
        <time>2017-01-08T08:21:31Z</time>
      </trkpt>
      <trkpt lat="43.52426" lon="6.56877">
        <ele>258.5</ele>
        <time>2017-01-08T08:21:39Z</time>
      </trkpt>
      <trkpt lat="43.52425" lon="6.56891">
        <ele>257.8</ele>
        <time>2017-01-08T08:21:47Z</time>
      </trkpt>
      <trkpt lat="43.52424" lon="6.56903">
        <ele>257.5</ele>
        <time>2017-01-08T08:21:57Z</time>
      </trkpt>
      <trkpt lat="43.52423" lon="6.56917">
        <ele>257</ele>
        <time>2017-01-08T08:22:05Z</time>
      </trkpt>
      <trkpt lat="43.52423" lon="6.5693">
        <ele>256.6</ele>
        <time>2017-01-08T08:22:15Z</time>
      </trkpt>
      <trkpt lat="43.52422" lon="6.56944">
        <ele>255.9</ele>
        <time>2017-01-08T08:22:24Z</time>
      </trkpt>
      <trkpt lat="43.52422" lon="6.56958">
        <ele>255.7</ele>
        <time>2017-01-08T08:22:33Z</time>
      </trkpt>
      <trkpt lat="43.52422" lon="6.56971">
        <ele>254.9</ele>
        <time>2017-01-08T08:22:46Z</time>
      </trkpt>
      <trkpt lat="43.52423" lon="6.56985">
        <ele>255</ele>
        <time>2017-01-08T08:22:53Z</time>
      </trkpt>
      <trkpt lat="43.52421" lon="6.56998">
        <ele>254.5</ele>
        <time>2017-01-08T08:23:01Z</time>
      </trkpt>
      <trkpt lat="43.52419" lon="6.57011">
        <ele>254.5</ele>
        <time>2017-01-08T08:23:09Z</time>
      </trkpt>
      <trkpt lat="43.52418" lon="6.57024">
        <ele>253.6</ele>
        <time>2017-01-08T08:23:17Z</time>
      </trkpt>
      <trkpt lat="43.5242" lon="6.57037">
        <ele>252.7</ele>
        <time>2017-01-08T08:23:23Z</time>
      </trkpt>
      <trkpt lat="43.52418" lon="6.5705">
        <ele>251.9</ele>
        <time>2017-01-08T08:23:32Z</time>
      </trkpt>
      <trkpt lat="43.5241" lon="6.57055">
        <ele>251.7</ele>
        <time>2017-01-08T08:23:45Z</time>
      </trkpt>
      <trkpt lat="43.52404" lon="6.57065">
        <ele>251.4</ele>
        <time>2017-01-08T08:23:52Z</time>
      </trkpt>
      <trkpt lat="43.52399" lon="6.57076">
        <ele>250.4</ele>
        <time>2017-01-08T08:24:00Z</time>
      </trkpt>
      <trkpt lat="43.52396" lon="6.57088">
        <ele>249.9</ele>
        <time>2017-01-08T08:24:07Z</time>
      </trkpt>
      <trkpt lat="43.52394" lon="6.57101">
        <ele>249.6</ele>
        <time>2017-01-08T08:24:13Z</time>
      </trkpt>
      <trkpt lat="43.52389" lon="6.57112">
        <ele>249</ele>
        <time>2017-01-08T08:24:21Z</time>
      </trkpt>
      <trkpt lat="43.52389" lon="6.57125">
        <ele>248.3</ele>
        <time>2017-01-08T08:24:34Z</time>
      </trkpt>
      <trkpt lat="43.52383" lon="6.57135">
        <ele>247.9</ele>
        <time>2017-01-08T08:24:57Z</time>
      </trkpt>
      <trkpt lat="43.52379" lon="6.57146">
        <ele>247.3</ele>
        <time>2017-01-08T08:25:05Z</time>
      </trkpt>
      <trkpt lat="43.52373" lon="6.57157">
        <ele>247.1</ele>
        <time>2017-01-08T08:25:12Z</time>
      </trkpt>
      <trkpt lat="43.52366" lon="6.57167">
        <ele>246.5</ele>
        <time>2017-01-08T08:25:20Z</time>
      </trkpt>
      <trkpt lat="43.52361" lon="6.57177">
        <ele>245.8</ele>
        <time>2017-01-08T08:25:28Z</time>
      </trkpt>
      <trkpt lat="43.52355" lon="6.57188">
        <ele>245.5</ele>
        <time>2017-01-08T08:25:36Z</time>
      </trkpt>
      <trkpt lat="43.52348" lon="6.57198">
        <ele>244.8</ele>
        <time>2017-01-08T08:25:44Z</time>
      </trkpt>
      <trkpt lat="43.5234" lon="6.57205">
        <ele>243.7</ele>
        <time>2017-01-08T08:25:51Z</time>
      </trkpt>
      <trkpt lat="43.52333" lon="6.57214">
        <ele>242.9</ele>
        <time>2017-01-08T08:25:58Z</time>
      </trkpt>
      <trkpt lat="43.52326" lon="6.57223">
        <ele>242.7</ele>
        <time>2017-01-08T08:26:05Z</time>
      </trkpt>
      <trkpt lat="43.52318" lon="6.57229">
        <ele>242.2</ele>
        <time>2017-01-08T08:26:11Z</time>
      </trkpt>
      <trkpt lat="43.5231" lon="6.57236">
        <ele>242</ele>
        <time>2017-01-08T08:26:17Z</time>
      </trkpt>
      <trkpt lat="43.52302" lon="6.5724">
        <ele>241.4</ele>
        <time>2017-01-08T08:26:23Z</time>
      </trkpt>
      <trkpt lat="43.52293" lon="6.57248">
        <ele>241.3</ele>
        <time>2017-01-08T08:26:30Z</time>
      </trkpt>
      <trkpt lat="43.52285" lon="6.57255">
        <ele>240.9</ele>
        <time>2017-01-08T08:26:39Z</time>
      </trkpt>
      <trkpt lat="43.52276" lon="6.5726">
        <ele>241.2</ele>
        <time>2017-01-08T08:26:48Z</time>
      </trkpt>
      <trkpt lat="43.52266" lon="6.57265">
        <ele>241.5</ele>
        <time>2017-01-08T08:26:55Z</time>
      </trkpt>
      <trkpt lat="43.52258" lon="6.57272">
        <ele>241.6</ele>
        <time>2017-01-08T08:27:04Z</time>
      </trkpt>
      <trkpt lat="43.52249" lon="6.57277">
        <ele>241.8</ele>
        <time>2017-01-08T08:27:12Z</time>
      </trkpt>
      <trkpt lat="43.52241" lon="6.57284">
        <ele>242</ele>
        <time>2017-01-08T08:27:22Z</time>
      </trkpt>
      <trkpt lat="43.52233" lon="6.57292">
        <ele>241.9</ele>
        <time>2017-01-08T08:27:28Z</time>
      </trkpt>
      <trkpt lat="43.52225" lon="6.57299">
        <ele>241.7</ele>
        <time>2017-01-08T08:27:37Z</time>
      </trkpt>
      <trkpt lat="43.52218" lon="6.57307">
        <ele>241</ele>
        <time>2017-01-08T08:27:45Z</time>
      </trkpt>
      <trkpt lat="43.52212" lon="6.57318">
        <ele>240.1</ele>
        <time>2017-01-08T08:27:54Z</time>
      </trkpt>
      <trkpt lat="43.52205" lon="6.57326">
        <ele>239.1</ele>
        <time>2017-01-08T08:28:03Z</time>
      </trkpt>
      <trkpt lat="43.52198" lon="6.57335">
        <ele>238.3</ele>
        <time>2017-01-08T08:28:13Z</time>
      </trkpt>
      <trkpt lat="43.52191" lon="6.57344">
        <ele>237.4</ele>
        <time>2017-01-08T08:28:23Z</time>
      </trkpt>
      <trkpt lat="43.52184" lon="6.57355">
        <ele>236.4</ele>
        <time>2017-01-08T08:28:33Z</time>
      </trkpt>
      <trkpt lat="43.52179" lon="6.57365">
        <ele>235.7</ele>
        <time>2017-01-08T08:28:41Z</time>
      </trkpt>
      <trkpt lat="43.52179" lon="6.57378">
        <ele>235.3</ele>
        <time>2017-01-08T08:28:48Z</time>
      </trkpt>
      <trkpt lat="43.52181" lon="6.57391">
        <ele>235.1</ele>
        <time>2017-01-08T08:28:56Z</time>
      </trkpt>
      <trkpt lat="43.52183" lon="6.57404">
        <ele>234.4</ele>
        <time>2017-01-08T08:29:04Z</time>
      </trkpt>
      <trkpt lat="43.52185" lon="6.57417">
        <ele>233.4</ele>
        <time>2017-01-08T08:29:13Z</time>
      </trkpt>
      <trkpt lat="43.52188" lon="6.5743">
        <ele>232.4</ele>
        <time>2017-01-08T08:29:23Z</time>
      </trkpt>
      <trkpt lat="43.52193" lon="6.57441">
        <ele>231.8</ele>
        <time>2017-01-08T08:29:31Z</time>
      </trkpt>
      <trkpt lat="43.52198" lon="6.57453">
        <ele>231.1</ele>
        <time>2017-01-08T08:29:41Z</time>
      </trkpt>
      <trkpt lat="43.52202" lon="6.57465">
        <ele>229.5</ele>
        <time>2017-01-08T08:29:53Z</time>
      </trkpt>
      <trkpt lat="43.52206" lon="6.57477">
        <ele>227.8</ele>
        <time>2017-01-08T08:30:03Z</time>
      </trkpt>
      <trkpt lat="43.5221" lon="6.57489">
        <ele>226.7</ele>
        <time>2017-01-08T08:30:14Z</time>
      </trkpt>
      <trkpt lat="43.52213" lon="6.575">
        <ele>225.3</ele>
        <time>2017-01-08T08:30:28Z</time>
      </trkpt>
      <trkpt lat="43.5222" lon="6.57509">
        <ele>223.8</ele>
        <time>2017-01-08T08:30:39Z</time>
      </trkpt>
      <trkpt lat="43.52228" lon="6.57513">
        <ele>222.9</ele>
        <time>2017-01-08T08:30:49Z</time>
      </trkpt>
      <trkpt lat="43.52238" lon="6.57515">
        <ele>221.9</ele>
        <time>2017-01-08T08:30:59Z</time>
      </trkpt>
      <trkpt lat="43.52247" lon="6.57521">
        <ele>221.1</ele>
        <time>2017-01-08T08:31:09Z</time>
      </trkpt>
      <trkpt lat="43.52256" lon="6.57525">
        <ele>220.3</ele>
        <time>2017-01-08T08:31:20Z</time>
      </trkpt>
      <trkpt lat="43.52262" lon="6.57535">
        <ele>219.3</ele>
        <time>2017-01-08T08:31:30Z</time>
      </trkpt>
      <trkpt lat="43.5227" lon="6.57542">
        <ele>218.8</ele>
        <time>2017-01-08T08:31:40Z</time>
      </trkpt>
      <trkpt lat="43.52278" lon="6.57549">
        <ele>218</ele>
        <time>2017-01-08T08:31:48Z</time>
      </trkpt>
      <trkpt lat="43.52281" lon="6.57561">
        <ele>217.6</ele>
        <time>2017-01-08T08:31:58Z</time>
      </trkpt>
      <trkpt lat="43.5228" lon="6.57574">
        <ele>217.7</ele>
        <time>2017-01-08T08:32:07Z</time>
      </trkpt>
      <trkpt lat="43.52277" lon="6.57588">
        <ele>217.6</ele>
        <time>2017-01-08T08:32:15Z</time>
      </trkpt>
      <trkpt lat="43.52282" lon="6.576">
        <ele>217.1</ele>
        <time>2017-01-08T08:32:24Z</time>
      </trkpt>
      <trkpt lat="43.52291" lon="6.57603">
        <ele>216.1</ele>
        <time>2017-01-08T08:32:33Z</time>
      </trkpt>
      <trkpt lat="43.523" lon="6.57603">
        <ele>215.1</ele>
        <time>2017-01-08T08:32:40Z</time>
      </trkpt>
      <trkpt lat="43.5231" lon="6.57598">
        <ele>214.8</ele>
        <time>2017-01-08T08:32:47Z</time>
      </trkpt>
      <trkpt lat="43.52317" lon="6.57589">
        <ele>214.6</ele>
        <time>2017-01-08T08:32:55Z</time>
      </trkpt>
      <trkpt lat="43.52325" lon="6.57583">
        <ele>214.6</ele>
        <time>2017-01-08T08:33:02Z</time>
      </trkpt>
      <trkpt lat="43.52335" lon="6.57581">
        <ele>213.8</ele>
        <time>2017-01-08T08:33:12Z</time>
      </trkpt>
      <trkpt lat="43.52344" lon="6.57583">
        <ele>213.3</ele>
        <time>2017-01-08T08:33:30Z</time>
      </trkpt>
      <trkpt lat="43.5235" lon="6.57594">
        <ele>212.7</ele>
        <time>2017-01-08T08:33:40Z</time>
      </trkpt>
      <trkpt lat="43.52356" lon="6.57603">
        <ele>211.8</ele>
        <time>2017-01-08T08:33:53Z</time>
      </trkpt>
      <trkpt lat="43.5236" lon="6.57614">
        <ele>210.5</ele>
        <time>2017-01-08T08:34:05Z</time>
      </trkpt>
      <trkpt lat="43.52365" lon="6.57625">
        <ele>209.6</ele>
        <time>2017-01-08T08:34:21Z</time>
      </trkpt>
      <trkpt lat="43.52373" lon="6.57616">
        <ele>210</ele>
        <time>2017-01-08T08:40:23Z</time>
      </trkpt>
      <trkpt lat="43.52382" lon="6.57615">
        <ele>211</ele>
        <time>2017-01-08T08:40:34Z</time>
      </trkpt>
      <trkpt lat="43.5239" lon="6.57611">
        <ele>212.1</ele>
        <time>2017-01-08T08:40:47Z</time>
      </trkpt>
      <trkpt lat="43.52399" lon="6.57605">
        <ele>212.9</ele>
        <time>2017-01-08T08:40:57Z</time>
      </trkpt>
      <trkpt lat="43.52404" lon="6.57594">
        <ele>213.3</ele>
        <time>2017-01-08T08:41:03Z</time>
      </trkpt>
      <trkpt lat="43.52411" lon="6.57584">
        <ele>213.8</ele>
        <time>2017-01-08T08:41:12Z</time>
      </trkpt>
      <trkpt lat="43.52417" lon="6.57574">
        <ele>214.5</ele>
        <time>2017-01-08T08:41:21Z</time>
      </trkpt>
      <trkpt lat="43.52421" lon="6.57562">
        <ele>215.5</ele>
        <time>2017-01-08T08:41:29Z</time>
      </trkpt>
      <trkpt lat="43.52428" lon="6.57554">
        <ele>216.2</ele>
        <time>2017-01-08T08:41:40Z</time>
      </trkpt>
      <trkpt lat="43.52437" lon="6.57552">
        <ele>217.2</ele>
        <time>2017-01-08T08:41:50Z</time>
      </trkpt>
      <trkpt lat="43.52446" lon="6.57547">
        <ele>217.9</ele>
        <time>2017-01-08T08:42:00Z</time>
      </trkpt>
      <trkpt lat="43.52454" lon="6.57542">
        <ele>217.8</ele>
        <time>2017-01-08T08:42:09Z</time>
      </trkpt>
      <trkpt lat="43.52463" lon="6.57536">
        <ele>217.6</ele>
        <time>2017-01-08T08:42:15Z</time>
      </trkpt>
      <trkpt lat="43.52471" lon="6.57529">
        <ele>217.1</ele>
        <time>2017-01-08T08:42:24Z</time>
      </trkpt>
      <trkpt lat="43.52472" lon="6.57514">
        <ele>216.6</ele>
        <time>2017-01-08T08:42:34Z</time>
      </trkpt>
      <trkpt lat="43.52475" lon="6.57502">
        <ele>216.3</ele>
        <time>2017-01-08T08:42:39Z</time>
      </trkpt>
      <trkpt lat="43.52483" lon="6.57495">
        <ele>215</ele>
        <time>2017-01-08T08:42:52Z</time>
      </trkpt>
      <trkpt lat="43.52492" lon="6.57501">
        <ele>214.3</ele>
        <time>2017-01-08T08:43:08Z</time>
      </trkpt>
      <trkpt lat="43.52496" lon="6.57513">
        <ele>214.4</ele>
        <time>2017-01-08T08:43:21Z</time>
      </trkpt>
      <trkpt lat="43.52498" lon="6.57526">
        <ele>214.3</ele>
        <time>2017-01-08T08:43:30Z</time>
      </trkpt>
      <trkpt lat="43.525" lon="6.57538">
        <ele>214.2</ele>
        <time>2017-01-08T08:43:39Z</time>
      </trkpt>
      <trkpt lat="43.52498" lon="6.57551">
        <ele>214.3</ele>
        <time>2017-01-08T08:43:51Z</time>
      </trkpt>
      <trkpt lat="43.52492" lon="6.5756">
        <ele>214.6</ele>
        <time>2017-01-08T08:44:01Z</time>
      </trkpt>
      <trkpt lat="43.52485" lon="6.57571">
        <ele>215.5</ele>
        <time>2017-01-08T08:44:10Z</time>
      </trkpt>
      <trkpt lat="43.52484" lon="6.57585">
        <ele>215.9</ele>
        <time>2017-01-08T08:44:17Z</time>
      </trkpt>
      <trkpt lat="43.52488" lon="6.57597">
        <ele>216.2</ele>
        <time>2017-01-08T08:44:24Z</time>
      </trkpt>
      <trkpt lat="43.52491" lon="6.57609">
        <ele>216.2</ele>
        <time>2017-01-08T08:44:31Z</time>
      </trkpt>
      <trkpt lat="43.52497" lon="6.57621">
        <ele>216.2</ele>
        <time>2017-01-08T08:44:38Z</time>
      </trkpt>
      <trkpt lat="43.52504" lon="6.5763">
        <ele>216.4</ele>
        <time>2017-01-08T08:44:43Z</time>
      </trkpt>
      <trkpt lat="43.52511" lon="6.57638">
        <ele>216.7</ele>
        <time>2017-01-08T08:44:58Z</time>
      </trkpt>
      <trkpt lat="43.5252" lon="6.57644">
        <ele>216.5</ele>
        <time>2017-01-08T08:45:11Z</time>
      </trkpt>
      <trkpt lat="43.52528" lon="6.57651">
        <ele>216.9</ele>
        <time>2017-01-08T08:45:21Z</time>
      </trkpt>
      <trkpt lat="43.52538" lon="6.57656">
        <ele>216.7</ele>
        <time>2017-01-08T08:45:29Z</time>
      </trkpt>
      <trkpt lat="43.52548" lon="6.57658">
        <ele>216.6</ele>
        <time>2017-01-08T08:45:37Z</time>
      </trkpt>
      <trkpt lat="43.52557" lon="6.57661">
        <ele>216.7</ele>
        <time>2017-01-08T08:45:44Z</time>
      </trkpt>
      <trkpt lat="43.52567" lon="6.57665">
        <ele>217</ele>
        <time>2017-01-08T08:45:51Z</time>
      </trkpt>
      <trkpt lat="43.52576" lon="6.5767">
        <ele>216.7</ele>
        <time>2017-01-08T08:45:58Z</time>
      </trkpt>
      <trkpt lat="43.52585" lon="6.57677">
        <ele>216.6</ele>
        <time>2017-01-08T08:46:07Z</time>
      </trkpt>
      <trkpt lat="43.52591" lon="6.57686">
        <ele>216.1</ele>
        <time>2017-01-08T08:46:20Z</time>
      </trkpt>
      <trkpt lat="43.52594" lon="6.577">
        <ele>216.4</ele>
        <time>2017-01-08T08:46:29Z</time>
      </trkpt>
      <trkpt lat="43.52603" lon="6.57711">
        <ele>216.4</ele>
        <time>2017-01-08T08:46:34Z</time>
      </trkpt>
      <trkpt lat="43.52612" lon="6.57715">
        <ele>215.8</ele>
        <time>2017-01-08T08:46:41Z</time>
      </trkpt>
      <trkpt lat="43.52622" lon="6.57717">
        <ele>214.4</ele>
        <time>2017-01-08T08:46:51Z</time>
      </trkpt>
      <trkpt lat="43.52631" lon="6.57718">
        <ele>213.4</ele>
        <time>2017-01-08T08:47:08Z</time>
      </trkpt>
      <trkpt lat="43.52641" lon="6.57719">
        <ele>213.1</ele>
        <time>2017-01-08T08:47:16Z</time>
      </trkpt>
      <trkpt lat="43.52649" lon="6.57725">
        <ele>212.8</ele>
        <time>2017-01-08T08:47:23Z</time>
      </trkpt>
      <trkpt lat="43.52645" lon="6.57736">
        <ele>212</ele>
        <time>2017-01-08T08:47:30Z</time>
      </trkpt>
      <trkpt lat="43.5265" lon="6.57725">
        <ele>211.6</ele>
        <time>2017-01-08T08:47:59Z</time>
      </trkpt>
      <trkpt lat="43.52657" lon="6.57715">
        <ele>212.4</ele>
        <time>2017-01-08T08:48:10Z</time>
      </trkpt>
      <trkpt lat="43.52665" lon="6.57708">
        <ele>212.3</ele>
        <time>2017-01-08T08:48:17Z</time>
      </trkpt>
      <trkpt lat="43.52674" lon="6.57703">
        <ele>212.7</ele>
        <time>2017-01-08T08:48:26Z</time>
      </trkpt>
      <trkpt lat="43.52683" lon="6.57699">
        <ele>212.9</ele>
        <time>2017-01-08T08:48:32Z</time>
      </trkpt>
      <trkpt lat="43.52693" lon="6.57693">
        <ele>212.9</ele>
        <time>2017-01-08T08:48:39Z</time>
      </trkpt>
      <trkpt lat="43.52701" lon="6.57688">
        <ele>213</ele>
        <time>2017-01-08T08:48:46Z</time>
      </trkpt>
      <trkpt lat="43.52711" lon="6.57685">
        <ele>213.5</ele>
        <time>2017-01-08T08:48:53Z</time>
      </trkpt>
      <trkpt lat="43.52721" lon="6.57687">
        <ele>213.7</ele>
        <time>2017-01-08T08:49:01Z</time>
      </trkpt>
      <trkpt lat="43.52716" lon="6.57698">
        <ele>215.2</ele>
        <time>2017-01-08T08:49:10Z</time>
      </trkpt>
      <trkpt lat="43.52709" lon="6.57708">
        <ele>216.6</ele>
        <time>2017-01-08T08:49:18Z</time>
      </trkpt>
      <trkpt lat="43.52704" lon="6.57719">
        <ele>218.1</ele>
        <time>2017-01-08T08:49:28Z</time>
      </trkpt>
      <trkpt lat="43.52699" lon="6.57731">
        <ele>219.7</ele>
        <time>2017-01-08T08:49:36Z</time>
      </trkpt>
      <trkpt lat="43.52698" lon="6.57744">
        <ele>220.7</ele>
        <time>2017-01-08T08:49:44Z</time>
      </trkpt>
      <trkpt lat="43.52705" lon="6.57753">
        <ele>221.1</ele>
        <time>2017-01-08T08:49:49Z</time>
      </trkpt>
      <trkpt lat="43.52714" lon="6.57755">
        <ele>221.1</ele>
        <time>2017-01-08T08:49:55Z</time>
      </trkpt>
      <trkpt lat="43.52723" lon="6.57749">
        <ele>221.8</ele>
        <time>2017-01-08T08:50:03Z</time>
      </trkpt>
      <trkpt lat="43.5273" lon="6.5774">
        <ele>222.4</ele>
        <time>2017-01-08T08:50:12Z</time>
      </trkpt>
      <trkpt lat="43.52737" lon="6.57731">
        <ele>223</ele>
        <time>2017-01-08T08:50:19Z</time>
      </trkpt>
      <trkpt lat="43.52743" lon="6.57721">
        <ele>223</ele>
        <time>2017-01-08T08:50:27Z</time>
      </trkpt>
      <trkpt lat="43.5275" lon="6.57712">
        <ele>222.9</ele>
        <time>2017-01-08T08:50:36Z</time>
      </trkpt>
      <trkpt lat="43.52759" lon="6.57706">
        <ele>222.6</ele>
        <time>2017-01-08T08:50:44Z</time>
      </trkpt>
      <trkpt lat="43.52766" lon="6.57698">
        <ele>222.6</ele>
        <time>2017-01-08T08:50:52Z</time>
      </trkpt>
      <trkpt lat="43.52776" lon="6.57697">
        <ele>223</ele>
        <time>2017-01-08T08:51:03Z</time>
      </trkpt>
      <trkpt lat="43.52786" lon="6.57698">
        <ele>224.2</ele>
        <time>2017-01-08T08:51:14Z</time>
      </trkpt>
      <trkpt lat="43.52794" lon="6.57706">
        <ele>225.5</ele>
        <time>2017-01-08T08:51:25Z</time>
      </trkpt>
      <trkpt lat="43.52801" lon="6.57712">
        <ele>226.5</ele>
        <time>2017-01-08T08:51:35Z</time>
      </trkpt>
      <trkpt lat="43.52808" lon="6.57721">
        <ele>227.7</ele>
        <time>2017-01-08T08:51:45Z</time>
      </trkpt>
      <trkpt lat="43.5281" lon="6.57734">
        <ele>228.9</ele>
        <time>2017-01-08T08:51:57Z</time>
      </trkpt>
      <trkpt lat="43.5281" lon="6.57748">
        <ele>229.9</ele>
        <time>2017-01-08T08:52:08Z</time>
      </trkpt>
      <trkpt lat="43.52809" lon="6.57761">
        <ele>230.3</ele>
        <time>2017-01-08T08:52:18Z</time>
      </trkpt>
      <trkpt lat="43.52811" lon="6.57773">
        <ele>231.4</ele>
        <time>2017-01-08T08:52:32Z</time>
      </trkpt>
      <trkpt lat="43.52814" lon="6.57785">
        <ele>232.4</ele>
        <time>2017-01-08T08:52:41Z</time>
      </trkpt>
      <trkpt lat="43.5282" lon="6.57794">
        <ele>233.7</ele>
        <time>2017-01-08T08:52:49Z</time>
      </trkpt>
      <trkpt lat="43.52828" lon="6.57802">
        <ele>234.2</ele>
        <time>2017-01-08T08:52:57Z</time>
      </trkpt>
      <trkpt lat="43.52835" lon="6.5781">
        <ele>235.3</ele>
        <time>2017-01-08T08:53:05Z</time>
      </trkpt>
      <trkpt lat="43.52843" lon="6.57819">
        <ele>237</ele>
        <time>2017-01-08T08:53:16Z</time>
      </trkpt>
      <trkpt lat="43.52851" lon="6.57825">
        <ele>238.2</ele>
        <time>2017-01-08T08:53:27Z</time>
      </trkpt>
      <trkpt lat="43.52861" lon="6.57829">
        <ele>239.3</ele>
        <time>2017-01-08T08:53:37Z</time>
      </trkpt>
      <trkpt lat="43.5287" lon="6.57834">
        <ele>240.6</ele>
        <time>2017-01-08T08:53:47Z</time>
      </trkpt>
      <trkpt lat="43.52878" lon="6.57839">
        <ele>242.1</ele>
        <time>2017-01-08T08:53:57Z</time>
      </trkpt>
      <trkpt lat="43.52887" lon="6.57843">
        <ele>243.7</ele>
        <time>2017-01-08T08:54:06Z</time>
      </trkpt>
      <trkpt lat="43.52896" lon="6.57848">
        <ele>245.3</ele>
        <time>2017-01-08T08:54:18Z</time>
      </trkpt>
      <trkpt lat="43.52904" lon="6.57853">
        <ele>247</ele>
        <time>2017-01-08T08:54:31Z</time>
      </trkpt>
      <trkpt lat="43.52912" lon="6.57859">
        <ele>248.4</ele>
        <time>2017-01-08T08:54:46Z</time>
      </trkpt>
      <trkpt lat="43.52916" lon="6.57871">
        <ele>248.9</ele>
        <time>2017-01-08T08:54:59Z</time>
      </trkpt>
      <trkpt lat="43.52914" lon="6.57883">
        <ele>249</ele>
        <time>2017-01-08T08:55:10Z</time>
      </trkpt>
      <trkpt lat="43.52917" lon="6.57895">
        <ele>249.4</ele>
        <time>2017-01-08T08:55:23Z</time>
      </trkpt>
      <trkpt lat="43.52922" lon="6.57907">
        <ele>250.3</ele>
        <time>2017-01-08T08:55:35Z</time>
      </trkpt>
      <trkpt lat="43.52927" lon="6.57918">
        <ele>250.9</ele>
        <time>2017-01-08T08:55:46Z</time>
      </trkpt>
      <trkpt lat="43.52935" lon="6.57926">
        <ele>251.7</ele>
        <time>2017-01-08T08:55:58Z</time>
      </trkpt>
      <trkpt lat="43.52943" lon="6.57932">
        <ele>253.1</ele>
        <time>2017-01-08T08:56:11Z</time>
      </trkpt>
      <trkpt lat="43.52948" lon="6.57943">
        <ele>253.6</ele>
        <time>2017-01-08T08:56:22Z</time>
      </trkpt>
      <trkpt lat="43.52957" lon="6.57948">
        <ele>253.5</ele>
        <time>2017-01-08T08:56:36Z</time>
      </trkpt>
      <trkpt lat="43.52966" lon="6.57943">
        <ele>253.7</ele>
        <time>2017-01-08T08:56:46Z</time>
      </trkpt>
      <trkpt lat="43.52976" lon="6.57945">
        <ele>253.8</ele>
        <time>2017-01-08T08:57:00Z</time>
      </trkpt>
      <trkpt lat="43.52985" lon="6.57944">
        <ele>254.4</ele>
        <time>2017-01-08T08:57:13Z</time>
      </trkpt>
      <trkpt lat="43.52994" lon="6.57946">
        <ele>254.9</ele>
        <time>2017-01-08T08:57:38Z</time>
      </trkpt>
      <trkpt lat="43.53002" lon="6.57953">
        <ele>257</ele>
        <time>2017-01-08T08:58:00Z</time>
      </trkpt>
      <trkpt lat="43.53008" lon="6.57943">
        <ele>256.4</ele>
        <time>2017-01-08T08:58:24Z</time>
      </trkpt>
      <trkpt lat="43.53001" lon="6.5795">
        <ele>253.8</ele>
        <time>2017-01-08T08:58:54Z</time>
      </trkpt>
      <trkpt lat="43.53008" lon="6.57958">
        <ele>254.5</ele>
        <time>2017-01-08T08:59:11Z</time>
      </trkpt>
      <trkpt lat="43.53015" lon="6.57966">
        <ele>255.7</ele>
        <time>2017-01-08T08:59:22Z</time>
      </trkpt>
      <trkpt lat="43.53024" lon="6.57971">
        <ele>258.3</ele>
        <time>2017-01-08T08:59:43Z</time>
      </trkpt>
      <trkpt lat="43.53021" lon="6.57983">
        <ele>256.7</ele>
        <time>2017-01-08T09:00:32Z</time>
      </trkpt>
      <trkpt lat="43.53027" lon="6.57973">
        <ele>250.9</ele>
        <time>2017-01-08T09:01:48Z</time>
      </trkpt>
      <trkpt lat="43.53026" lon="6.57961">
        <ele>242.4</ele>
        <time>2017-01-08T09:03:14Z</time>
      </trkpt>
      <trkpt lat="43.5303" lon="6.57948">
        <ele>239.9</ele>
        <time>2017-01-08T09:03:28Z</time>
      </trkpt>
      <trkpt lat="43.53036" lon="6.57939">
        <ele>239.7</ele>
        <time>2017-01-08T09:03:37Z</time>
      </trkpt>
      <trkpt lat="43.53038" lon="6.57926">
        <ele>238.8</ele>
        <time>2017-01-08T09:03:46Z</time>
      </trkpt>
      <trkpt lat="43.53042" lon="6.57915">
        <ele>238.3</ele>
        <time>2017-01-08T09:03:54Z</time>
      </trkpt>
      <trkpt lat="43.53049" lon="6.57906">
        <ele>237.9</ele>
        <time>2017-01-08T09:04:07Z</time>
      </trkpt>
      <trkpt lat="43.53058" lon="6.57907">
        <ele>237.6</ele>
        <time>2017-01-08T09:04:38Z</time>
      </trkpt>
      <trkpt lat="43.53063" lon="6.57896">
        <ele>238.3</ele>
        <time>2017-01-08T09:04:59Z</time>
      </trkpt>
      <trkpt lat="43.53068" lon="6.57886">
        <ele>238.1</ele>
        <time>2017-01-08T09:05:09Z</time>
      </trkpt>
      <trkpt lat="43.53077" lon="6.57881">
        <ele>238.1</ele>
        <time>2017-01-08T09:05:24Z</time>
      </trkpt>
      <trkpt lat="43.53086" lon="6.57884">
        <ele>239.1</ele>
        <time>2017-01-08T09:05:47Z</time>
      </trkpt>
      <trkpt lat="43.53095" lon="6.5789">
        <ele>240.3</ele>
        <time>2017-01-08T09:06:00Z</time>
      </trkpt>
      <trkpt lat="43.53098" lon="6.57902">
        <ele>240.6</ele>
        <time>2017-01-08T09:06:14Z</time>
      </trkpt>
      <trkpt lat="43.53108" lon="6.57903">
        <ele>240.7</ele>
        <time>2017-01-08T09:06:30Z</time>
      </trkpt>
      <trkpt lat="43.53117" lon="6.57904">
        <ele>240.8</ele>
        <time>2017-01-08T09:06:42Z</time>
      </trkpt>
      <trkpt lat="43.53126" lon="6.57903">
        <ele>241.5</ele>
        <time>2017-01-08T09:06:55Z</time>
      </trkpt>
      <trkpt lat="43.53132" lon="6.57913">
        <ele>242.5</ele>
        <time>2017-01-08T09:07:04Z</time>
      </trkpt>
      <trkpt lat="43.5314" lon="6.5792">
        <ele>243</ele>
        <time>2017-01-08T09:07:19Z</time>
      </trkpt>
      <trkpt lat="43.5315" lon="6.57922">
        <ele>242.7</ele>
        <time>2017-01-08T09:07:33Z</time>
      </trkpt>
      <trkpt lat="43.53158" lon="6.57926">
        <ele>241.8</ele>
        <time>2017-01-08T09:07:43Z</time>
      </trkpt>
      <trkpt lat="43.53165" lon="6.57935">
        <ele>241</ele>
        <time>2017-01-08T09:08:00Z</time>
      </trkpt>
      <trkpt lat="43.53174" lon="6.57936">
        <ele>239.2</ele>
        <time>2017-01-08T09:08:11Z</time>
      </trkpt>
      <trkpt lat="43.53183" lon="6.57937">
        <ele>238.7</ele>
        <time>2017-01-08T09:08:21Z</time>
      </trkpt>
      <trkpt lat="43.53193" lon="6.5794">
        <ele>238.6</ele>
        <time>2017-01-08T09:08:31Z</time>
      </trkpt>
      <trkpt lat="43.53202" lon="6.57941">
        <ele>239.3</ele>
        <time>2017-01-08T09:08:41Z</time>
      </trkpt>
      <trkpt lat="43.53211" lon="6.57937">
        <ele>238.7</ele>
        <time>2017-01-08T09:08:51Z</time>
      </trkpt>
      <trkpt lat="43.5322" lon="6.57933">
        <ele>238.5</ele>
        <time>2017-01-08T09:09:01Z</time>
      </trkpt>
      <trkpt lat="43.53226" lon="6.57924">
        <ele>238.1</ele>
        <time>2017-01-08T09:09:17Z</time>
      </trkpt>
      <trkpt lat="43.53231" lon="6.57911">
        <ele>237.7</ele>
        <time>2017-01-08T09:09:27Z</time>
      </trkpt>
      <trkpt lat="43.53234" lon="6.57899">
        <ele>237</ele>
        <time>2017-01-08T09:09:35Z</time>
      </trkpt>
      <trkpt lat="43.53237" lon="6.57888">
        <ele>236.1</ele>
        <time>2017-01-08T09:09:43Z</time>
      </trkpt>
      <trkpt lat="43.53247" lon="6.57885">
        <ele>235.3</ele>
        <time>2017-01-08T09:09:52Z</time>
      </trkpt>
      <trkpt lat="43.53256" lon="6.57883">
        <ele>234.3</ele>
        <time>2017-01-08T09:10:00Z</time>
      </trkpt>
      <trkpt lat="43.53264" lon="6.57875">
        <ele>231.8</ele>
        <time>2017-01-08T09:10:25Z</time>
      </trkpt>
      <trkpt lat="43.53268" lon="6.57863">
        <ele>229.7</ele>
        <time>2017-01-08T09:10:34Z</time>
      </trkpt>
      <trkpt lat="43.53274" lon="6.57852">
        <ele>227.9</ele>
        <time>2017-01-08T09:10:44Z</time>
      </trkpt>
      <trkpt lat="43.53281" lon="6.57842">
        <ele>225.8</ele>
        <time>2017-01-08T09:10:53Z</time>
      </trkpt>
      <trkpt lat="43.53287" lon="6.57833">
        <ele>224.7</ele>
        <time>2017-01-08T09:10:58Z</time>
      </trkpt>
      <trkpt lat="43.53289" lon="6.57819">
        <ele>223.3</ele>
        <time>2017-01-08T09:11:05Z</time>
      </trkpt>
      <trkpt lat="43.5329" lon="6.57806">
        <ele>222.5</ele>
        <time>2017-01-08T09:11:13Z</time>
      </trkpt>
      <trkpt lat="43.5329" lon="6.57791">
        <ele>221.8</ele>
        <time>2017-01-08T09:11:21Z</time>
      </trkpt>
      <trkpt lat="43.5329" lon="6.57779">
        <ele>221.4</ele>
        <time>2017-01-08T09:11:28Z</time>
      </trkpt>
      <trkpt lat="43.53292" lon="6.57765">
        <ele>220.4</ele>
        <time>2017-01-08T09:11:35Z</time>
      </trkpt>
      <trkpt lat="43.53295" lon="6.57753">
        <ele>219.5</ele>
        <time>2017-01-08T09:11:41Z</time>
      </trkpt>
      <trkpt lat="43.53296" lon="6.57739">
        <ele>217.7</ele>
        <time>2017-01-08T09:11:49Z</time>
      </trkpt>
      <trkpt lat="43.53298" lon="6.57726">
        <ele>215.5</ele>
        <time>2017-01-08T09:11:58Z</time>
      </trkpt>
      <trkpt lat="43.53303" lon="6.57714">
        <ele>212.7</ele>
        <time>2017-01-08T09:12:07Z</time>
      </trkpt>
      <trkpt lat="43.53304" lon="6.57701">
        <ele>209.4</ele>
        <time>2017-01-08T09:12:18Z</time>
      </trkpt>
      <trkpt lat="43.53302" lon="6.57688">
        <ele>206.9</ele>
        <time>2017-01-08T09:12:27Z</time>
      </trkpt>
      <trkpt lat="43.53304" lon="6.57676">
        <ele>204.4</ele>
        <time>2017-01-08T09:12:35Z</time>
      </trkpt>
      <trkpt lat="43.5331" lon="6.57665">
        <ele>202.8</ele>
        <time>2017-01-08T09:12:43Z</time>
      </trkpt>
      <trkpt lat="43.53317" lon="6.57658">
        <ele>201.7</ele>
        <time>2017-01-08T09:12:50Z</time>
      </trkpt>
      <trkpt lat="43.53327" lon="6.57655">
        <ele>201.5</ele>
        <time>2017-01-08T09:12:58Z</time>
      </trkpt>
      <trkpt lat="43.53337" lon="6.57654">
        <ele>201.1</ele>
        <time>2017-01-08T09:13:05Z</time>
      </trkpt>
      <trkpt lat="43.53345" lon="6.57648">
        <ele>200.9</ele>
        <time>2017-01-08T09:13:12Z</time>
      </trkpt>
      <trkpt lat="43.53354" lon="6.57643">
        <ele>200.6</ele>
        <time>2017-01-08T09:13:20Z</time>
      </trkpt>
      <trkpt lat="43.53362" lon="6.57638">
        <ele>200</ele>
        <time>2017-01-08T09:13:32Z</time>
      </trkpt>
      <trkpt lat="43.5337" lon="6.5763">
        <ele>199.5</ele>
        <time>2017-01-08T09:13:46Z</time>
      </trkpt>
      <trkpt lat="43.5338" lon="6.57629">
        <ele>199.3</ele>
        <time>2017-01-08T09:13:54Z</time>
      </trkpt>
      <trkpt lat="43.53388" lon="6.57626">
        <ele>198.8</ele>
        <time>2017-01-08T09:14:02Z</time>
      </trkpt>
      <trkpt lat="43.53398" lon="6.57623">
        <ele>198.9</ele>
        <time>2017-01-08T09:14:10Z</time>
      </trkpt>
      <trkpt lat="43.53407" lon="6.57619">
        <ele>198.8</ele>
        <time>2017-01-08T09:14:17Z</time>
      </trkpt>
      <trkpt lat="43.53415" lon="6.57613">
        <ele>198.1</ele>
        <time>2017-01-08T09:14:33Z</time>
      </trkpt>
      <trkpt lat="43.53419" lon="6.57602">
        <ele>197.5</ele>
        <time>2017-01-08T09:14:43Z</time>
      </trkpt>
      <trkpt lat="43.53424" lon="6.5759">
        <ele>196.5</ele>
        <time>2017-01-08T09:14:50Z</time>
      </trkpt>
      <trkpt lat="43.53427" lon="6.57577">
        <ele>196.3</ele>
        <time>2017-01-08T09:14:58Z</time>
      </trkpt>
      <trkpt lat="43.53434" lon="6.57569">
        <ele>196.1</ele>
        <time>2017-01-08T09:15:04Z</time>
      </trkpt>
      <trkpt lat="43.53442" lon="6.57562">
        <ele>196.1</ele>
        <time>2017-01-08T09:15:11Z</time>
      </trkpt>
      <trkpt lat="43.53452" lon="6.5756">
        <ele>196.4</ele>
        <time>2017-01-08T09:15:19Z</time>
      </trkpt>
      <trkpt lat="43.53461" lon="6.57556">
        <ele>196.5</ele>
        <time>2017-01-08T09:15:27Z</time>
      </trkpt>
      <trkpt lat="43.5347" lon="6.57552">
        <ele>196.6</ele>
        <time>2017-01-08T09:15:34Z</time>
      </trkpt>
      <trkpt lat="43.53478" lon="6.57549">
        <ele>196.5</ele>
        <time>2017-01-08T09:15:41Z</time>
      </trkpt>
      <trkpt lat="43.53487" lon="6.57547">
        <ele>196.4</ele>
        <time>2017-01-08T09:15:48Z</time>
      </trkpt>
      <trkpt lat="43.53497" lon="6.57546">
        <ele>196.2</ele>
        <time>2017-01-08T09:15:56Z</time>
      </trkpt>
      <trkpt lat="43.53507" lon="6.57547">
        <ele>196.3</ele>
        <time>2017-01-08T09:16:04Z</time>
      </trkpt>
      <trkpt lat="43.53517" lon="6.57551">
        <ele>196.1</ele>
        <time>2017-01-08T09:16:12Z</time>
      </trkpt>
      <trkpt lat="43.53526" lon="6.57556">
        <ele>196</ele>
        <time>2017-01-08T09:16:20Z</time>
      </trkpt>
      <trkpt lat="43.53533" lon="6.57563">
        <ele>195.6</ele>
        <time>2017-01-08T09:16:30Z</time>
      </trkpt>
      <trkpt lat="43.53532" lon="6.57576">
        <ele>176.1</ele>
        <time>2017-01-08T09:20:21Z</time>
      </trkpt>
      <trkpt lat="43.5353" lon="6.57589">
        <ele>171.3</ele>
        <time>2017-01-08T09:21:16Z</time>
      </trkpt>
      <trkpt lat="43.53532" lon="6.57602">
        <ele>170.7</ele>
        <time>2017-01-08T09:21:23Z</time>
      </trkpt>
      <trkpt lat="43.53533" lon="6.57615">
        <ele>169.9</ele>
        <time>2017-01-08T09:21:31Z</time>
      </trkpt>
      <trkpt lat="43.53536" lon="6.57627">
        <ele>169.5</ele>
        <time>2017-01-08T09:21:38Z</time>
      </trkpt>
      <trkpt lat="43.53537" lon="6.5764">
        <ele>168.8</ele>
        <time>2017-01-08T09:21:45Z</time>
      </trkpt>
      <trkpt lat="43.53536" lon="6.57653">
        <ele>169</ele>
        <time>2017-01-08T09:21:50Z</time>
      </trkpt>
      <trkpt lat="43.53535" lon="6.57667">
        <ele>168.9</ele>
        <time>2017-01-08T09:21:56Z</time>
      </trkpt>
      <trkpt lat="43.53535" lon="6.57681">
        <ele>168.3</ele>
        <time>2017-01-08T09:22:03Z</time>
      </trkpt>
      <trkpt lat="43.53536" lon="6.57693">
        <ele>167.7</ele>
        <time>2017-01-08T09:22:10Z</time>
      </trkpt>
      <trkpt lat="43.53538" lon="6.57707">
        <ele>167.1</ele>
        <time>2017-01-08T09:22:17Z</time>
      </trkpt>
      <trkpt lat="43.53541" lon="6.57719">
        <ele>166.8</ele>
        <time>2017-01-08T09:22:23Z</time>
      </trkpt>
      <trkpt lat="43.53545" lon="6.57733">
        <ele>166.5</ele>
        <time>2017-01-08T09:22:30Z</time>
      </trkpt>
      <trkpt lat="43.53549" lon="6.57745">
        <ele>166.1</ele>
        <time>2017-01-08T09:22:38Z</time>
      </trkpt>
      <trkpt lat="43.53553" lon="6.57756">
        <ele>166.5</ele>
        <time>2017-01-08T09:22:45Z</time>
      </trkpt>
      <trkpt lat="43.53559" lon="6.57768">
        <ele>166.7</ele>
        <time>2017-01-08T09:22:52Z</time>
      </trkpt>
      <trkpt lat="43.53563" lon="6.57779">
        <ele>166.4</ele>
        <time>2017-01-08T09:22:59Z</time>
      </trkpt>
      <trkpt lat="43.53567" lon="6.57791">
        <ele>165.8</ele>
        <time>2017-01-08T09:23:07Z</time>
      </trkpt>
      <trkpt lat="43.53567" lon="6.57804">
        <ele>164.9</ele>
        <time>2017-01-08T09:23:15Z</time>
      </trkpt>
      <trkpt lat="43.53566" lon="6.57818">
        <ele>164.4</ele>
        <time>2017-01-08T09:23:22Z</time>
      </trkpt>
      <trkpt lat="43.53565" lon="6.5783">
        <ele>163.9</ele>
        <time>2017-01-08T09:23:29Z</time>
      </trkpt>
      <trkpt lat="43.53564" lon="6.57843">
        <ele>163.4</ele>
        <time>2017-01-08T09:23:37Z</time>
      </trkpt>
      <trkpt lat="43.53564" lon="6.57856">
        <ele>163.1</ele>
        <time>2017-01-08T09:23:43Z</time>
      </trkpt>
      <trkpt lat="43.53564" lon="6.5787">
        <ele>162.4</ele>
        <time>2017-01-08T09:23:51Z</time>
      </trkpt>
      <trkpt lat="43.53564" lon="6.57883">
        <ele>161.8</ele>
        <time>2017-01-08T09:23:59Z</time>
      </trkpt>
      <trkpt lat="43.53562" lon="6.57896">
        <ele>161</ele>
        <time>2017-01-08T09:24:07Z</time>
      </trkpt>
      <trkpt lat="43.5356" lon="6.57908">
        <ele>160.3</ele>
        <time>2017-01-08T09:24:14Z</time>
      </trkpt>
      <trkpt lat="43.53558" lon="6.57922">
        <ele>159.4</ele>
        <time>2017-01-08T09:24:21Z</time>
      </trkpt>
      <trkpt lat="43.5356" lon="6.57935">
        <ele>158.3</ele>
        <time>2017-01-08T09:24:29Z</time>
      </trkpt>
      <trkpt lat="43.5357" lon="6.57935">
        <ele>156.8</ele>
        <time>2017-01-08T09:24:53Z</time>
      </trkpt>
      <trkpt lat="43.53574" lon="6.57948">
        <ele>155.4</ele>
        <time>2017-01-08T09:25:02Z</time>
      </trkpt>
      <trkpt lat="43.53572" lon="6.57962">
        <ele>153.9</ele>
        <time>2017-01-08T09:25:10Z</time>
      </trkpt>
      <trkpt lat="43.5357" lon="6.57975">
        <ele>153.2</ele>
        <time>2017-01-08T09:25:18Z</time>
      </trkpt>
      <trkpt lat="43.53569" lon="6.57988">
        <ele>151.2</ele>
        <time>2017-01-08T09:25:27Z</time>
      </trkpt>
      <trkpt lat="43.53564" lon="6.57999">
        <ele>149.7</ele>
        <time>2017-01-08T09:25:37Z</time>
      </trkpt>
      <trkpt lat="43.53556" lon="6.58006">
        <ele>148.7</ele>
        <time>2017-01-08T09:25:49Z</time>
      </trkpt>
      <trkpt lat="43.53548" lon="6.58015">
        <ele>148.2</ele>
        <time>2017-01-08T09:25:59Z</time>
      </trkpt>
      <trkpt lat="43.53541" lon="6.58023">
        <ele>147.8</ele>
        <time>2017-01-08T09:26:09Z</time>
      </trkpt>
      <trkpt lat="43.53536" lon="6.58033">
        <ele>147.2</ele>
        <time>2017-01-08T09:26:16Z</time>
      </trkpt>
      <trkpt lat="43.53531" lon="6.58045">
        <ele>146.5</ele>
        <time>2017-01-08T09:26:23Z</time>
      </trkpt>
      <trkpt lat="43.53523" lon="6.58052">
        <ele>145.5</ele>
        <time>2017-01-08T09:26:34Z</time>
      </trkpt>
      <trkpt lat="43.53515" lon="6.58058">
        <ele>145</ele>
        <time>2017-01-08T09:26:50Z</time>
      </trkpt>
      <trkpt lat="43.53506" lon="6.58063">
        <ele>144.9</ele>
        <time>2017-01-08T09:26:58Z</time>
      </trkpt>
      <trkpt lat="43.53496" lon="6.58068">
        <ele>144.7</ele>
        <time>2017-01-08T09:27:07Z</time>
      </trkpt>
      <trkpt lat="43.53486" lon="6.58072">
        <ele>144.3</ele>
        <time>2017-01-08T09:27:15Z</time>
      </trkpt>
      <trkpt lat="43.53477" lon="6.58075">
        <ele>144.1</ele>
        <time>2017-01-08T09:27:24Z</time>
      </trkpt>
      <trkpt lat="43.53468" lon="6.58079">
        <ele>144.1</ele>
        <time>2017-01-08T09:27:32Z</time>
      </trkpt>
      <trkpt lat="43.5346" lon="6.58085">
        <ele>143.3</ele>
        <time>2017-01-08T09:27:42Z</time>
      </trkpt>
      <trkpt lat="43.53452" lon="6.58092">
        <ele>142.7</ele>
        <time>2017-01-08T09:27:49Z</time>
      </trkpt>
      <trkpt lat="43.53443" lon="6.581">
        <ele>141.7</ele>
        <time>2017-01-08T09:27:58Z</time>
      </trkpt>
      <trkpt lat="43.53439" lon="6.58111">
        <ele>140.2</ele>
        <time>2017-01-08T09:28:06Z</time>
      </trkpt>
      <trkpt lat="43.53437" lon="6.58124">
        <ele>139.6</ele>
        <time>2017-01-08T09:28:43Z</time>
      </trkpt>
      <trkpt lat="43.53437" lon="6.58136">
        <ele>138.4</ele>
        <time>2017-01-08T09:28:58Z</time>
      </trkpt>
      <trkpt lat="43.5344" lon="6.58149">
        <ele>136.5</ele>
        <time>2017-01-08T09:29:10Z</time>
      </trkpt>
      <trkpt lat="43.53446" lon="6.58159">
        <ele>134.1</ele>
        <time>2017-01-08T09:29:20Z</time>
      </trkpt>
      <trkpt lat="43.5345" lon="6.58171">
        <ele>132.9</ele>
        <time>2017-01-08T09:29:30Z</time>
      </trkpt>
      <trkpt lat="43.53447" lon="6.58183">
        <ele>130.9</ele>
        <time>2017-01-08T09:29:40Z</time>
      </trkpt>
      <trkpt lat="43.53449" lon="6.58197">
        <ele>128.6</ele>
        <time>2017-01-08T09:29:54Z</time>
      </trkpt>
      <trkpt lat="43.53451" lon="6.58209">
        <ele>126.1</ele>
        <time>2017-01-08T09:30:06Z</time>
      </trkpt>
      <trkpt lat="43.53451" lon="6.58222">
        <ele>122.9</ele>
        <time>2017-01-08T09:30:19Z</time>
      </trkpt>
      <trkpt lat="43.5345" lon="6.58235">
        <ele>121</ele>
        <time>2017-01-08T09:30:29Z</time>
      </trkpt>
      <trkpt lat="43.53449" lon="6.58248">
        <ele>118.9</ele>
        <time>2017-01-08T09:30:40Z</time>
      </trkpt>
      <trkpt lat="43.53453" lon="6.5826">
        <ele>118</ele>
        <time>2017-01-08T09:30:47Z</time>
      </trkpt>
      <trkpt lat="43.53455" lon="6.58272">
        <ele>117.1</ele>
        <time>2017-01-08T09:30:56Z</time>
      </trkpt>
      <trkpt lat="43.53457" lon="6.58285">
        <ele>116.1</ele>
        <time>2017-01-08T09:31:02Z</time>
      </trkpt>
      <trkpt lat="43.53461" lon="6.58298">
        <ele>114.1</ele>
        <time>2017-01-08T09:31:13Z</time>
      </trkpt>
      <trkpt lat="43.53463" lon="6.58311">
        <ele>113.4</ele>
        <time>2017-01-08T09:31:22Z</time>
      </trkpt>
      <trkpt lat="43.53463" lon="6.58324">
        <ele>111.4</ele>
        <time>2017-01-08T09:31:35Z</time>
      </trkpt>
      <trkpt lat="43.53464" lon="6.58338">
        <ele>109.4</ele>
        <time>2017-01-08T09:31:48Z</time>
      </trkpt>
      <trkpt lat="43.53466" lon="6.5835">
        <ele>108.3</ele>
        <time>2017-01-08T09:31:56Z</time>
      </trkpt>
      <trkpt lat="43.5347" lon="6.58363">
        <ele>109</ele>
        <time>2017-01-08T09:32:06Z</time>
      </trkpt>
      <trkpt lat="43.53475" lon="6.58374">
        <ele>109.6</ele>
        <time>2017-01-08T09:32:14Z</time>
      </trkpt>
      <trkpt lat="43.53478" lon="6.58386">
        <ele>109.2</ele>
        <time>2017-01-08T09:32:22Z</time>
      </trkpt>
      <trkpt lat="43.5348" lon="6.58399">
        <ele>109.3</ele>
        <time>2017-01-08T09:32:31Z</time>
      </trkpt>
      <trkpt lat="43.53483" lon="6.58411">
        <ele>109.3</ele>
        <time>2017-01-08T09:32:41Z</time>
      </trkpt>
      <trkpt lat="43.53488" lon="6.58422">
        <ele>109</ele>
        <time>2017-01-08T09:32:49Z</time>
      </trkpt>
      <trkpt lat="43.53491" lon="6.58434">
        <ele>109</ele>
        <time>2017-01-08T09:32:55Z</time>
      </trkpt>
      <trkpt lat="43.53496" lon="6.58445">
        <ele>108</ele>
        <time>2017-01-08T09:33:01Z</time>
      </trkpt>
      <trkpt lat="43.53504" lon="6.58454">
        <ele>107.2</ele>
        <time>2017-01-08T09:33:08Z</time>
      </trkpt>
      <trkpt lat="43.5351" lon="6.58465">
        <ele>106.6</ele>
        <time>2017-01-08T09:33:16Z</time>
      </trkpt>
      <trkpt lat="43.53519" lon="6.58476">
        <ele>106.8</ele>
        <time>2017-01-08T09:33:25Z</time>
      </trkpt>
      <trkpt lat="43.53525" lon="6.58487">
        <ele>107.1</ele>
        <time>2017-01-08T09:33:34Z</time>
      </trkpt>
      <trkpt lat="43.53534" lon="6.58495">
        <ele>107.1</ele>
        <time>2017-01-08T09:33:40Z</time>
      </trkpt>
      <trkpt lat="43.53542" lon="6.58502">
        <ele>106.8</ele>
        <time>2017-01-08T09:33:48Z</time>
      </trkpt>
      <trkpt lat="43.5354" lon="6.58514">
        <ele>105.9</ele>
        <time>2017-01-08T09:34:53Z</time>
      </trkpt>
      <trkpt lat="43.5355" lon="6.58513">
        <ele>105.3</ele>
        <time>2017-01-08T09:35:37Z</time>
      </trkpt>
      <trkpt lat="43.53559" lon="6.58518">
        <ele>103.8</ele>
        <time>2017-01-08T09:35:47Z</time>
      </trkpt>
      <trkpt lat="43.53569" lon="6.58519">
        <ele>102.5</ele>
        <time>2017-01-08T09:35:57Z</time>
      </trkpt>
      <trkpt lat="43.53578" lon="6.58519">
        <ele>101.1</ele>
        <time>2017-01-08T09:36:10Z</time>
      </trkpt>
      <trkpt lat="43.53587" lon="6.58522">
        <ele>100.5</ele>
        <time>2017-01-08T09:36:32Z</time>
      </trkpt>
      <trkpt lat="43.53595" lon="6.58529">
        <ele>99.9</ele>
        <time>2017-01-08T09:36:43Z</time>
      </trkpt>
      <trkpt lat="43.53603" lon="6.58536">
        <ele>98.6</ele>
        <time>2017-01-08T09:36:58Z</time>
      </trkpt>
      <trkpt lat="43.53612" lon="6.58539">
        <ele>97.9</ele>
        <time>2017-01-08T09:37:10Z</time>
      </trkpt>
      <trkpt lat="43.53621" lon="6.58542">
        <ele>97.5</ele>
        <time>2017-01-08T09:37:19Z</time>
      </trkpt>
      <trkpt lat="43.5363" lon="6.58542">
        <ele>96.7</ele>
        <time>2017-01-08T09:37:30Z</time>
      </trkpt>
      <trkpt lat="43.5364" lon="6.58542">
        <ele>96.2</ele>
        <time>2017-01-08T09:37:37Z</time>
      </trkpt>
      <trkpt lat="43.53648" lon="6.58549">
        <ele>95.9</ele>
        <time>2017-01-08T09:37:45Z</time>
      </trkpt>
      <trkpt lat="43.53656" lon="6.58556">
        <ele>95</ele>
        <time>2017-01-08T09:37:58Z</time>
      </trkpt>
      <trkpt lat="43.53665" lon="6.5856">
        <ele>94.9</ele>
        <time>2017-01-08T09:38:09Z</time>
      </trkpt>
      <trkpt lat="43.53673" lon="6.58565">
        <ele>95.2</ele>
        <time>2017-01-08T09:38:17Z</time>
      </trkpt>
      <trkpt lat="43.53681" lon="6.58572">
        <ele>93.4</ele>
        <time>2017-01-08T09:38:28Z</time>
      </trkpt>
      <trkpt lat="43.5369" lon="6.58576">
        <ele>93.1</ele>
        <time>2017-01-08T09:38:35Z</time>
      </trkpt>
      <trkpt lat="43.537" lon="6.58577">
        <ele>92.4</ele>
        <time>2017-01-08T09:38:45Z</time>
      </trkpt>
      <trkpt lat="43.53708" lon="6.58581">
        <ele>91.4</ele>
        <time>2017-01-08T09:38:54Z</time>
      </trkpt>
      <trkpt lat="43.53715" lon="6.58591">
        <ele>89.8</ele>
        <time>2017-01-08T09:39:05Z</time>
      </trkpt>
      <trkpt lat="43.53724" lon="6.58598">
        <ele>88.5</ele>
        <time>2017-01-08T09:39:16Z</time>
      </trkpt>
      <trkpt lat="43.53731" lon="6.58605">
        <ele>85.8</ele>
        <time>2017-01-08T09:39:30Z</time>
      </trkpt>
      <trkpt lat="43.53737" lon="6.58615">
        <ele>83</ele>
        <time>2017-01-08T09:39:45Z</time>
      </trkpt>
      <trkpt lat="43.53744" lon="6.58626">
        <ele>82.1</ele>
        <time>2017-01-08T09:39:56Z</time>
      </trkpt>
      <trkpt lat="43.53749" lon="6.58637">
        <ele>81.3</ele>
        <time>2017-01-08T09:40:04Z</time>
      </trkpt>
      <trkpt lat="43.53745" lon="6.58649">
        <ele>79</ele>
        <time>2017-01-08T09:40:24Z</time>
      </trkpt>
      <trkpt lat="43.53753" lon="6.58642">
        <ele>80.3</ele>
        <time>2017-01-08T09:40:59Z</time>
      </trkpt>
      <trkpt lat="43.53762" lon="6.58642">
        <ele>81</ele>
        <time>2017-01-08T09:41:11Z</time>
      </trkpt>
      <trkpt lat="43.53771" lon="6.58646">
        <ele>81.3</ele>
        <time>2017-01-08T09:41:22Z</time>
      </trkpt>
      <trkpt lat="43.5378" lon="6.58649">
        <ele>81.4</ele>
        <time>2017-01-08T09:41:28Z</time>
      </trkpt>
      <trkpt lat="43.53789" lon="6.58652">
        <ele>81.4</ele>
        <time>2017-01-08T09:41:37Z</time>
      </trkpt>
      <trkpt lat="43.53797" lon="6.58658">
        <ele>81.3</ele>
        <time>2017-01-08T09:41:44Z</time>
      </trkpt>
      <trkpt lat="43.53805" lon="6.58664">
        <ele>81.3</ele>
        <time>2017-01-08T09:41:54Z</time>
      </trkpt>
      <trkpt lat="43.53815" lon="6.58668">
        <ele>81.3</ele>
        <time>2017-01-08T09:42:00Z</time>
      </trkpt>
      <trkpt lat="43.53824" lon="6.58669">
        <ele>81.6</ele>
        <time>2017-01-08T09:42:08Z</time>
      </trkpt>
      <trkpt lat="43.53834" lon="6.58672">
        <ele>81.8</ele>
        <time>2017-01-08T09:42:14Z</time>
      </trkpt>
      <trkpt lat="43.53844" lon="6.58677">
        <ele>82.3</ele>
        <time>2017-01-08T09:42:20Z</time>
      </trkpt>
      <trkpt lat="43.53853" lon="6.58678">
        <ele>82.7</ele>
        <time>2017-01-08T09:42:26Z</time>
      </trkpt>
      <trkpt lat="43.53863" lon="6.5868">
        <ele>83.3</ele>
        <time>2017-01-08T09:42:32Z</time>
      </trkpt>
      <trkpt lat="43.53873" lon="6.58685">
        <ele>83.4</ele>
        <time>2017-01-08T09:42:38Z</time>
      </trkpt>
      <trkpt lat="43.53882" lon="6.58688">
        <ele>83.7</ele>
        <time>2017-01-08T09:42:43Z</time>
      </trkpt>
      <trkpt lat="43.53893" lon="6.58689">
        <ele>83.8</ele>
        <time>2017-01-08T09:42:52Z</time>
      </trkpt>
      <trkpt lat="43.53903" lon="6.58688">
        <ele>84.3</ele>
        <time>2017-01-08T09:42:58Z</time>
      </trkpt>
      <trkpt lat="43.53912" lon="6.58684">
        <ele>84.6</ele>
        <time>2017-01-08T09:43:03Z</time>
      </trkpt>
      <trkpt lat="43.53921" lon="6.58679">
        <ele>84.9</ele>
        <time>2017-01-08T09:43:08Z</time>
      </trkpt>
      <trkpt lat="43.5393" lon="6.58674">
        <ele>85.1</ele>
        <time>2017-01-08T09:43:14Z</time>
      </trkpt>
      <trkpt lat="43.53938" lon="6.58667">
        <ele>85.7</ele>
        <time>2017-01-08T09:43:21Z</time>
      </trkpt>
      <trkpt lat="43.53944" lon="6.58657">
        <ele>86.7</ele>
        <time>2017-01-08T09:43:28Z</time>
      </trkpt>
      <trkpt lat="43.53952" lon="6.58649">
        <ele>87.1</ele>
        <time>2017-01-08T09:43:35Z</time>
      </trkpt>
      <trkpt lat="43.53957" lon="6.58638">
        <ele>86.9</ele>
        <time>2017-01-08T09:43:56Z</time>
      </trkpt>
      <trkpt lat="43.53962" lon="6.58628">
        <ele>85.7</ele>
        <time>2017-01-08T09:45:37Z</time>
      </trkpt>
      <trkpt lat="43.53968" lon="6.58617">
        <ele>86.6</ele>
        <time>2017-01-08T09:47:19Z</time>
      </trkpt>
      <trkpt lat="43.53967" lon="6.5863">
        <ele>86.6</ele>
        <time>2017-01-08T09:47:53Z</time>
      </trkpt>
      <trkpt lat="43.53975" lon="6.58625">
        <ele>86.3</ele>
        <time>2017-01-08T09:48:41Z</time>
      </trkpt>
      <trkpt lat="43.53979" lon="6.58613">
        <ele>87.1</ele>
        <time>2017-01-08T09:48:59Z</time>
      </trkpt>
      <trkpt lat="43.53988" lon="6.58609">
        <ele>90.7</ele>
        <time>2017-01-08T09:50:05Z</time>
      </trkpt>
      <trkpt lat="43.53992" lon="6.58621">
        <ele>90.5</ele>
        <time>2017-01-08T09:51:37Z</time>
      </trkpt>
      <trkpt lat="43.53994" lon="6.58634">
        <ele>89.8</ele>
        <time>2017-01-08T09:52:06Z</time>
      </trkpt>
      <trkpt lat="43.53999" lon="6.58644">
        <ele>89.6</ele>
        <time>2017-01-08T09:52:17Z</time>
      </trkpt>
      <trkpt lat="43.54007" lon="6.58651">
        <ele>90.1</ele>
        <time>2017-01-08T09:52:50Z</time>
      </trkpt>
      <trkpt lat="43.54016" lon="6.58656">
        <ele>90.9</ele>
        <time>2017-01-08T09:53:06Z</time>
      </trkpt>
      <trkpt lat="43.54026" lon="6.58655">
        <ele>91.6</ele>
        <time>2017-01-08T09:53:20Z</time>
      </trkpt>
      <trkpt lat="43.54035" lon="6.58652">
        <ele>92.9</ele>
        <time>2017-01-08T09:53:37Z</time>
      </trkpt>
      <trkpt lat="43.54043" lon="6.58648">
        <ele>95.2</ele>
        <time>2017-01-08T09:53:59Z</time>
      </trkpt>
      <trkpt lat="43.54052" lon="6.58643">
        <ele>97.8</ele>
        <time>2017-01-08T09:54:13Z</time>
      </trkpt>
      <trkpt lat="43.54061" lon="6.58639">
        <ele>100.3</ele>
        <time>2017-01-08T09:54:41Z</time>
      </trkpt>
      <trkpt lat="43.54067" lon="6.58648">
        <ele>101.6</ele>
        <time>2017-01-08T09:55:31Z</time>
      </trkpt>
      <trkpt lat="43.54077" lon="6.58645">
        <ele>103.1</ele>
        <time>2017-01-08T09:56:09Z</time>
      </trkpt>
      <trkpt lat="43.54086" lon="6.58647">
        <ele>104.9</ele>
        <time>2017-01-08T09:56:20Z</time>
      </trkpt>
      <trkpt lat="43.54095" lon="6.58652">
        <ele>105.8</ele>
        <time>2017-01-08T09:56:37Z</time>
      </trkpt>
      <trkpt lat="43.54104" lon="6.58654">
        <ele>107.4</ele>
        <time>2017-01-08T09:56:48Z</time>
      </trkpt>
      <trkpt lat="43.54113" lon="6.58656">
        <ele>108.5</ele>
        <time>2017-01-08T09:57:07Z</time>
      </trkpt>
      <trkpt lat="43.54123" lon="6.58656">
        <ele>109.6</ele>
        <time>2017-01-08T09:57:24Z</time>
      </trkpt>
      <trkpt lat="43.54131" lon="6.58648">
        <ele>110.4</ele>
        <time>2017-01-08T09:57:34Z</time>
      </trkpt>
      <trkpt lat="43.54138" lon="6.5864">
        <ele>111.4</ele>
        <time>2017-01-08T09:57:45Z</time>
      </trkpt>
      <trkpt lat="43.54146" lon="6.58634">
        <ele>112.8</ele>
        <time>2017-01-08T09:58:02Z</time>
      </trkpt>
      <trkpt lat="43.54153" lon="6.58625">
        <ele>113.6</ele>
        <time>2017-01-08T09:58:17Z</time>
      </trkpt>
      <trkpt lat="43.54162" lon="6.5862">
        <ele>116.2</ele>
        <time>2017-01-08T09:58:59Z</time>
      </trkpt>
      <trkpt lat="43.5417" lon="6.58612">
        <ele>118.2</ele>
        <time>2017-01-08T09:59:30Z</time>
      </trkpt>
      <trkpt lat="43.54178" lon="6.58605">
        <ele>119.6</ele>
        <time>2017-01-08T09:59:44Z</time>
      </trkpt>
      <trkpt lat="43.54186" lon="6.58601">
        <ele>121.1</ele>
        <time>2017-01-08T09:59:58Z</time>
      </trkpt>
      <trkpt lat="43.54194" lon="6.58595">
        <ele>123.1</ele>
        <time>2017-01-08T10:00:15Z</time>
      </trkpt>
      <trkpt lat="43.54203" lon="6.58591">
        <ele>124.4</ele>
        <time>2017-01-08T10:00:27Z</time>
      </trkpt>
      <trkpt lat="43.54211" lon="6.58587">
        <ele>126.9</ele>
        <time>2017-01-08T10:01:00Z</time>
      </trkpt>
      <trkpt lat="43.5422" lon="6.58583">
        <ele>129.3</ele>
        <time>2017-01-08T10:01:28Z</time>
      </trkpt>
      <trkpt lat="43.54227" lon="6.58575">
        <ele>132.4</ele>
        <time>2017-01-08T10:01:53Z</time>
      </trkpt>
      <trkpt lat="43.54233" lon="6.58565">
        <ele>135</ele>
        <time>2017-01-08T10:02:18Z</time>
      </trkpt>
      <trkpt lat="43.54241" lon="6.58561">
        <ele>136.8</ele>
        <time>2017-01-08T10:05:35Z</time>
      </trkpt>
      <trkpt lat="43.54242" lon="6.58548">
        <ele>139.6</ele>
        <time>2017-01-08T10:06:16Z</time>
      </trkpt>
      <trkpt lat="43.54248" lon="6.58539">
        <ele>145.7</ele>
        <time>2017-01-08T10:07:30Z</time>
      </trkpt>
      <trkpt lat="43.54252" lon="6.58528">
        <ele>147.7</ele>
        <time>2017-01-08T10:07:55Z</time>
      </trkpt>
      <trkpt lat="43.5426" lon="6.58533">
        <ele>149.6</ele>
        <time>2017-01-08T10:08:33Z</time>
      </trkpt>
      <trkpt lat="43.5427" lon="6.58535">
        <ele>151.3</ele>
        <time>2017-01-08T10:08:49Z</time>
      </trkpt>
      <trkpt lat="43.54279" lon="6.58534">
        <ele>152.4</ele>
        <time>2017-01-08T10:09:54Z</time>
      </trkpt>
      <trkpt lat="43.54288" lon="6.58534">
        <ele>154.3</ele>
        <time>2017-01-08T10:10:06Z</time>
      </trkpt>
      <trkpt lat="43.54297" lon="6.58537">
        <ele>158.4</ele>
        <time>2017-01-08T10:10:31Z</time>
      </trkpt>
      <trkpt lat="43.54306" lon="6.58536">
        <ele>160</ele>
        <time>2017-01-08T10:10:45Z</time>
      </trkpt>
      <trkpt lat="43.54315" lon="6.58531">
        <ele>161.7</ele>
        <time>2017-01-08T10:10:58Z</time>
      </trkpt>
      <trkpt lat="43.54324" lon="6.58529">
        <ele>164.4</ele>
        <time>2017-01-08T10:11:17Z</time>
      </trkpt>
      <trkpt lat="43.54333" lon="6.58527">
        <ele>165</ele>
        <time>2017-01-08T10:11:53Z</time>
      </trkpt>
      <trkpt lat="43.54339" lon="6.58537">
        <ele>165.3</ele>
        <time>2017-01-08T10:12:11Z</time>
      </trkpt>
      <trkpt lat="43.54344" lon="6.58548">
        <ele>166.4</ele>
        <time>2017-01-08T10:12:26Z</time>
      </trkpt>
      <trkpt lat="43.54352" lon="6.58553">
        <ele>167.5</ele>
        <time>2017-01-08T10:12:36Z</time>
      </trkpt>
      <trkpt lat="43.54361" lon="6.58559">
        <ele>168.1</ele>
        <time>2017-01-08T10:12:46Z</time>
      </trkpt>
      <trkpt lat="43.54368" lon="6.58566">
        <ele>168.2</ele>
        <time>2017-01-08T10:12:55Z</time>
      </trkpt>
      <trkpt lat="43.54374" lon="6.58576">
        <ele>168.6</ele>
        <time>2017-01-08T10:13:13Z</time>
      </trkpt>
      <trkpt lat="43.54381" lon="6.58584">
        <ele>168.2</ele>
        <time>2017-01-08T10:13:24Z</time>
      </trkpt>
      <trkpt lat="43.54384" lon="6.58596">
        <ele>167.9</ele>
        <time>2017-01-08T10:13:45Z</time>
      </trkpt>
      <trkpt lat="43.54391" lon="6.58605">
        <ele>167.8</ele>
        <time>2017-01-08T10:13:56Z</time>
      </trkpt>
      <trkpt lat="43.54399" lon="6.58613">
        <ele>167.9</ele>
        <time>2017-01-08T10:14:09Z</time>
      </trkpt>
      <trkpt lat="43.54407" lon="6.58618">
        <ele>166.3</ele>
        <time>2017-01-08T10:14:30Z</time>
      </trkpt>
      <trkpt lat="43.54413" lon="6.58627">
        <ele>165.5</ele>
        <time>2017-01-08T10:14:50Z</time>
      </trkpt>
      <trkpt lat="43.5442" lon="6.58635">
        <ele>166.2</ele>
        <time>2017-01-08T10:15:18Z</time>
      </trkpt>
      <trkpt lat="43.54427" lon="6.58625">
        <ele>170.6</ele>
        <time>2017-01-08T10:15:52Z</time>
      </trkpt>
      <trkpt lat="43.54436" lon="6.58625">
        <ele>172.7</ele>
        <time>2017-01-08T10:16:19Z</time>
      </trkpt>
      <trkpt lat="43.54444" lon="6.58631">
        <ele>172.8</ele>
        <time>2017-01-08T10:16:32Z</time>
      </trkpt>
      <trkpt lat="43.54454" lon="6.58631">
        <ele>177.4</ele>
        <time>2017-01-08T10:16:56Z</time>
      </trkpt>
      <trkpt lat="43.54463" lon="6.58631">
        <ele>181.2</ele>
        <time>2017-01-08T10:17:28Z</time>
      </trkpt>
      <trkpt lat="43.54469" lon="6.58622">
        <ele>188</ele>
        <time>2017-01-08T10:19:15Z</time>
      </trkpt>
      <trkpt lat="43.54479" lon="6.5862">
        <ele>193</ele>
        <time>2017-01-08T10:20:08Z</time>
      </trkpt>
      <trkpt lat="43.54486" lon="6.58613">
        <ele>197.5</ele>
        <time>2017-01-08T10:20:31Z</time>
      </trkpt>
      <trkpt lat="43.54495" lon="6.58616">
        <ele>203.8</ele>
        <time>2017-01-08T10:21:11Z</time>
      </trkpt>
      <trkpt lat="43.54504" lon="6.58619">
        <ele>207.5</ele>
        <time>2017-01-08T10:21:35Z</time>
      </trkpt>
      <trkpt lat="43.54513" lon="6.58613">
        <ele>208.9</ele>
        <time>2017-01-08T10:21:53Z</time>
      </trkpt>
      <trkpt lat="43.54519" lon="6.58605">
        <ele>209</ele>
        <time>2017-01-08T10:22:04Z</time>
      </trkpt>
      <trkpt lat="43.54528" lon="6.58601">
        <ele>209.7</ele>
        <time>2017-01-08T10:22:14Z</time>
      </trkpt>
      <trkpt lat="43.54538" lon="6.58603">
        <ele>210.3</ele>
        <time>2017-01-08T10:22:39Z</time>
      </trkpt>
      <trkpt lat="43.54548" lon="6.58597">
        <ele>210.2</ele>
        <time>2017-01-08T10:22:50Z</time>
      </trkpt>
      <trkpt lat="43.54538" lon="6.58595">
        <ele>210.1</ele>
        <time>2017-01-08T10:23:09Z</time>
      </trkpt>
      <trkpt lat="43.54532" lon="6.58586">
        <ele>210.1</ele>
        <time>2017-01-08T10:23:30Z</time>
      </trkpt>
      <trkpt lat="43.54529" lon="6.58573">
        <ele>210.9</ele>
        <time>2017-01-08T10:23:58Z</time>
      </trkpt>
      <trkpt lat="43.54533" lon="6.58561">
        <ele>211.2</ele>
        <time>2017-01-08T10:24:17Z</time>
      </trkpt>
      <trkpt lat="43.54532" lon="6.58548">
        <ele>211.4</ele>
        <time>2017-01-08T10:24:26Z</time>
      </trkpt>
      <trkpt lat="43.5453" lon="6.58535">
        <ele>212.4</ele>
        <time>2017-01-08T10:24:34Z</time>
      </trkpt>
      <trkpt lat="43.54529" lon="6.58521">
        <ele>213.3</ele>
        <time>2017-01-08T10:24:44Z</time>
      </trkpt>
      <trkpt lat="43.54537" lon="6.58515">
        <ele>215.5</ele>
        <time>2017-01-08T10:25:30Z</time>
      </trkpt>
      <trkpt lat="43.54548" lon="6.58517">
        <ele>214.8</ele>
        <time>2017-01-08T10:25:39Z</time>
      </trkpt>
      <trkpt lat="43.54554" lon="6.58525">
        <ele>213.3</ele>
        <time>2017-01-08T10:25:51Z</time>
      </trkpt>
      <trkpt lat="43.54552" lon="6.58537">
        <ele>211.8</ele>
        <time>2017-01-08T10:26:02Z</time>
      </trkpt>
      <trkpt lat="43.54554" lon="6.58552">
        <ele>211.2</ele>
        <time>2017-01-08T10:26:09Z</time>
      </trkpt>
      <trkpt lat="43.54554" lon="6.58565">
        <ele>210.4</ele>
        <time>2017-01-08T10:26:17Z</time>
      </trkpt>
      <trkpt lat="43.54554" lon="6.58578">
        <ele>209.6</ele>
        <time>2017-01-08T10:26:26Z</time>
      </trkpt>
      <trkpt lat="43.54552" lon="6.58591">
        <ele>209.3</ele>
        <time>2017-01-08T10:26:39Z</time>
      </trkpt>
      <trkpt lat="43.54557" lon="6.58601">
        <ele>208.9</ele>
        <time>2017-01-08T10:27:18Z</time>
      </trkpt>
      <trkpt lat="43.54555" lon="6.58613">
        <ele>208.7</ele>
        <time>2017-01-08T10:27:34Z</time>
      </trkpt>
      <trkpt lat="43.54558" lon="6.58626">
        <ele>208.6</ele>
        <time>2017-01-08T10:28:23Z</time>
      </trkpt>
      <trkpt lat="43.54556" lon="6.58639">
        <ele>208.1</ele>
        <time>2017-01-08T10:29:33Z</time>
      </trkpt>
      <trkpt lat="43.54547" lon="6.58637">
        <ele>209.8</ele>
        <time>2017-01-08T10:30:46Z</time>
      </trkpt>
      <trkpt lat="43.54546" lon="6.58624">
        <ele>209.4</ele>
        <time>2017-01-08T10:31:10Z</time>
      </trkpt>
      <trkpt lat="43.54545" lon="6.58611">
        <ele>209.9</ele>
        <time>2017-01-08T10:31:20Z</time>
      </trkpt>
      <trkpt lat="43.54548" lon="6.586">
        <ele>210.2</ele>
        <time>2017-01-08T10:31:43Z</time>
      </trkpt>
      <trkpt lat="43.54543" lon="6.58588">
        <ele>210.7</ele>
        <time>2017-01-08T10:32:06Z</time>
      </trkpt>
      <trkpt lat="43.5454" lon="6.58576">
        <ele>211.2</ele>
        <time>2017-01-08T10:32:15Z</time>
      </trkpt>
      <trkpt lat="43.54537" lon="6.58564">
        <ele>211.8</ele>
        <time>2017-01-08T10:32:25Z</time>
      </trkpt>
      <trkpt lat="43.54536" lon="6.5855">
        <ele>212.1</ele>
        <time>2017-01-08T10:32:35Z</time>
      </trkpt>
      <trkpt lat="43.54534" lon="6.58537">
        <ele>212.8</ele>
        <time>2017-01-08T10:32:46Z</time>
      </trkpt>
      <trkpt lat="43.54531" lon="6.58525">
        <ele>214.2</ele>
        <time>2017-01-08T10:33:02Z</time>
      </trkpt>
      <trkpt lat="43.54522" lon="6.58521">
        <ele>214.1</ele>
        <time>2017-01-08T10:33:29Z</time>
      </trkpt>
      <trkpt lat="43.54512" lon="6.58522">
        <ele>214.5</ele>
        <time>2017-01-08T10:33:41Z</time>
      </trkpt>
      <trkpt lat="43.54503" lon="6.58527">
        <ele>214.6</ele>
        <time>2017-01-08T10:33:49Z</time>
      </trkpt>
      <trkpt lat="43.54496" lon="6.58535">
        <ele>214.1</ele>
        <time>2017-01-08T10:34:06Z</time>
      </trkpt>
      <trkpt lat="43.54488" lon="6.58527">
        <ele>214.3</ele>
        <time>2017-01-08T10:34:32Z</time>
      </trkpt>
      <trkpt lat="43.54484" lon="6.58516">
        <ele>218.9</ele>
        <time>2017-01-08T10:35:46Z</time>
      </trkpt>
      <trkpt lat="43.54475" lon="6.58511">
        <ele>221.4</ele>
        <time>2017-01-08T10:36:04Z</time>
      </trkpt>
      <trkpt lat="43.54469" lon="6.58502">
        <ele>225</ele>
        <time>2017-01-08T10:36:27Z</time>
      </trkpt>
      <trkpt lat="43.54468" lon="6.5849">
        <ele>229.5</ele>
        <time>2017-01-08T10:36:55Z</time>
      </trkpt>
      <trkpt lat="43.54461" lon="6.58482">
        <ele>235.6</ele>
        <time>2017-01-08T10:38:21Z</time>
      </trkpt>
      <trkpt lat="43.54463" lon="6.5847">
        <ele>237.5</ele>
        <time>2017-01-08T10:38:58Z</time>
      </trkpt>
      <trkpt lat="43.54459" lon="6.58459">
        <ele>240.3</ele>
        <time>2017-01-08T10:39:34Z</time>
      </trkpt>
      <trkpt lat="43.54453" lon="6.58449">
        <ele>242.8</ele>
        <time>2017-01-08T10:39:45Z</time>
      </trkpt>
      <trkpt lat="43.54447" lon="6.58438">
        <ele>244.5</ele>
        <time>2017-01-08T10:39:57Z</time>
      </trkpt>
      <trkpt lat="43.54444" lon="6.5845">
        <ele>244.9</ele>
        <time>2017-01-08T10:40:30Z</time>
      </trkpt>
      <trkpt lat="43.54435" lon="6.58452">
        <ele>243.4</ele>
        <time>2017-01-08T10:45:07Z</time>
      </trkpt>
      <trkpt lat="43.54442" lon="6.5846">
        <ele>244.4</ele>
        <time>2017-01-08T10:45:44Z</time>
      </trkpt>
      <trkpt lat="43.54433" lon="6.58457">
        <ele>243.6</ele>
        <time>2017-01-08T10:49:34Z</time>
      </trkpt>
      <trkpt lat="43.54442" lon="6.58458">
        <ele>243</ele>
        <time>2017-01-08T10:51:04Z</time>
      </trkpt>
      <trkpt lat="43.54441" lon="6.58445">
        <ele>245.2</ele>
        <time>2017-01-08T10:55:50Z</time>
      </trkpt>
      <trkpt lat="43.54435" lon="6.58454">
        <ele>245.5</ele>
        <time>2017-01-08T10:59:18Z</time>
      </trkpt>
      <trkpt lat="43.54436" lon="6.58467">
        <ele>231.2</ele>
        <time>2017-01-08T11:32:01Z</time>
      </trkpt>
      <trkpt lat="43.54437" lon="6.58454">
        <ele>231.7</ele>
        <time>2017-01-08T11:32:35Z</time>
      </trkpt>
      <trkpt lat="43.54446" lon="6.5845">
        <ele>230</ele>
        <time>2017-01-08T11:33:40Z</time>
      </trkpt>
      <trkpt lat="43.54451" lon="6.5844">
        <ele>229.4</ele>
        <time>2017-01-08T11:34:40Z</time>
      </trkpt>
      <trkpt lat="43.54444" lon="6.5845">
        <ele>228.3</ele>
        <time>2017-01-08T11:36:21Z</time>
      </trkpt>
      <trkpt lat="43.54442" lon="6.58438">
        <ele>228.5</ele>
        <time>2017-01-08T11:43:33Z</time>
      </trkpt>
      <trkpt lat="43.54434" lon="6.5843">
        <ele>229.2</ele>
        <time>2017-01-08T11:43:42Z</time>
      </trkpt>
      <trkpt lat="43.54426" lon="6.58424">
        <ele>228.3</ele>
        <time>2017-01-08T11:43:49Z</time>
      </trkpt>
      <trkpt lat="43.54422" lon="6.58412">
        <ele>228.7</ele>
        <time>2017-01-08T11:44:01Z</time>
      </trkpt>
      <trkpt lat="43.54413" lon="6.58407">
        <ele>227.5</ele>
        <time>2017-01-08T11:44:08Z</time>
      </trkpt>
      <trkpt lat="43.54407" lon="6.58399">
        <ele>226.2</ele>
        <time>2017-01-08T11:44:17Z</time>
      </trkpt>
      <trkpt lat="43.54397" lon="6.58393">
        <ele>225.3</ele>
        <time>2017-01-08T11:44:25Z</time>
      </trkpt>
      <trkpt lat="43.54388" lon="6.58385">
        <ele>224.4</ele>
        <time>2017-01-08T11:44:34Z</time>
      </trkpt>
      <trkpt lat="43.54381" lon="6.58376">
        <ele>223.4</ele>
        <time>2017-01-08T11:44:43Z</time>
      </trkpt>
      <trkpt lat="43.54383" lon="6.58364">
        <ele>222.4</ele>
        <time>2017-01-08T11:44:53Z</time>
      </trkpt>
      <trkpt lat="43.54389" lon="6.58353">
        <ele>221.5</ele>
        <time>2017-01-08T11:45:04Z</time>
      </trkpt>
      <trkpt lat="43.54392" lon="6.58341">
        <ele>222.4</ele>
        <time>2017-01-08T11:45:14Z</time>
      </trkpt>
      <trkpt lat="43.54391" lon="6.58329">
        <ele>222.6</ele>
        <time>2017-01-08T11:45:51Z</time>
      </trkpt>
      <trkpt lat="43.544" lon="6.58328">
        <ele>223.2</ele>
        <time>2017-01-08T11:46:30Z</time>
      </trkpt>
      <trkpt lat="43.54408" lon="6.58322">
        <ele>223.9</ele>
        <time>2017-01-08T11:46:36Z</time>
      </trkpt>
      <trkpt lat="43.54417" lon="6.58316">
        <ele>224.2</ele>
        <time>2017-01-08T11:46:43Z</time>
      </trkpt>
      <trkpt lat="43.54427" lon="6.5831">
        <ele>224.7</ele>
        <time>2017-01-08T11:46:53Z</time>
      </trkpt>
      <trkpt lat="43.54435" lon="6.58302">
        <ele>225.3</ele>
        <time>2017-01-08T11:46:59Z</time>
      </trkpt>
      <trkpt lat="43.54443" lon="6.58295">
        <ele>225.6</ele>
        <time>2017-01-08T11:47:07Z</time>
      </trkpt>
      <trkpt lat="43.54452" lon="6.58288">
        <ele>225.8</ele>
        <time>2017-01-08T11:47:16Z</time>
      </trkpt>
      <trkpt lat="43.54459" lon="6.58279">
        <ele>226.2</ele>
        <time>2017-01-08T11:47:21Z</time>
      </trkpt>
      <trkpt lat="43.54466" lon="6.58269">
        <ele>226.6</ele>
        <time>2017-01-08T11:47:28Z</time>
      </trkpt>
      <trkpt lat="43.54472" lon="6.58259">
        <ele>226.3</ele>
        <time>2017-01-08T11:47:33Z</time>
      </trkpt>
      <trkpt lat="43.54477" lon="6.58248">
        <ele>226</ele>
        <time>2017-01-08T11:47:39Z</time>
      </trkpt>
      <trkpt lat="43.54483" lon="6.58238">
        <ele>225.2</ele>
        <time>2017-01-08T11:47:47Z</time>
      </trkpt>
      <trkpt lat="43.54489" lon="6.58228">
        <ele>224.5</ele>
        <time>2017-01-08T11:47:57Z</time>
      </trkpt>
      <trkpt lat="43.54496" lon="6.5822">
        <ele>223.9</ele>
        <time>2017-01-08T11:48:03Z</time>
      </trkpt>
      <trkpt lat="43.54504" lon="6.58214">
        <ele>222.7</ele>
        <time>2017-01-08T11:48:11Z</time>
      </trkpt>
      <trkpt lat="43.54512" lon="6.58205">
        <ele>222</ele>
        <time>2017-01-08T11:48:16Z</time>
      </trkpt>
      <trkpt lat="43.54517" lon="6.58195">
        <ele>221.5</ele>
        <time>2017-01-08T11:48:23Z</time>
      </trkpt>
      <trkpt lat="43.54524" lon="6.58186">
        <ele>221.3</ele>
        <time>2017-01-08T11:48:29Z</time>
      </trkpt>
      <trkpt lat="43.54531" lon="6.58178">
        <ele>220.6</ele>
        <time>2017-01-08T11:48:37Z</time>
      </trkpt>
      <trkpt lat="43.54538" lon="6.58167">
        <ele>220.2</ele>
        <time>2017-01-08T11:48:41Z</time>
      </trkpt>
      <trkpt lat="43.54545" lon="6.58158">
        <ele>219.9</ele>
        <time>2017-01-08T11:49:06Z</time>
      </trkpt>
      <trkpt lat="43.54554" lon="6.58152">
        <ele>219.2</ele>
        <time>2017-01-08T11:49:14Z</time>
      </trkpt>
      <trkpt lat="43.54563" lon="6.58148">
        <ele>218.6</ele>
        <time>2017-01-08T11:49:20Z</time>
      </trkpt>
      <trkpt lat="43.54571" lon="6.5814">
        <ele>218</ele>
        <time>2017-01-08T11:49:26Z</time>
      </trkpt>
      <trkpt lat="43.54578" lon="6.58131">
        <ele>218.2</ele>
        <time>2017-01-08T11:49:33Z</time>
      </trkpt>
      <trkpt lat="43.54587" lon="6.58123">
        <ele>218.5</ele>
        <time>2017-01-08T11:49:41Z</time>
      </trkpt>
      <trkpt lat="43.54595" lon="6.58113">
        <ele>218.7</ele>
        <time>2017-01-08T11:49:49Z</time>
      </trkpt>
      <trkpt lat="43.54603" lon="6.58106">
        <ele>218.7</ele>
        <time>2017-01-08T11:49:56Z</time>
      </trkpt>
      <trkpt lat="43.5461" lon="6.58098">
        <ele>218.7</ele>
        <time>2017-01-08T11:50:02Z</time>
      </trkpt>
      <trkpt lat="43.54618" lon="6.58091">
        <ele>219.3</ele>
        <time>2017-01-08T11:50:09Z</time>
      </trkpt>
      <trkpt lat="43.54624" lon="6.58081">
        <ele>219.1</ele>
        <time>2017-01-08T11:50:17Z</time>
      </trkpt>
      <trkpt lat="43.54631" lon="6.5807">
        <ele>220</ele>
        <time>2017-01-08T11:50:25Z</time>
      </trkpt>
      <trkpt lat="43.54636" lon="6.5806">
        <ele>220.6</ele>
        <time>2017-01-08T11:50:31Z</time>
      </trkpt>
      <trkpt lat="43.54643" lon="6.5805">
        <ele>220.5</ele>
        <time>2017-01-08T11:50:39Z</time>
      </trkpt>
      <trkpt lat="43.54651" lon="6.5804">
        <ele>220.9</ele>
        <time>2017-01-08T11:50:47Z</time>
      </trkpt>
      <trkpt lat="43.54657" lon="6.5803">
        <ele>221.1</ele>
        <time>2017-01-08T11:50:56Z</time>
      </trkpt>
      <trkpt lat="43.54663" lon="6.58021">
        <ele>221.7</ele>
        <time>2017-01-08T11:51:04Z</time>
      </trkpt>
      <trkpt lat="43.54669" lon="6.5801">
        <ele>222.1</ele>
        <time>2017-01-08T11:51:17Z</time>
      </trkpt>
      <trkpt lat="43.54677" lon="6.58003">
        <ele>222.9</ele>
        <time>2017-01-08T11:51:25Z</time>
      </trkpt>
      <trkpt lat="43.54684" lon="6.57995">
        <ele>223.1</ele>
        <time>2017-01-08T11:51:34Z</time>
      </trkpt>
      <trkpt lat="43.54688" lon="6.57983">
        <ele>223.8</ele>
        <time>2017-01-08T11:51:41Z</time>
      </trkpt>
      <trkpt lat="43.5469" lon="6.57969">
        <ele>224.9</ele>
        <time>2017-01-08T11:51:52Z</time>
      </trkpt>
      <trkpt lat="43.54685" lon="6.57958">
        <ele>224.1</ele>
        <time>2017-01-08T11:52:05Z</time>
      </trkpt>
      <trkpt lat="43.54679" lon="6.57948">
        <ele>223.4</ele>
        <time>2017-01-08T11:52:14Z</time>
      </trkpt>
      <trkpt lat="43.54678" lon="6.57936">
        <ele>222.7</ele>
        <time>2017-01-08T11:52:23Z</time>
      </trkpt>
      <trkpt lat="43.5468" lon="6.57923">
        <ele>221.8</ele>
        <time>2017-01-08T11:52:31Z</time>
      </trkpt>
      <trkpt lat="43.54683" lon="6.5791">
        <ele>221.9</ele>
        <time>2017-01-08T11:52:37Z</time>
      </trkpt>
      <trkpt lat="43.54685" lon="6.57898">
        <ele>222.3</ele>
        <time>2017-01-08T11:53:38Z</time>
      </trkpt>
      <trkpt lat="43.54694" lon="6.57893">
        <ele>222.9</ele>
        <time>2017-01-08T11:54:54Z</time>
      </trkpt>
      <trkpt lat="43.54699" lon="6.57884">
        <ele>222.8</ele>
        <time>2017-01-08T11:55:02Z</time>
      </trkpt>
      <trkpt lat="43.54706" lon="6.57874">
        <ele>222.8</ele>
        <time>2017-01-08T11:55:14Z</time>
      </trkpt>
      <trkpt lat="43.54712" lon="6.57865">
        <ele>222.5</ele>
        <time>2017-01-08T11:55:25Z</time>
      </trkpt>
      <trkpt lat="43.54717" lon="6.57853">
        <ele>222.4</ele>
        <time>2017-01-08T11:55:32Z</time>
      </trkpt>
      <trkpt lat="43.54724" lon="6.57844">
        <ele>222.5</ele>
        <time>2017-01-08T11:55:42Z</time>
      </trkpt>
      <trkpt lat="43.54731" lon="6.57835">
        <ele>222.8</ele>
        <time>2017-01-08T11:55:48Z</time>
      </trkpt>
      <trkpt lat="43.5474" lon="6.5783">
        <ele>223.3</ele>
        <time>2017-01-08T11:55:56Z</time>
      </trkpt>
      <trkpt lat="43.54748" lon="6.57826">
        <ele>224.1</ele>
        <time>2017-01-08T11:56:06Z</time>
      </trkpt>
      <trkpt lat="43.54758" lon="6.57823">
        <ele>224.1</ele>
        <time>2017-01-08T11:56:16Z</time>
      </trkpt>
      <trkpt lat="43.54768" lon="6.57823">
        <ele>223.9</ele>
        <time>2017-01-08T11:56:25Z</time>
      </trkpt>
      <trkpt lat="43.54778" lon="6.57824">
        <ele>223.6</ele>
        <time>2017-01-08T11:56:35Z</time>
      </trkpt>
      <trkpt lat="43.54786" lon="6.57817">
        <ele>223.6</ele>
        <time>2017-01-08T11:56:42Z</time>
      </trkpt>
      <trkpt lat="43.54793" lon="6.57809">
        <ele>223.8</ele>
        <time>2017-01-08T11:56:47Z</time>
      </trkpt>
      <trkpt lat="43.54803" lon="6.57803">
        <ele>223.6</ele>
        <time>2017-01-08T11:56:54Z</time>
      </trkpt>
      <trkpt lat="43.54809" lon="6.57794">
        <ele>223.6</ele>
        <time>2017-01-08T11:57:01Z</time>
      </trkpt>
      <trkpt lat="43.54813" lon="6.57782">
        <ele>223.8</ele>
        <time>2017-01-08T11:57:09Z</time>
      </trkpt>
      <trkpt lat="43.54816" lon="6.5777">
        <ele>224.3</ele>
        <time>2017-01-08T11:57:16Z</time>
      </trkpt>
      <trkpt lat="43.54819" lon="6.57758">
        <ele>224.5</ele>
        <time>2017-01-08T11:57:24Z</time>
      </trkpt>
      <trkpt lat="43.54823" lon="6.57746">
        <ele>224.9</ele>
        <time>2017-01-08T11:57:32Z</time>
      </trkpt>
      <trkpt lat="43.54823" lon="6.57733">
        <ele>225.6</ele>
        <time>2017-01-08T11:57:42Z</time>
      </trkpt>
      <trkpt lat="43.54823" lon="6.5772">
        <ele>225.8</ele>
        <time>2017-01-08T11:57:50Z</time>
      </trkpt>
      <trkpt lat="43.54824" lon="6.57706">
        <ele>226.4</ele>
        <time>2017-01-08T11:58:00Z</time>
      </trkpt>
      <trkpt lat="43.54826" lon="6.57694">
        <ele>226.5</ele>
        <time>2017-01-08T11:58:06Z</time>
      </trkpt>
      <trkpt lat="43.5483" lon="6.57681">
        <ele>226.7</ele>
        <time>2017-01-08T11:58:14Z</time>
      </trkpt>
      <trkpt lat="43.54833" lon="6.57667">
        <ele>226.7</ele>
        <time>2017-01-08T11:58:21Z</time>
      </trkpt>
      <trkpt lat="43.54837" lon="6.57656">
        <ele>226.8</ele>
        <time>2017-01-08T11:58:29Z</time>
      </trkpt>
      <trkpt lat="43.54843" lon="6.57646">
        <ele>227.5</ele>
        <time>2017-01-08T11:58:42Z</time>
      </trkpt>
      <trkpt lat="43.54851" lon="6.57639">
        <ele>228.2</ele>
        <time>2017-01-08T11:58:55Z</time>
      </trkpt>
      <trkpt lat="43.5486" lon="6.5763">
        <ele>228.8</ele>
        <time>2017-01-08T11:59:07Z</time>
      </trkpt>
      <trkpt lat="43.54866" lon="6.5762">
        <ele>228.8</ele>
        <time>2017-01-08T11:59:19Z</time>
      </trkpt>
      <trkpt lat="43.54869" lon="6.57608">
        <ele>228.3</ele>
        <time>2017-01-08T11:59:31Z</time>
      </trkpt>
      <trkpt lat="43.54875" lon="6.57596">
        <ele>228.1</ele>
        <time>2017-01-08T11:59:38Z</time>
      </trkpt>
      <trkpt lat="43.54878" lon="6.57584">
        <ele>228.2</ele>
        <time>2017-01-08T11:59:48Z</time>
      </trkpt>
      <trkpt lat="43.54882" lon="6.57572">
        <ele>228.1</ele>
        <time>2017-01-08T11:59:56Z</time>
      </trkpt>
      <trkpt lat="43.54888" lon="6.57561">
        <ele>227.6</ele>
        <time>2017-01-08T12:00:05Z</time>
      </trkpt>
      <trkpt lat="43.54894" lon="6.57551">
        <ele>227.3</ele>
        <time>2017-01-08T12:00:16Z</time>
      </trkpt>
      <trkpt lat="43.549" lon="6.5754">
        <ele>227.2</ele>
        <time>2017-01-08T12:00:29Z</time>
      </trkpt>
      <trkpt lat="43.54906" lon="6.57531">
        <ele>227</ele>
        <time>2017-01-08T12:00:59Z</time>
      </trkpt>
      <trkpt lat="43.54914" lon="6.57523">
        <ele>226.7</ele>
        <time>2017-01-08T12:01:13Z</time>
      </trkpt>
      <trkpt lat="43.54922" lon="6.57515">
        <ele>226.3</ele>
        <time>2017-01-08T12:01:22Z</time>
      </trkpt>
      <trkpt lat="43.54929" lon="6.57506">
        <ele>225.8</ele>
        <time>2017-01-08T12:01:31Z</time>
      </trkpt>
      <trkpt lat="43.54937" lon="6.57497">
        <ele>224.8</ele>
        <time>2017-01-08T12:01:41Z</time>
      </trkpt>
      <trkpt lat="43.54945" lon="6.5749">
        <ele>224</ele>
        <time>2017-01-08T12:01:50Z</time>
      </trkpt>
      <trkpt lat="43.54951" lon="6.5748">
        <ele>225</ele>
        <time>2017-01-08T12:02:18Z</time>
      </trkpt>
      <trkpt lat="43.54956" lon="6.57469">
        <ele>219.2</ele>
        <time>2017-01-08T12:03:07Z</time>
      </trkpt>
      <trkpt lat="43.54958" lon="6.57457">
        <ele>217.8</ele>
        <time>2017-01-08T12:03:15Z</time>
      </trkpt>
      <trkpt lat="43.54959" lon="6.57444">
        <ele>214.9</ele>
        <time>2017-01-08T12:03:27Z</time>
      </trkpt>
      <trkpt lat="43.5496" lon="6.57431">
        <ele>212</ele>
        <time>2017-01-08T12:03:43Z</time>
      </trkpt>
      <trkpt lat="43.54954" lon="6.57422">
        <ele>207.9</ele>
        <time>2017-01-08T12:04:02Z</time>
      </trkpt>
      <trkpt lat="43.54944" lon="6.57423">
        <ele>205.9</ele>
        <time>2017-01-08T12:04:13Z</time>
      </trkpt>
      <trkpt lat="43.54936" lon="6.57429">
        <ele>204.1</ele>
        <time>2017-01-08T12:04:23Z</time>
      </trkpt>
      <trkpt lat="43.54927" lon="6.57431">
        <ele>202.9</ele>
        <time>2017-01-08T12:04:31Z</time>
      </trkpt>
      <trkpt lat="43.54918" lon="6.57434">
        <ele>201</ele>
        <time>2017-01-08T12:04:44Z</time>
      </trkpt>
      <trkpt lat="43.5491" lon="6.57439">
        <ele>199.1</ele>
        <time>2017-01-08T12:04:54Z</time>
      </trkpt>
      <trkpt lat="43.54902" lon="6.57445">
        <ele>197.5</ele>
        <time>2017-01-08T12:05:05Z</time>
      </trkpt>
      <trkpt lat="43.54893" lon="6.57443">
        <ele>195.5</ele>
        <time>2017-01-08T12:05:40Z</time>
      </trkpt>
      <trkpt lat="43.54884" lon="6.57447">
        <ele>194.7</ele>
        <time>2017-01-08T12:05:50Z</time>
      </trkpt>
      <trkpt lat="43.54874" lon="6.5745">
        <ele>194.2</ele>
        <time>2017-01-08T12:05:58Z</time>
      </trkpt>
      <trkpt lat="43.54868" lon="6.57441">
        <ele>192.2</ele>
        <time>2017-01-08T12:06:15Z</time>
      </trkpt>
      <trkpt lat="43.54864" lon="6.5743">
        <ele>189.1</ele>
        <time>2017-01-08T12:06:32Z</time>
      </trkpt>
      <trkpt lat="43.54861" lon="6.57418">
        <ele>186</ele>
        <time>2017-01-08T12:06:45Z</time>
      </trkpt>
      <trkpt lat="43.54852" lon="6.57414">
        <ele>182.6</ele>
        <time>2017-01-08T12:07:04Z</time>
      </trkpt>
      <trkpt lat="43.54843" lon="6.57408">
        <ele>178.7</ele>
        <time>2017-01-08T12:07:32Z</time>
      </trkpt>
      <trkpt lat="43.54835" lon="6.57401">
        <ele>175.7</ele>
        <time>2017-01-08T12:07:46Z</time>
      </trkpt>
      <trkpt lat="43.5483" lon="6.5739">
        <ele>173.2</ele>
        <time>2017-01-08T12:08:03Z</time>
      </trkpt>
      <trkpt lat="43.54839" lon="6.57384">
        <ele>172.5</ele>
        <time>2017-01-08T12:08:09Z</time>
      </trkpt>
      <trkpt lat="43.54847" lon="6.57377">
        <ele>171.8</ele>
        <time>2017-01-08T12:08:19Z</time>
      </trkpt>
      <trkpt lat="43.54853" lon="6.57366">
        <ele>170.7</ele>
        <time>2017-01-08T12:08:26Z</time>
      </trkpt>
      <trkpt lat="43.54863" lon="6.57362">
        <ele>172.1</ele>
        <time>2017-01-08T12:08:46Z</time>
      </trkpt>
      <trkpt lat="43.54872" lon="6.57356">
        <ele>172.2</ele>
        <time>2017-01-08T12:08:55Z</time>
      </trkpt>
      <trkpt lat="43.54881" lon="6.57353">
        <ele>172.6</ele>
        <time>2017-01-08T12:09:05Z</time>
      </trkpt>
      <trkpt lat="43.5489" lon="6.57348">
        <ele>172.7</ele>
        <time>2017-01-08T12:09:17Z</time>
      </trkpt>
      <trkpt lat="43.54899" lon="6.57345">
        <ele>173.9</ele>
        <time>2017-01-08T12:09:28Z</time>
      </trkpt>
      <trkpt lat="43.54905" lon="6.57336">
        <ele>174.7</ele>
        <time>2017-01-08T12:10:01Z</time>
      </trkpt>
      <trkpt lat="43.54914" lon="6.57329">
        <ele>175.1</ele>
        <time>2017-01-08T12:10:13Z</time>
      </trkpt>
      <trkpt lat="43.54918" lon="6.57318">
        <ele>174.9</ele>
        <time>2017-01-08T12:10:38Z</time>
      </trkpt>
      <trkpt lat="43.54926" lon="6.57313">
        <ele>174</ele>
        <time>2017-01-08T12:10:47Z</time>
      </trkpt>
      <trkpt lat="43.54935" lon="6.57304">
        <ele>173.2</ele>
        <time>2017-01-08T12:10:54Z</time>
      </trkpt>
      <trkpt lat="43.54943" lon="6.57296">
        <ele>172.3</ele>
        <time>2017-01-08T12:11:02Z</time>
      </trkpt>
      <trkpt lat="43.54949" lon="6.57284">
        <ele>171.9</ele>
        <time>2017-01-08T12:11:10Z</time>
      </trkpt>
      <trkpt lat="43.54956" lon="6.57274">
        <ele>171.7</ele>
        <time>2017-01-08T12:11:16Z</time>
      </trkpt>
      <trkpt lat="43.54962" lon="6.57265">
        <ele>171.1</ele>
        <time>2017-01-08T12:11:25Z</time>
      </trkpt>
      <trkpt lat="43.54969" lon="6.57257">
        <ele>170.3</ele>
        <time>2017-01-08T12:11:34Z</time>
      </trkpt>
      <trkpt lat="43.54975" lon="6.57247">
        <ele>170.5</ele>
        <time>2017-01-08T12:11:41Z</time>
      </trkpt>
      <trkpt lat="43.54979" lon="6.57234">
        <ele>170.7</ele>
        <time>2017-01-08T12:11:47Z</time>
      </trkpt>
      <trkpt lat="43.54978" lon="6.57222">
        <ele>170.5</ele>
        <time>2017-01-08T12:11:58Z</time>
      </trkpt>
      <trkpt lat="43.54984" lon="6.57212">
        <ele>170.8</ele>
        <time>2017-01-08T12:12:12Z</time>
      </trkpt>
      <trkpt lat="43.54993" lon="6.57206">
        <ele>171.2</ele>
        <time>2017-01-08T12:12:22Z</time>
      </trkpt>
      <trkpt lat="43.55002" lon="6.57206">
        <ele>172</ele>
        <time>2017-01-08T12:13:02Z</time>
      </trkpt>
      <trkpt lat="43.55012" lon="6.57209">
        <ele>172.1</ele>
        <time>2017-01-08T12:13:11Z</time>
      </trkpt>
      <trkpt lat="43.5502" lon="6.57216">
        <ele>172.5</ele>
        <time>2017-01-08T12:13:18Z</time>
      </trkpt>
      <trkpt lat="43.55028" lon="6.57221">
        <ele>173.5</ele>
        <time>2017-01-08T12:13:27Z</time>
      </trkpt>
      <trkpt lat="43.55038" lon="6.57225">
        <ele>172.8</ele>
        <time>2017-01-08T12:13:34Z</time>
      </trkpt>
      <trkpt lat="43.55047" lon="6.57228">
        <ele>172.3</ele>
        <time>2017-01-08T12:13:43Z</time>
      </trkpt>
      <trkpt lat="43.55058" lon="6.57228">
        <ele>172.8</ele>
        <time>2017-01-08T12:13:50Z</time>
      </trkpt>
      <trkpt lat="43.55068" lon="6.57222">
        <ele>173.4</ele>
        <time>2017-01-08T12:13:59Z</time>
      </trkpt>
      <trkpt lat="43.5507" lon="6.57209">
        <ele>174.3</ele>
        <time>2017-01-08T12:14:09Z</time>
      </trkpt>
      <trkpt lat="43.55064" lon="6.57198">
        <ele>175.2</ele>
        <time>2017-01-08T12:14:19Z</time>
      </trkpt>
      <trkpt lat="43.55058" lon="6.57187">
        <ele>176.1</ele>
        <time>2017-01-08T12:14:32Z</time>
      </trkpt>
      <trkpt lat="43.5505" lon="6.57181">
        <ele>177</ele>
        <time>2017-01-08T12:14:42Z</time>
      </trkpt>
      <trkpt lat="43.55041" lon="6.57176">
        <ele>178.1</ele>
        <time>2017-01-08T12:14:51Z</time>
      </trkpt>
      <trkpt lat="43.55032" lon="6.57171">
        <ele>179</ele>
        <time>2017-01-08T12:14:59Z</time>
      </trkpt>
      <trkpt lat="43.55023" lon="6.57169">
        <ele>180.9</ele>
        <time>2017-01-08T12:15:11Z</time>
      </trkpt>
      <trkpt lat="43.55016" lon="6.5716">
        <ele>183.2</ele>
        <time>2017-01-08T12:15:26Z</time>
      </trkpt>
      <trkpt lat="43.55006" lon="6.57159">
        <ele>185.2</ele>
        <time>2017-01-08T12:15:36Z</time>
      </trkpt>
      <trkpt lat="43.55001" lon="6.57148">
        <ele>186.9</ele>
        <time>2017-01-08T12:15:45Z</time>
      </trkpt>
      <trkpt lat="43.54991" lon="6.57146">
        <ele>188.6</ele>
        <time>2017-01-08T12:15:56Z</time>
      </trkpt>
      <trkpt lat="43.54981" lon="6.57144">
        <ele>189.6</ele>
        <time>2017-01-08T12:16:03Z</time>
      </trkpt>
      <trkpt lat="43.54972" lon="6.57144">
        <ele>190.5</ele>
        <time>2017-01-08T12:16:10Z</time>
      </trkpt>
      <trkpt lat="43.54961" lon="6.57144">
        <ele>192.1</ele>
        <time>2017-01-08T12:16:19Z</time>
      </trkpt>
      <trkpt lat="43.54955" lon="6.57134">
        <ele>194.2</ele>
        <time>2017-01-08T12:16:28Z</time>
      </trkpt>
      <trkpt lat="43.54947" lon="6.57141">
        <ele>196.7</ele>
        <time>2017-01-08T12:16:47Z</time>
      </trkpt>
      <trkpt lat="43.54937" lon="6.57143">
        <ele>200.4</ele>
        <time>2017-01-08T12:17:09Z</time>
      </trkpt>
      <trkpt lat="43.54929" lon="6.57151">
        <ele>201.5</ele>
        <time>2017-01-08T12:17:22Z</time>
      </trkpt>
      <trkpt lat="43.54923" lon="6.57159">
        <ele>201.3</ele>
        <time>2017-01-08T12:17:30Z</time>
      </trkpt>
      <trkpt lat="43.54917" lon="6.5717">
        <ele>200.7</ele>
        <time>2017-01-08T12:17:42Z</time>
      </trkpt>
      <trkpt lat="43.54918" lon="6.57182">
        <ele>200</ele>
        <time>2017-01-08T12:17:57Z</time>
      </trkpt>
      <trkpt lat="43.54929" lon="6.57178">
        <ele>203</ele>
        <time>2017-01-08T12:18:43Z</time>
      </trkpt>
      <trkpt lat="43.54936" lon="6.57169">
        <ele>203</ele>
        <time>2017-01-08T12:18:49Z</time>
      </trkpt>
      <trkpt lat="43.54933" lon="6.57182">
        <ele>202.9</ele>
        <time>2017-01-08T12:19:02Z</time>
      </trkpt>
      <trkpt lat="43.54926" lon="6.57189">
        <ele>202.9</ele>
        <time>2017-01-08T12:19:20Z</time>
      </trkpt>
      <trkpt lat="43.54928" lon="6.57176">
        <ele>203</ele>
        <time>2017-01-08T12:20:14Z</time>
      </trkpt>
      <trkpt lat="43.54931" lon="6.57163">
        <ele>203.4</ele>
        <time>2017-01-08T12:20:29Z</time>
      </trkpt>
      <trkpt lat="43.54925" lon="6.57175">
        <ele>203.2</ele>
        <time>2017-01-08T12:20:57Z</time>
      </trkpt>
      <trkpt lat="43.54928" lon="6.57187">
        <ele>203.2</ele>
        <time>2017-01-08T12:21:08Z</time>
      </trkpt>
      <trkpt lat="43.5492" lon="6.57193">
        <ele>201.6</ele>
        <time>2017-01-08T12:22:55Z</time>
      </trkpt>
      <trkpt lat="43.54913" lon="6.57202">
        <ele>201.9</ele>
        <time>2017-01-08T12:23:28Z</time>
      </trkpt>
      <trkpt lat="43.54918" lon="6.57191">
        <ele>202</ele>
        <time>2017-01-08T12:23:54Z</time>
      </trkpt>
      <trkpt lat="43.54925" lon="6.57181">
        <ele>201.7</ele>
        <time>2017-01-08T12:26:30Z</time>
      </trkpt>
      <trkpt lat="43.54928" lon="6.57169">
        <ele>202</ele>
        <time>2017-01-08T12:26:37Z</time>
      </trkpt>
      <trkpt lat="43.54934" lon="6.57159">
        <ele>202.3</ele>
        <time>2017-01-08T12:27:04Z</time>
      </trkpt>
      <trkpt lat="43.54942" lon="6.57153">
        <ele>199.2</ele>
        <time>2017-01-08T12:27:35Z</time>
      </trkpt>
      <trkpt lat="43.54947" lon="6.57142">
        <ele>196.9</ele>
        <time>2017-01-08T12:27:51Z</time>
      </trkpt>
      <trkpt lat="43.54954" lon="6.57133">
        <ele>196.9</ele>
        <time>2017-01-08T12:28:00Z</time>
      </trkpt>
      <trkpt lat="43.54953" lon="6.57119">
        <ele>198.1</ele>
        <time>2017-01-08T12:28:08Z</time>
      </trkpt>
      <trkpt lat="43.54954" lon="6.57106">
        <ele>198.9</ele>
        <time>2017-01-08T12:28:20Z</time>
      </trkpt>
      <trkpt lat="43.54958" lon="6.57095">
        <ele>200.1</ele>
        <time>2017-01-08T12:28:28Z</time>
      </trkpt>
      <trkpt lat="43.54964" lon="6.57085">
        <ele>201.5</ele>
        <time>2017-01-08T12:28:39Z</time>
      </trkpt>
      <trkpt lat="43.54968" lon="6.57074">
        <ele>203</ele>
        <time>2017-01-08T12:28:50Z</time>
      </trkpt>
      <trkpt lat="43.54972" lon="6.57062">
        <ele>204.8</ele>
        <time>2017-01-08T12:29:03Z</time>
      </trkpt>
      <trkpt lat="43.54972" lon="6.57049">
        <ele>205</ele>
        <time>2017-01-08T12:29:15Z</time>
      </trkpt>
      <trkpt lat="43.5497" lon="6.57037">
        <ele>204.2</ele>
        <time>2017-01-08T12:29:26Z</time>
      </trkpt>
      <trkpt lat="43.54969" lon="6.57025">
        <ele>202.4</ele>
        <time>2017-01-08T12:29:36Z</time>
      </trkpt>
      <trkpt lat="43.54967" lon="6.57011">
        <ele>201.5</ele>
        <time>2017-01-08T12:29:45Z</time>
      </trkpt>
      <trkpt lat="43.54964" lon="6.56999">
        <ele>201.7</ele>
        <time>2017-01-08T12:29:52Z</time>
      </trkpt>
      <trkpt lat="43.54962" lon="6.56986">
        <ele>200.7</ele>
        <time>2017-01-08T12:30:02Z</time>
      </trkpt>
      <trkpt lat="43.5496" lon="6.56973">
        <ele>200.2</ele>
        <time>2017-01-08T12:30:15Z</time>
      </trkpt>
      <trkpt lat="43.54952" lon="6.56967">
        <ele>200.8</ele>
        <time>2017-01-08T12:30:24Z</time>
      </trkpt>
      <trkpt lat="43.5495" lon="6.56955">
        <ele>201.3</ele>
        <time>2017-01-08T12:30:32Z</time>
      </trkpt>
      <trkpt lat="43.54946" lon="6.56942">
        <ele>201.2</ele>
        <time>2017-01-08T12:30:44Z</time>
      </trkpt>
      <trkpt lat="43.54942" lon="6.5693">
        <ele>200.4</ele>
        <time>2017-01-08T12:30:53Z</time>
      </trkpt>
      <trkpt lat="43.54939" lon="6.56919">
        <ele>199.7</ele>
        <time>2017-01-08T12:31:02Z</time>
      </trkpt>
      <trkpt lat="43.54943" lon="6.56906">
        <ele>199.7</ele>
        <time>2017-01-08T12:31:08Z</time>
      </trkpt>
      <trkpt lat="43.54947" lon="6.56892">
        <ele>198.4</ele>
        <time>2017-01-08T12:31:15Z</time>
      </trkpt>
      <trkpt lat="43.54946" lon="6.56879">
        <ele>197.3</ele>
        <time>2017-01-08T12:31:28Z</time>
      </trkpt>
      <trkpt lat="43.54937" lon="6.56873">
        <ele>196.6</ele>
        <time>2017-01-08T12:31:35Z</time>
      </trkpt>
      <trkpt lat="43.54928" lon="6.5687">
        <ele>195.8</ele>
        <time>2017-01-08T12:31:41Z</time>
      </trkpt>
      <trkpt lat="43.54927" lon="6.56857">
        <ele>194.8</ele>
        <time>2017-01-08T12:31:47Z</time>
      </trkpt>
      <trkpt lat="43.54932" lon="6.56845">
        <ele>194.5</ele>
        <time>2017-01-08T12:31:50Z</time>
      </trkpt>
      <trkpt lat="43.54931" lon="6.56831">
        <ele>193.8</ele>
        <time>2017-01-08T12:32:01Z</time>
      </trkpt>
      <trkpt lat="43.54926" lon="6.56819">
        <ele>195.7</ele>
        <time>2017-01-08T12:32:16Z</time>
      </trkpt>
      <trkpt lat="43.54918" lon="6.5681">
        <ele>196.3</ele>
        <time>2017-01-08T12:32:25Z</time>
      </trkpt>
      <trkpt lat="43.54915" lon="6.56799">
        <ele>196.6</ele>
        <time>2017-01-08T12:32:34Z</time>
      </trkpt>
      <trkpt lat="43.54908" lon="6.5679">
        <ele>196</ele>
        <time>2017-01-08T12:32:49Z</time>
      </trkpt>
      <trkpt lat="43.54902" lon="6.56781">
        <ele>195.9</ele>
        <time>2017-01-08T12:32:57Z</time>
      </trkpt>
      <trkpt lat="43.54902" lon="6.56767">
        <ele>195.8</ele>
        <time>2017-01-08T12:33:06Z</time>
      </trkpt>
      <trkpt lat="43.549" lon="6.56754">
        <ele>195.9</ele>
        <time>2017-01-08T12:33:16Z</time>
      </trkpt>
      <trkpt lat="43.54902" lon="6.5674">
        <ele>196.1</ele>
        <time>2017-01-08T12:33:24Z</time>
      </trkpt>
      <trkpt lat="43.54897" lon="6.56728">
        <ele>197.9</ele>
        <time>2017-01-08T12:33:35Z</time>
      </trkpt>
      <trkpt lat="43.54899" lon="6.56715">
        <ele>199.6</ele>
        <time>2017-01-08T12:33:45Z</time>
      </trkpt>
      <trkpt lat="43.549" lon="6.56703">
        <ele>201.3</ele>
        <time>2017-01-08T12:34:12Z</time>
      </trkpt>
      <trkpt lat="43.54898" lon="6.5669">
        <ele>201.3</ele>
        <time>2017-01-08T12:34:30Z</time>
      </trkpt>
      <trkpt lat="43.54898" lon="6.56677">
        <ele>202.1</ele>
        <time>2017-01-08T12:34:40Z</time>
      </trkpt>
      <trkpt lat="43.54893" lon="6.56666">
        <ele>202.3</ele>
        <time>2017-01-08T12:35:01Z</time>
      </trkpt>
      <trkpt lat="43.54889" lon="6.56654">
        <ele>201.7</ele>
        <time>2017-01-08T12:35:10Z</time>
      </trkpt>
      <trkpt lat="43.54886" lon="6.56642">
        <ele>200.9</ele>
        <time>2017-01-08T12:35:19Z</time>
      </trkpt>
      <trkpt lat="43.54886" lon="6.5663">
        <ele>200.5</ele>
        <time>2017-01-08T12:35:30Z</time>
      </trkpt>
      <trkpt lat="43.54886" lon="6.56616">
        <ele>202</ele>
        <time>2017-01-08T12:35:40Z</time>
      </trkpt>
      <trkpt lat="43.54882" lon="6.56604">
        <ele>202.6</ele>
        <time>2017-01-08T12:35:49Z</time>
      </trkpt>
      <trkpt lat="43.54878" lon="6.56592">
        <ele>203</ele>
        <time>2017-01-08T12:35:58Z</time>
      </trkpt>
      <trkpt lat="43.54876" lon="6.56579">
        <ele>203.7</ele>
        <time>2017-01-08T12:36:05Z</time>
      </trkpt>
      <trkpt lat="43.54867" lon="6.56572">
        <ele>204.6</ele>
        <time>2017-01-08T12:36:13Z</time>
      </trkpt>
      <trkpt lat="43.54862" lon="6.56562">
        <ele>205.3</ele>
        <time>2017-01-08T12:36:20Z</time>
      </trkpt>
      <trkpt lat="43.54856" lon="6.56552">
        <ele>204.4</ele>
        <time>2017-01-08T12:36:29Z</time>
      </trkpt>
      <trkpt lat="43.54851" lon="6.5654">
        <ele>203.5</ele>
        <time>2017-01-08T12:36:39Z</time>
      </trkpt>
      <trkpt lat="43.54848" lon="6.56528">
        <ele>203.2</ele>
        <time>2017-01-08T12:36:54Z</time>
      </trkpt>
      <trkpt lat="43.54844" lon="6.56517">
        <ele>205.4</ele>
        <time>2017-01-08T12:37:10Z</time>
      </trkpt>
      <trkpt lat="43.54836" lon="6.56511">
        <ele>207.2</ele>
        <time>2017-01-08T12:37:19Z</time>
      </trkpt>
      <trkpt lat="43.54831" lon="6.56499">
        <ele>209.7</ele>
        <time>2017-01-08T12:37:33Z</time>
      </trkpt>
      <trkpt lat="43.54826" lon="6.56486">
        <ele>211.2</ele>
        <time>2017-01-08T12:37:41Z</time>
      </trkpt>
      <trkpt lat="43.54817" lon="6.56481">
        <ele>211.7</ele>
        <time>2017-01-08T12:37:49Z</time>
      </trkpt>
      <trkpt lat="43.54813" lon="6.56469">
        <ele>213.6</ele>
        <time>2017-01-08T12:38:03Z</time>
      </trkpt>
      <trkpt lat="43.54809" lon="6.56457">
        <ele>214.8</ele>
        <time>2017-01-08T12:38:12Z</time>
      </trkpt>
      <trkpt lat="43.54802" lon="6.5645">
        <ele>215</ele>
        <time>2017-01-08T12:38:18Z</time>
      </trkpt>
      <trkpt lat="43.54805" lon="6.56437">
        <ele>217.6</ele>
        <time>2017-01-08T12:38:35Z</time>
      </trkpt>
      <trkpt lat="43.54809" lon="6.56426">
        <ele>218.9</ele>
        <time>2017-01-08T12:39:06Z</time>
      </trkpt>
      <trkpt lat="43.54817" lon="6.56419">
        <ele>220.8</ele>
        <time>2017-01-08T12:39:17Z</time>
      </trkpt>
      <trkpt lat="43.54826" lon="6.56417">
        <ele>223.7</ele>
        <time>2017-01-08T12:39:31Z</time>
      </trkpt>
      <trkpt lat="43.54834" lon="6.5641">
        <ele>225.9</ele>
        <time>2017-01-08T12:39:43Z</time>
      </trkpt>
      <trkpt lat="43.54841" lon="6.56403">
        <ele>227.4</ele>
        <time>2017-01-08T12:39:53Z</time>
      </trkpt>
      <trkpt lat="43.54849" lon="6.56394">
        <ele>228.7</ele>
        <time>2017-01-08T12:40:04Z</time>
      </trkpt>
      <trkpt lat="43.54854" lon="6.56384">
        <ele>230.1</ele>
        <time>2017-01-08T12:40:12Z</time>
      </trkpt>
      <trkpt lat="43.54862" lon="6.56376">
        <ele>232.3</ele>
        <time>2017-01-08T12:40:29Z</time>
      </trkpt>
      <trkpt lat="43.54865" lon="6.56365">
        <ele>232.7</ele>
        <time>2017-01-08T12:41:45Z</time>
      </trkpt>
      <trkpt lat="43.54859" lon="6.56375">
        <ele>232.9</ele>
        <time>2017-01-08T12:45:50Z</time>
      </trkpt>
      <trkpt lat="43.54854" lon="6.56385">
        <ele>230.6</ele>
        <time>2017-01-08T12:46:09Z</time>
      </trkpt>
      <trkpt lat="43.54847" lon="6.56394">
        <ele>229.7</ele>
        <time>2017-01-08T12:46:21Z</time>
      </trkpt>
      <trkpt lat="43.54839" lon="6.56402">
        <ele>228.2</ele>
        <time>2017-01-08T12:46:35Z</time>
      </trkpt>
      <trkpt lat="43.54832" lon="6.56411">
        <ele>226.8</ele>
        <time>2017-01-08T12:46:49Z</time>
      </trkpt>
      <trkpt lat="43.54823" lon="6.56413">
        <ele>224.8</ele>
        <time>2017-01-08T12:47:11Z</time>
      </trkpt>
      <trkpt lat="43.54814" lon="6.56417">
        <ele>223.7</ele>
        <time>2017-01-08T12:47:25Z</time>
      </trkpt>
      <trkpt lat="43.54809" lon="6.56427">
        <ele>220.1</ele>
        <time>2017-01-08T12:47:45Z</time>
      </trkpt>
      <trkpt lat="43.54805" lon="6.56439">
        <ele>218.9</ele>
        <time>2017-01-08T12:48:00Z</time>
      </trkpt>
      <trkpt lat="43.54806" lon="6.56451">
        <ele>216.2</ele>
        <time>2017-01-08T12:48:15Z</time>
      </trkpt>
      <trkpt lat="43.54812" lon="6.56461">
        <ele>215.3</ele>
        <time>2017-01-08T12:48:24Z</time>
      </trkpt>
      <trkpt lat="43.54816" lon="6.56473">
        <ele>214</ele>
        <time>2017-01-08T12:48:35Z</time>
      </trkpt>
      <trkpt lat="43.54821" lon="6.56483">
        <ele>212.9</ele>
        <time>2017-01-08T12:48:44Z</time>
      </trkpt>
      <trkpt lat="43.54828" lon="6.56492">
        <ele>210.2</ele>
        <time>2017-01-08T12:48:56Z</time>
      </trkpt>
      <trkpt lat="43.54835" lon="6.56502">
        <ele>207.6</ele>
        <time>2017-01-08T12:49:08Z</time>
      </trkpt>
      <trkpt lat="43.54837" lon="6.56516">
        <ele>205.8</ele>
        <time>2017-01-08T12:49:18Z</time>
      </trkpt>
      <trkpt lat="43.54831" lon="6.56525">
        <ele>204.7</ele>
        <time>2017-01-08T12:49:55Z</time>
      </trkpt>
      <trkpt lat="43.54824" lon="6.56517">
        <ele>204.8</ele>
        <time>2017-01-08T12:50:49Z</time>
      </trkpt>
      <trkpt lat="43.54814" lon="6.56514">
        <ele>204.2</ele>
        <time>2017-01-08T12:51:03Z</time>
      </trkpt>
      <trkpt lat="43.54805" lon="6.56512">
        <ele>203</ele>
        <time>2017-01-08T12:51:17Z</time>
      </trkpt>
      <trkpt lat="43.54796" lon="6.56514">
        <ele>201.5</ele>
        <time>2017-01-08T12:51:28Z</time>
      </trkpt>
      <trkpt lat="43.54787" lon="6.56514">
        <ele>199.3</ele>
        <time>2017-01-08T12:51:47Z</time>
      </trkpt>
      <trkpt lat="43.54777" lon="6.56511">
        <ele>197.9</ele>
        <time>2017-01-08T12:52:03Z</time>
      </trkpt>
      <trkpt lat="43.54768" lon="6.56508">
        <ele>196.8</ele>
        <time>2017-01-08T12:52:14Z</time>
      </trkpt>
      <trkpt lat="43.54758" lon="6.56509">
        <ele>196.1</ele>
        <time>2017-01-08T12:52:23Z</time>
      </trkpt>
      <trkpt lat="43.54747" lon="6.5651">
        <ele>195.4</ele>
        <time>2017-01-08T12:52:29Z</time>
      </trkpt>
      <trkpt lat="43.5474" lon="6.56501">
        <ele>194.9</ele>
        <time>2017-01-08T12:52:43Z</time>
      </trkpt>
      <trkpt lat="43.54742" lon="6.56489">
        <ele>194.9</ele>
        <time>2017-01-08T12:52:56Z</time>
      </trkpt>
      <trkpt lat="43.54742" lon="6.56474">
        <ele>195.4</ele>
        <time>2017-01-08T12:53:09Z</time>
      </trkpt>
      <trkpt lat="43.54739" lon="6.56462">
        <ele>194.8</ele>
        <time>2017-01-08T12:53:18Z</time>
      </trkpt>
      <trkpt lat="43.5474" lon="6.56448">
        <ele>193.7</ele>
        <time>2017-01-08T12:53:28Z</time>
      </trkpt>
      <trkpt lat="43.54744" lon="6.56437">
        <ele>193</ele>
        <time>2017-01-08T12:53:43Z</time>
      </trkpt>
      <trkpt lat="43.54751" lon="6.56428">
        <ele>192.1</ele>
        <time>2017-01-08T12:54:03Z</time>
      </trkpt>
      <trkpt lat="43.54751" lon="6.56414">
        <ele>190.2</ele>
        <time>2017-01-08T12:54:20Z</time>
      </trkpt>
      <trkpt lat="43.54753" lon="6.56402">
        <ele>188.6</ele>
        <time>2017-01-08T12:54:37Z</time>
      </trkpt>
      <trkpt lat="43.54744" lon="6.56399">
        <ele>184.7</ele>
        <time>2017-01-08T12:55:02Z</time>
      </trkpt>
      <trkpt lat="43.54735" lon="6.56399">
        <ele>188.1</ele>
        <time>2017-01-08T12:56:42Z</time>
      </trkpt>
      <trkpt lat="43.54726" lon="6.56395">
        <ele>190.2</ele>
        <time>2017-01-08T12:57:01Z</time>
      </trkpt>
      <trkpt lat="43.54718" lon="6.56404">
        <ele>192</ele>
        <time>2017-01-08T12:57:15Z</time>
      </trkpt>
      <trkpt lat="43.54723" lon="6.56415">
        <ele>193.4</ele>
        <time>2017-01-08T12:57:28Z</time>
      </trkpt>
      <trkpt lat="43.54732" lon="6.56416">
        <ele>193.4</ele>
        <time>2017-01-08T12:57:51Z</time>
      </trkpt>
      <trkpt lat="43.54739" lon="6.56424">
        <ele>193.1</ele>
        <time>2017-01-08T12:58:27Z</time>
      </trkpt>
      <trkpt lat="43.54747" lon="6.56428">
        <ele>193.4</ele>
        <time>2017-01-08T12:58:43Z</time>
      </trkpt>
      <trkpt lat="43.54736" lon="6.56429">
        <ele>194.2</ele>
        <time>2017-01-08T12:58:54Z</time>
      </trkpt>
      <trkpt lat="43.54727" lon="6.5643">
        <ele>195</ele>
        <time>2017-01-08T12:58:59Z</time>
      </trkpt>
      <trkpt lat="43.54717" lon="6.56431">
        <ele>195.9</ele>
        <time>2017-01-08T12:59:05Z</time>
      </trkpt>
      <trkpt lat="43.54708" lon="6.56434">
        <ele>197.6</ele>
        <time>2017-01-08T12:59:13Z</time>
      </trkpt>
      <trkpt lat="43.54699" lon="6.56438">
        <ele>198.5</ele>
        <time>2017-01-08T12:59:21Z</time>
      </trkpt>
      <trkpt lat="43.54692" lon="6.56448">
        <ele>198.5</ele>
        <time>2017-01-08T12:59:31Z</time>
      </trkpt>
      <trkpt lat="43.54688" lon="6.5646">
        <ele>197.3</ele>
        <time>2017-01-08T12:59:39Z</time>
      </trkpt>
      <trkpt lat="43.54686" lon="6.56472">
        <ele>195.8</ele>
        <time>2017-01-08T12:59:47Z</time>
      </trkpt>
      <trkpt lat="43.54684" lon="6.56486">
        <ele>195.3</ele>
        <time>2017-01-08T12:59:55Z</time>
      </trkpt>
      <trkpt lat="43.54687" lon="6.56499">
        <ele>195.2</ele>
        <time>2017-01-08T13:00:02Z</time>
      </trkpt>
      <trkpt lat="43.54687" lon="6.56512">
        <ele>195.9</ele>
        <time>2017-01-08T13:00:11Z</time>
      </trkpt>
      <trkpt lat="43.54686" lon="6.56524">
        <ele>198.8</ele>
        <time>2017-01-08T13:00:33Z</time>
      </trkpt>
      <trkpt lat="43.54683" lon="6.56537">
        <ele>200.3</ele>
        <time>2017-01-08T13:00:46Z</time>
      </trkpt>
      <trkpt lat="43.54683" lon="6.56551">
        <ele>201.6</ele>
        <time>2017-01-08T13:00:57Z</time>
      </trkpt>
      <trkpt lat="43.54686" lon="6.56565">
        <ele>202.5</ele>
        <time>2017-01-08T13:01:07Z</time>
      </trkpt>
      <trkpt lat="43.54693" lon="6.56574">
        <ele>203.3</ele>
        <time>2017-01-08T13:01:17Z</time>
      </trkpt>
      <trkpt lat="43.54696" lon="6.56587">
        <ele>204.8</ele>
        <time>2017-01-08T13:01:26Z</time>
      </trkpt>
      <trkpt lat="43.54699" lon="6.56602">
        <ele>205.9</ele>
        <time>2017-01-08T13:01:33Z</time>
      </trkpt>
      <trkpt lat="43.54701" lon="6.56614">
        <ele>207.3</ele>
        <time>2017-01-08T13:01:40Z</time>
      </trkpt>
      <trkpt lat="43.54704" lon="6.56627">
        <ele>208.9</ele>
        <time>2017-01-08T13:01:47Z</time>
      </trkpt>
      <trkpt lat="43.54706" lon="6.56639">
        <ele>210.5</ele>
        <time>2017-01-08T13:01:53Z</time>
      </trkpt>
      <trkpt lat="43.54707" lon="6.56652">
        <ele>212.1</ele>
        <time>2017-01-08T13:02:01Z</time>
      </trkpt>
      <trkpt lat="43.54704" lon="6.56664">
        <ele>214.2</ele>
        <time>2017-01-08T13:02:11Z</time>
      </trkpt>
      <trkpt lat="43.54701" lon="6.56677">
        <ele>216.4</ele>
        <time>2017-01-08T13:02:22Z</time>
      </trkpt>
      <trkpt lat="43.54703" lon="6.56691">
        <ele>217.1</ele>
        <time>2017-01-08T13:02:28Z</time>
      </trkpt>
      <trkpt lat="43.54706" lon="6.56703">
        <ele>217.3</ele>
        <time>2017-01-08T13:02:33Z</time>
      </trkpt>
      <trkpt lat="43.54708" lon="6.56715">
        <ele>217.2</ele>
        <time>2017-01-08T13:02:40Z</time>
      </trkpt>
      <trkpt lat="43.54715" lon="6.56726">
        <ele>218.5</ele>
        <time>2017-01-08T13:02:49Z</time>
      </trkpt>
      <trkpt lat="43.54719" lon="6.56737">
        <ele>218.8</ele>
        <time>2017-01-08T13:02:54Z</time>
      </trkpt>
      <trkpt lat="43.54725" lon="6.56747">
        <ele>219.7</ele>
        <time>2017-01-08T13:03:01Z</time>
      </trkpt>
      <trkpt lat="43.54727" lon="6.56759">
        <ele>221.2</ele>
        <time>2017-01-08T13:03:09Z</time>
      </trkpt>
      <trkpt lat="43.54729" lon="6.56772">
        <ele>223.5</ele>
        <time>2017-01-08T13:03:18Z</time>
      </trkpt>
      <trkpt lat="43.54732" lon="6.56784">
        <ele>226.6</ele>
        <time>2017-01-08T13:03:30Z</time>
      </trkpt>
      <trkpt lat="43.54738" lon="6.56793">
        <ele>228.9</ele>
        <time>2017-01-08T13:03:41Z</time>
      </trkpt>
      <trkpt lat="43.54745" lon="6.56803">
        <ele>230</ele>
        <time>2017-01-08T13:03:48Z</time>
      </trkpt>
      <trkpt lat="43.54749" lon="6.56815">
        <ele>230.7</ele>
        <time>2017-01-08T13:03:53Z</time>
      </trkpt>
      <trkpt lat="43.54751" lon="6.56828">
        <ele>231.3</ele>
        <time>2017-01-08T13:03:59Z</time>
      </trkpt>
      <trkpt lat="43.54752" lon="6.5684">
        <ele>231.6</ele>
        <time>2017-01-08T13:04:06Z</time>
      </trkpt>
      <trkpt lat="43.54757" lon="6.56852">
        <ele>231.1</ele>
        <time>2017-01-08T13:04:12Z</time>
      </trkpt>
      <trkpt lat="43.54754" lon="6.56866">
        <ele>231.3</ele>
        <time>2017-01-08T13:04:26Z</time>
      </trkpt>
      <trkpt lat="43.54744" lon="6.56867">
        <ele>233.2</ele>
        <time>2017-01-08T13:05:15Z</time>
      </trkpt>
      <trkpt lat="43.54734" lon="6.56864">
        <ele>234.5</ele>
        <time>2017-01-08T13:05:27Z</time>
      </trkpt>
      <trkpt lat="43.54725" lon="6.5686">
        <ele>234.7</ele>
        <time>2017-01-08T13:05:32Z</time>
      </trkpt>
      <trkpt lat="43.54717" lon="6.56853">
        <ele>234.5</ele>
        <time>2017-01-08T13:05:42Z</time>
      </trkpt>
      <trkpt lat="43.54709" lon="6.56846">
        <ele>235.1</ele>
        <time>2017-01-08T13:05:53Z</time>
      </trkpt>
      <trkpt lat="43.54703" lon="6.56837">
        <ele>236.2</ele>
        <time>2017-01-08T13:06:05Z</time>
      </trkpt>
      <trkpt lat="43.54694" lon="6.56831">
        <ele>237.7</ele>
        <time>2017-01-08T13:06:13Z</time>
      </trkpt>
      <trkpt lat="43.5469" lon="6.56819">
        <ele>240.2</ele>
        <time>2017-01-08T13:06:25Z</time>
      </trkpt>
      <trkpt lat="43.54683" lon="6.56812">
        <ele>242</ele>
        <time>2017-01-08T13:06:34Z</time>
      </trkpt>
      <trkpt lat="43.54673" lon="6.56809">
        <ele>243.5</ele>
        <time>2017-01-08T13:06:41Z</time>
      </trkpt>
      <trkpt lat="43.54668" lon="6.568">
        <ele>245.9</ele>
        <time>2017-01-08T13:06:51Z</time>
      </trkpt>
      <trkpt lat="43.54668" lon="6.56786">
        <ele>247.6</ele>
        <time>2017-01-08T13:07:01Z</time>
      </trkpt>
      <trkpt lat="43.54669" lon="6.56773">
        <ele>248.7</ele>
        <time>2017-01-08T13:07:10Z</time>
      </trkpt>
      <trkpt lat="43.5467" lon="6.5676">
        <ele>249.6</ele>
        <time>2017-01-08T13:07:18Z</time>
      </trkpt>
      <trkpt lat="43.54673" lon="6.56747">
        <ele>250.2</ele>
        <time>2017-01-08T13:07:27Z</time>
      </trkpt>
      <trkpt lat="43.54668" lon="6.56736">
        <ele>250.9</ele>
        <time>2017-01-08T13:07:51Z</time>
      </trkpt>
      <trkpt lat="43.54662" lon="6.56727">
        <ele>251</ele>
        <time>2017-01-08T13:08:08Z</time>
      </trkpt>
      <trkpt lat="43.54656" lon="6.56716">
        <ele>250.9</ele>
        <time>2017-01-08T13:08:16Z</time>
      </trkpt>
      <trkpt lat="43.54649" lon="6.56706">
        <ele>250.5</ele>
        <time>2017-01-08T13:08:25Z</time>
      </trkpt>
      <trkpt lat="43.54642" lon="6.56697">
        <ele>250.9</ele>
        <time>2017-01-08T13:08:34Z</time>
      </trkpt>
      <trkpt lat="43.54641" lon="6.56684">
        <ele>250.9</ele>
        <time>2017-01-08T13:08:43Z</time>
      </trkpt>
      <trkpt lat="43.54631" lon="6.56681">
        <ele>250.9</ele>
        <time>2017-01-08T13:08:55Z</time>
      </trkpt>
      <trkpt lat="43.54625" lon="6.56672">
        <ele>252.1</ele>
        <time>2017-01-08T13:09:08Z</time>
      </trkpt>
      <trkpt lat="43.5462" lon="6.56661">
        <ele>252.1</ele>
        <time>2017-01-08T13:09:18Z</time>
      </trkpt>
      <trkpt lat="43.54616" lon="6.56649">
        <ele>251.9</ele>
        <time>2017-01-08T13:09:27Z</time>
      </trkpt>
      <trkpt lat="43.54611" lon="6.56637">
        <ele>252.7</ele>
        <time>2017-01-08T13:09:37Z</time>
      </trkpt>
      <trkpt lat="43.54614" lon="6.56624">
        <ele>253.3</ele>
        <time>2017-01-08T13:09:46Z</time>
      </trkpt>
      <trkpt lat="43.54609" lon="6.56613">
        <ele>254.3</ele>
        <time>2017-01-08T13:09:55Z</time>
      </trkpt>
      <trkpt lat="43.54608" lon="6.566">
        <ele>256.2</ele>
        <time>2017-01-08T13:10:10Z</time>
      </trkpt>
      <trkpt lat="43.54608" lon="6.56587">
        <ele>257.2</ele>
        <time>2017-01-08T13:10:31Z</time>
      </trkpt>
      <trkpt lat="43.54617" lon="6.56585">
        <ele>258.7</ele>
        <time>2017-01-08T13:12:23Z</time>
      </trkpt>
      <trkpt lat="43.5461" lon="6.56578">
        <ele>258.1</ele>
        <time>2017-01-08T13:12:39Z</time>
      </trkpt>
      <trkpt lat="43.546" lon="6.56578">
        <ele>258.4</ele>
        <time>2017-01-08T13:13:27Z</time>
      </trkpt>
      <trkpt lat="43.54608" lon="6.56584">
        <ele>257.6</ele>
        <time>2017-01-08T13:14:52Z</time>
      </trkpt>
      <trkpt lat="43.54605" lon="6.56596">
        <ele>256.6</ele>
        <time>2017-01-08T13:15:20Z</time>
      </trkpt>
      <trkpt lat="43.54608" lon="6.56608">
        <ele>256.4</ele>
        <time>2017-01-08T13:15:35Z</time>
      </trkpt>
      <trkpt lat="43.54612" lon="6.5662">
        <ele>255.6</ele>
        <time>2017-01-08T13:15:49Z</time>
      </trkpt>
      <trkpt lat="43.54614" lon="6.56633">
        <ele>254.8</ele>
        <time>2017-01-08T13:16:02Z</time>
      </trkpt>
      <trkpt lat="43.54619" lon="6.56644">
        <ele>253.7</ele>
        <time>2017-01-08T13:16:13Z</time>
      </trkpt>
      <trkpt lat="43.54624" lon="6.56655">
        <ele>253</ele>
        <time>2017-01-08T13:16:24Z</time>
      </trkpt>
      <trkpt lat="43.54629" lon="6.56666">
        <ele>252.7</ele>
        <time>2017-01-08T13:16:34Z</time>
      </trkpt>
      <trkpt lat="43.54634" lon="6.56677">
        <ele>252.8</ele>
        <time>2017-01-08T13:16:46Z</time>
      </trkpt>
      <trkpt lat="43.54641" lon="6.56685">
        <ele>252.1</ele>
        <time>2017-01-08T13:17:02Z</time>
      </trkpt>
      <trkpt lat="43.54646" lon="6.56697">
        <ele>251.4</ele>
        <time>2017-01-08T13:17:16Z</time>
      </trkpt>
      <trkpt lat="43.54652" lon="6.56707">
        <ele>251.1</ele>
        <time>2017-01-08T13:17:25Z</time>
      </trkpt>
      <trkpt lat="43.54657" lon="6.56719">
        <ele>251.3</ele>
        <time>2017-01-08T13:18:11Z</time>
      </trkpt>
      <trkpt lat="43.54663" lon="6.56728">
        <ele>251</ele>
        <time>2017-01-08T13:18:21Z</time>
      </trkpt>
      <trkpt lat="43.54668" lon="6.5674">
        <ele>251.2</ele>
        <time>2017-01-08T13:18:29Z</time>
      </trkpt>
      <trkpt lat="43.54672" lon="6.56751">
        <ele>251.4</ele>
        <time>2017-01-08T13:18:38Z</time>
      </trkpt>
      <trkpt lat="43.54672" lon="6.56764">
        <ele>250.7</ele>
        <time>2017-01-08T13:18:48Z</time>
      </trkpt>
      <trkpt lat="43.54672" lon="6.56777">
        <ele>250.3</ele>
        <time>2017-01-08T13:18:58Z</time>
      </trkpt>
      <trkpt lat="43.5467" lon="6.5679">
        <ele>249.6</ele>
        <time>2017-01-08T13:19:09Z</time>
      </trkpt>
      <trkpt lat="43.5467" lon="6.56803">
        <ele>248.2</ele>
        <time>2017-01-08T13:19:18Z</time>
      </trkpt>
      <trkpt lat="43.54678" lon="6.56809">
        <ele>246.7</ele>
        <time>2017-01-08T13:19:29Z</time>
      </trkpt>
      <trkpt lat="43.54684" lon="6.56821">
        <ele>243.9</ele>
        <time>2017-01-08T13:19:41Z</time>
      </trkpt>
      <trkpt lat="43.5469" lon="6.5683">
        <ele>240.3</ele>
        <time>2017-01-08T13:19:59Z</time>
      </trkpt>
      <trkpt lat="43.54696" lon="6.56839">
        <ele>238.1</ele>
        <time>2017-01-08T13:20:12Z</time>
      </trkpt>
      <trkpt lat="43.54703" lon="6.56848">
        <ele>236.5</ele>
        <time>2017-01-08T13:20:21Z</time>
      </trkpt>
      <trkpt lat="43.54713" lon="6.56853">
        <ele>235.9</ele>
        <time>2017-01-08T13:20:30Z</time>
      </trkpt>
      <trkpt lat="43.54721" lon="6.56859">
        <ele>235.6</ele>
        <time>2017-01-08T13:20:38Z</time>
      </trkpt>
      <trkpt lat="43.54729" lon="6.56866">
        <ele>235.1</ele>
        <time>2017-01-08T13:20:46Z</time>
      </trkpt>
      <trkpt lat="43.54739" lon="6.56871">
        <ele>234.5</ele>
        <time>2017-01-08T13:20:55Z</time>
      </trkpt>
      <trkpt lat="43.54745" lon="6.5688">
        <ele>233.4</ele>
        <time>2017-01-08T13:21:21Z</time>
      </trkpt>
      <trkpt lat="43.54755" lon="6.56885">
        <ele>232.1</ele>
        <time>2017-01-08T13:21:48Z</time>
      </trkpt>
      <trkpt lat="43.54761" lon="6.56895">
        <ele>230.4</ele>
        <time>2017-01-08T13:22:01Z</time>
      </trkpt>
      <trkpt lat="43.54764" lon="6.56907">
        <ele>228.4</ele>
        <time>2017-01-08T13:22:14Z</time>
      </trkpt>
      <trkpt lat="43.54767" lon="6.5692">
        <ele>225.9</ele>
        <time>2017-01-08T13:22:27Z</time>
      </trkpt>
      <trkpt lat="43.54773" lon="6.5693">
        <ele>225</ele>
        <time>2017-01-08T13:22:36Z</time>
      </trkpt>
      <trkpt lat="43.54777" lon="6.56942">
        <ele>223.7</ele>
        <time>2017-01-08T13:22:46Z</time>
      </trkpt>
      <trkpt lat="43.54779" lon="6.56954">
        <ele>222.5</ele>
        <time>2017-01-08T13:22:56Z</time>
      </trkpt>
      <trkpt lat="43.54785" lon="6.56964">
        <ele>221.1</ele>
        <time>2017-01-08T13:23:06Z</time>
      </trkpt>
      <trkpt lat="43.54782" lon="6.56976">
        <ele>219.6</ele>
        <time>2017-01-08T13:23:15Z</time>
      </trkpt>
      <trkpt lat="43.54787" lon="6.56988">
        <ele>217.9</ele>
        <time>2017-01-08T13:23:25Z</time>
      </trkpt>
      <trkpt lat="43.54792" lon="6.56999">
        <ele>216.9</ele>
        <time>2017-01-08T13:23:36Z</time>
      </trkpt>
      <trkpt lat="43.54794" lon="6.57011">
        <ele>215.8</ele>
        <time>2017-01-08T13:23:46Z</time>
      </trkpt>
      <trkpt lat="43.54789" lon="6.57021">
        <ele>215.1</ele>
        <time>2017-01-08T13:23:54Z</time>
      </trkpt>
      <trkpt lat="43.54782" lon="6.5703">
        <ele>213.7</ele>
        <time>2017-01-08T13:24:03Z</time>
      </trkpt>
      <trkpt lat="43.5478" lon="6.57044">
        <ele>212.5</ele>
        <time>2017-01-08T13:24:13Z</time>
      </trkpt>
      <trkpt lat="43.54786" lon="6.57055">
        <ele>210.6</ele>
        <time>2017-01-08T13:24:27Z</time>
      </trkpt>
      <trkpt lat="43.54792" lon="6.57064">
        <ele>209</ele>
        <time>2017-01-08T13:24:36Z</time>
      </trkpt>
      <trkpt lat="43.54797" lon="6.57076">
        <ele>208</ele>
        <time>2017-01-08T13:24:45Z</time>
      </trkpt>
      <trkpt lat="43.54795" lon="6.57089">
        <ele>207.1</ele>
        <time>2017-01-08T13:24:55Z</time>
      </trkpt>
      <trkpt lat="43.5479" lon="6.571">
        <ele>206.2</ele>
        <time>2017-01-08T13:25:05Z</time>
      </trkpt>
      <trkpt lat="43.54782" lon="6.57108">
        <ele>205.3</ele>
        <time>2017-01-08T13:25:16Z</time>
      </trkpt>
      <trkpt lat="43.54774" lon="6.57116">
        <ele>204.9</ele>
        <time>2017-01-08T13:25:25Z</time>
      </trkpt>
      <trkpt lat="43.54767" lon="6.57124">
        <ele>204</ele>
        <time>2017-01-08T13:25:34Z</time>
      </trkpt>
      <trkpt lat="43.54759" lon="6.57131">
        <ele>203.6</ele>
        <time>2017-01-08T13:25:42Z</time>
      </trkpt>
      <trkpt lat="43.5475" lon="6.57136">
        <ele>203.2</ele>
        <time>2017-01-08T13:25:50Z</time>
      </trkpt>
      <trkpt lat="43.54741" lon="6.57141">
        <ele>203.3</ele>
        <time>2017-01-08T13:25:58Z</time>
      </trkpt>
      <trkpt lat="43.54733" lon="6.57149">
        <ele>203.1</ele>
        <time>2017-01-08T13:26:06Z</time>
      </trkpt>
      <trkpt lat="43.54727" lon="6.57158">
        <ele>202.7</ele>
        <time>2017-01-08T13:26:15Z</time>
      </trkpt>
      <trkpt lat="43.54718" lon="6.57165">
        <ele>202.3</ele>
        <time>2017-01-08T13:26:24Z</time>
      </trkpt>
      <trkpt lat="43.54711" lon="6.57175">
        <ele>201.3</ele>
        <time>2017-01-08T13:26:34Z</time>
      </trkpt>
      <trkpt lat="43.54704" lon="6.57184">
        <ele>200.3</ele>
        <time>2017-01-08T13:26:44Z</time>
      </trkpt>
      <trkpt lat="43.54698" lon="6.57194">
        <ele>198.8</ele>
        <time>2017-01-08T13:26:54Z</time>
      </trkpt>
      <trkpt lat="43.54698" lon="6.57207">
        <ele>197.4</ele>
        <time>2017-01-08T13:27:05Z</time>
      </trkpt>
      <trkpt lat="43.5469" lon="6.57214">
        <ele>196.4</ele>
        <time>2017-01-08T13:27:13Z</time>
      </trkpt>
      <trkpt lat="43.54681" lon="6.57218">
        <ele>195.4</ele>
        <time>2017-01-08T13:27:20Z</time>
      </trkpt>
      <trkpt lat="43.54672" lon="6.57222">
        <ele>193.9</ele>
        <time>2017-01-08T13:27:30Z</time>
      </trkpt>
      <trkpt lat="43.54663" lon="6.57226">
        <ele>192.6</ele>
        <time>2017-01-08T13:27:38Z</time>
      </trkpt>
      <trkpt lat="43.54653" lon="6.57226">
        <ele>190.7</ele>
        <time>2017-01-08T13:27:49Z</time>
      </trkpt>
      <trkpt lat="43.54644" lon="6.57228">
        <ele>189.4</ele>
        <time>2017-01-08T13:28:00Z</time>
      </trkpt>
      <trkpt lat="43.54633" lon="6.57225">
        <ele>188.3</ele>
        <time>2017-01-08T13:28:08Z</time>
      </trkpt>
      <trkpt lat="43.54625" lon="6.57217">
        <ele>186.6</ele>
        <time>2017-01-08T13:28:17Z</time>
      </trkpt>
      <trkpt lat="43.5462" lon="6.57206">
        <ele>185.5</ele>
        <time>2017-01-08T13:28:27Z</time>
      </trkpt>
      <trkpt lat="43.54616" lon="6.57194">
        <ele>184.7</ele>
        <time>2017-01-08T13:28:35Z</time>
      </trkpt>
      <trkpt lat="43.54612" lon="6.57182">
        <ele>184.4</ele>
        <time>2017-01-08T13:28:45Z</time>
      </trkpt>
      <trkpt lat="43.5461" lon="6.57169">
        <ele>183.3</ele>
        <time>2017-01-08T13:28:55Z</time>
      </trkpt>
      <trkpt lat="43.54611" lon="6.57157">
        <ele>182.5</ele>
        <time>2017-01-08T13:29:06Z</time>
      </trkpt>
      <trkpt lat="43.54609" lon="6.57144">
        <ele>181.7</ele>
        <time>2017-01-08T13:29:15Z</time>
      </trkpt>
      <trkpt lat="43.54605" lon="6.57132">
        <ele>181</ele>
        <time>2017-01-08T13:29:23Z</time>
      </trkpt>
      <trkpt lat="43.546" lon="6.57121">
        <ele>180.9</ele>
        <time>2017-01-08T13:29:31Z</time>
      </trkpt>
      <trkpt lat="43.54596" lon="6.5711">
        <ele>180.1</ele>
        <time>2017-01-08T13:29:41Z</time>
      </trkpt>
      <trkpt lat="43.54593" lon="6.57098">
        <ele>179.2</ele>
        <time>2017-01-08T13:29:51Z</time>
      </trkpt>
      <trkpt lat="43.54586" lon="6.57088">
        <ele>178</ele>
        <time>2017-01-08T13:30:02Z</time>
      </trkpt>
      <trkpt lat="43.54578" lon="6.57081">
        <ele>177.2</ele>
        <time>2017-01-08T13:30:11Z</time>
      </trkpt>
      <trkpt lat="43.54581" lon="6.57069">
        <ele>176.4</ele>
        <time>2017-01-08T13:30:19Z</time>
      </trkpt>
      <trkpt lat="43.54575" lon="6.57059">
        <ele>175.3</ele>
        <time>2017-01-08T13:30:31Z</time>
      </trkpt>
      <trkpt lat="43.54566" lon="6.57059">
        <ele>174.4</ele>
        <time>2017-01-08T13:30:36Z</time>
      </trkpt>
      <trkpt lat="43.54562" lon="6.57071">
        <ele>173.7</ele>
        <time>2017-01-08T13:30:45Z</time>
      </trkpt>
      <trkpt lat="43.54564" lon="6.57083">
        <ele>173.4</ele>
        <time>2017-01-08T13:30:53Z</time>
      </trkpt>
      <trkpt lat="43.54567" lon="6.57095">
        <ele>172.9</ele>
        <time>2017-01-08T13:31:01Z</time>
      </trkpt>
      <trkpt lat="43.54571" lon="6.57107">
        <ele>173.1</ele>
        <time>2017-01-08T13:31:13Z</time>
      </trkpt>
      <trkpt lat="43.54577" lon="6.57118">
        <ele>173</ele>
        <time>2017-01-08T13:31:23Z</time>
      </trkpt>
      <trkpt lat="43.5458" lon="6.57129">
        <ele>173.1</ele>
        <time>2017-01-08T13:31:32Z</time>
      </trkpt>
      <trkpt lat="43.54586" lon="6.57139">
        <ele>172.6</ele>
        <time>2017-01-08T13:31:40Z</time>
      </trkpt>
      <trkpt lat="43.54592" lon="6.57149">
        <ele>172.9</ele>
        <time>2017-01-08T13:31:49Z</time>
      </trkpt>
      <trkpt lat="43.54595" lon="6.57161">
        <ele>172.6</ele>
        <time>2017-01-08T13:31:58Z</time>
      </trkpt>
      <trkpt lat="43.54597" lon="6.57174">
        <ele>173.4</ele>
        <time>2017-01-08T13:32:12Z</time>
      </trkpt>
      <trkpt lat="43.54597" lon="6.57187">
        <ele>173.8</ele>
        <time>2017-01-08T13:32:20Z</time>
      </trkpt>
      <trkpt lat="43.546" lon="6.572">
        <ele>173.6</ele>
        <time>2017-01-08T13:32:30Z</time>
      </trkpt>
      <trkpt lat="43.54601" lon="6.57212">
        <ele>173.4</ele>
        <time>2017-01-08T13:32:39Z</time>
      </trkpt>
      <trkpt lat="43.54605" lon="6.57224">
        <ele>172.9</ele>
        <time>2017-01-08T13:32:48Z</time>
      </trkpt>
      <trkpt lat="43.54609" lon="6.57235">
        <ele>173.3</ele>
        <time>2017-01-08T13:32:57Z</time>
      </trkpt>
      <trkpt lat="43.54612" lon="6.57248">
        <ele>173.2</ele>
        <time>2017-01-08T13:33:05Z</time>
      </trkpt>
      <trkpt lat="43.54619" lon="6.57258">
        <ele>173.3</ele>
        <time>2017-01-08T13:33:12Z</time>
      </trkpt>
      <trkpt lat="43.54627" lon="6.57266">
        <ele>173.2</ele>
        <time>2017-01-08T13:33:19Z</time>
      </trkpt>
      <trkpt lat="43.54634" lon="6.57274">
        <ele>172.7</ele>
        <time>2017-01-08T13:33:25Z</time>
      </trkpt>
      <trkpt lat="43.54642" lon="6.57283">
        <ele>172.6</ele>
        <time>2017-01-08T13:33:33Z</time>
      </trkpt>
      <trkpt lat="43.54649" lon="6.57291">
        <ele>172</ele>
        <time>2017-01-08T13:33:40Z</time>
      </trkpt>
      <trkpt lat="43.54657" lon="6.57299">
        <ele>172.1</ele>
        <time>2017-01-08T13:33:47Z</time>
      </trkpt>
      <trkpt lat="43.54666" lon="6.57306">
        <ele>171.8</ele>
        <time>2017-01-08T13:33:54Z</time>
      </trkpt>
      <trkpt lat="43.54674" lon="6.57313">
        <ele>171.5</ele>
        <time>2017-01-08T13:34:04Z</time>
      </trkpt>
      <trkpt lat="43.54683" lon="6.57318">
        <ele>171</ele>
        <time>2017-01-08T13:34:12Z</time>
      </trkpt>
      <trkpt lat="43.54678" lon="6.57307">
        <ele>171</ele>
        <time>2017-01-08T13:34:29Z</time>
      </trkpt>
      <trkpt lat="43.54671" lon="6.57298">
        <ele>171.5</ele>
        <time>2017-01-08T13:34:36Z</time>
      </trkpt>
      <trkpt lat="43.54664" lon="6.57289">
        <ele>171.5</ele>
        <time>2017-01-08T13:34:42Z</time>
      </trkpt>
      <trkpt lat="43.54656" lon="6.57282">
        <ele>171.8</ele>
        <time>2017-01-08T13:34:50Z</time>
      </trkpt>
      <trkpt lat="43.54646" lon="6.57274">
        <ele>172.4</ele>
        <time>2017-01-08T13:34:57Z</time>
      </trkpt>
      <trkpt lat="43.5464" lon="6.57263">
        <ele>172.8</ele>
        <time>2017-01-08T13:35:05Z</time>
      </trkpt>
      <trkpt lat="43.54633" lon="6.57253">
        <ele>173</ele>
        <time>2017-01-08T13:35:11Z</time>
      </trkpt>
      <trkpt lat="43.54628" lon="6.57242">
        <ele>173.4</ele>
        <time>2017-01-08T13:35:18Z</time>
      </trkpt>
      <trkpt lat="43.54619" lon="6.57235">
        <ele>173.5</ele>
        <time>2017-01-08T13:35:27Z</time>
      </trkpt>
      <trkpt lat="43.5461" lon="6.57232">
        <ele>174.1</ele>
        <time>2017-01-08T13:35:34Z</time>
      </trkpt>
      <trkpt lat="43.546" lon="6.57231">
        <ele>174.7</ele>
        <time>2017-01-08T13:35:41Z</time>
      </trkpt>
      <trkpt lat="43.54589" lon="6.5723">
        <ele>174.7</ele>
        <time>2017-01-08T13:35:48Z</time>
      </trkpt>
      <trkpt lat="43.54579" lon="6.5723">
        <ele>175.1</ele>
        <time>2017-01-08T13:35:55Z</time>
      </trkpt>
      <trkpt lat="43.5457" lon="6.57234">
        <ele>176.1</ele>
        <time>2017-01-08T13:36:02Z</time>
      </trkpt>
      <trkpt lat="43.5456" lon="6.57238">
        <ele>176.8</ele>
        <time>2017-01-08T13:36:09Z</time>
      </trkpt>
      <trkpt lat="43.5455" lon="6.57242">
        <ele>178.1</ele>
        <time>2017-01-08T13:36:16Z</time>
      </trkpt>
      <trkpt lat="43.54541" lon="6.57244">
        <ele>178.9</ele>
        <time>2017-01-08T13:36:24Z</time>
      </trkpt>
      <trkpt lat="43.54533" lon="6.57249">
        <ele>179.3</ele>
        <time>2017-01-08T13:36:30Z</time>
      </trkpt>
      <trkpt lat="43.54525" lon="6.57256">
        <ele>180.2</ele>
        <time>2017-01-08T13:36:37Z</time>
      </trkpt>
      <trkpt lat="43.54516" lon="6.57263">
        <ele>181.3</ele>
        <time>2017-01-08T13:36:44Z</time>
      </trkpt>
      <trkpt lat="43.54507" lon="6.5727">
        <ele>182.1</ele>
        <time>2017-01-08T13:36:52Z</time>
      </trkpt>
      <trkpt lat="43.54498" lon="6.57272">
        <ele>182.6</ele>
        <time>2017-01-08T13:36:58Z</time>
      </trkpt>
      <trkpt lat="43.5449" lon="6.57279">
        <ele>183.4</ele>
        <time>2017-01-08T13:37:07Z</time>
      </trkpt>
      <trkpt lat="43.54481" lon="6.57284">
        <ele>184</ele>
        <time>2017-01-08T13:37:13Z</time>
      </trkpt>
      <trkpt lat="43.54472" lon="6.57293">
        <ele>184.3</ele>
        <time>2017-01-08T13:37:22Z</time>
      </trkpt>
      <trkpt lat="43.54464" lon="6.57302">
        <ele>184.7</ele>
        <time>2017-01-08T13:37:29Z</time>
      </trkpt>
      <trkpt lat="43.5446" lon="6.57313">
        <ele>185.2</ele>
        <time>2017-01-08T13:37:37Z</time>
      </trkpt>
      <trkpt lat="43.54453" lon="6.57321">
        <ele>185.6</ele>
        <time>2017-01-08T13:37:44Z</time>
      </trkpt>
      <trkpt lat="43.54448" lon="6.57332">
        <ele>186</ele>
        <time>2017-01-08T13:37:51Z</time>
      </trkpt>
      <trkpt lat="43.5444" lon="6.5734">
        <ele>186.1</ele>
        <time>2017-01-08T13:38:00Z</time>
      </trkpt>
      <trkpt lat="43.54433" lon="6.57349">
        <ele>186.3</ele>
        <time>2017-01-08T13:38:08Z</time>
      </trkpt>
      <trkpt lat="43.54431" lon="6.57361">
        <ele>186.8</ele>
        <time>2017-01-08T13:38:15Z</time>
      </trkpt>
      <trkpt lat="43.54426" lon="6.57373">
        <ele>187.3</ele>
        <time>2017-01-08T13:38:24Z</time>
      </trkpt>
      <trkpt lat="43.5442" lon="6.57383">
        <ele>188.2</ele>
        <time>2017-01-08T13:38:32Z</time>
      </trkpt>
      <trkpt lat="43.54413" lon="6.57393">
        <ele>189</ele>
        <time>2017-01-08T13:38:41Z</time>
      </trkpt>
      <trkpt lat="43.54407" lon="6.57404">
        <ele>190</ele>
        <time>2017-01-08T13:38:48Z</time>
      </trkpt>
      <trkpt lat="43.54404" lon="6.57416">
        <ele>190.6</ele>
        <time>2017-01-08T13:38:55Z</time>
      </trkpt>
      <trkpt lat="43.54401" lon="6.57429">
        <ele>191.6</ele>
        <time>2017-01-08T13:39:02Z</time>
      </trkpt>
      <trkpt lat="43.54399" lon="6.57442">
        <ele>192.3</ele>
        <time>2017-01-08T13:39:09Z</time>
      </trkpt>
      <trkpt lat="43.544" lon="6.57455">
        <ele>193</ele>
        <time>2017-01-08T13:39:23Z</time>
      </trkpt>
      <trkpt lat="43.54391" lon="6.57454">
        <ele>193.5</ele>
        <time>2017-01-08T13:40:54Z</time>
      </trkpt>
      <trkpt lat="43.54384" lon="6.57444">
        <ele>192.6</ele>
        <time>2017-01-08T13:42:42Z</time>
      </trkpt>
      <trkpt lat="43.54374" lon="6.57442">
        <ele>192.5</ele>
        <time>2017-01-08T13:42:50Z</time>
      </trkpt>
      <trkpt lat="43.54371" lon="6.57454">
        <ele>193</ele>
        <time>2017-01-08T13:43:02Z</time>
      </trkpt>
      <trkpt lat="43.54363" lon="6.57462">
        <ele>193.7</ele>
        <time>2017-01-08T13:43:10Z</time>
      </trkpt>
      <trkpt lat="43.54357" lon="6.57471">
        <ele>194.5</ele>
        <time>2017-01-08T13:43:19Z</time>
      </trkpt>
      <trkpt lat="43.5435" lon="6.57482">
        <ele>195.2</ele>
        <time>2017-01-08T13:43:30Z</time>
      </trkpt>
      <trkpt lat="43.54345" lon="6.57494">
        <ele>195.8</ele>
        <time>2017-01-08T13:43:39Z</time>
      </trkpt>
      <trkpt lat="43.54337" lon="6.57501">
        <ele>196.4</ele>
        <time>2017-01-08T13:43:47Z</time>
      </trkpt>
      <trkpt lat="43.54329" lon="6.57508">
        <ele>197.1</ele>
        <time>2017-01-08T13:43:54Z</time>
      </trkpt>
      <trkpt lat="43.54321" lon="6.57516">
        <ele>198</ele>
        <time>2017-01-08T13:44:03Z</time>
      </trkpt>
      <trkpt lat="43.54313" lon="6.57523">
        <ele>198.4</ele>
        <time>2017-01-08T13:44:11Z</time>
      </trkpt>
      <trkpt lat="43.54304" lon="6.57529">
        <ele>199.5</ele>
        <time>2017-01-08T13:44:21Z</time>
      </trkpt>
      <trkpt lat="43.54294" lon="6.57531">
        <ele>201</ele>
        <time>2017-01-08T13:44:32Z</time>
      </trkpt>
      <trkpt lat="43.54284" lon="6.57534">
        <ele>202.1</ele>
        <time>2017-01-08T13:44:40Z</time>
      </trkpt>
      <trkpt lat="43.54276" lon="6.57532">
        <ele>202.6</ele>
        <time>2017-01-08T13:44:48Z</time>
      </trkpt>
      <trkpt lat="43.54266" lon="6.5753">
        <ele>203.6</ele>
        <time>2017-01-08T13:44:58Z</time>
      </trkpt>
      <trkpt lat="43.54255" lon="6.57529">
        <ele>204.5</ele>
        <time>2017-01-08T13:45:09Z</time>
      </trkpt>
      <trkpt lat="43.54246" lon="6.57527">
        <ele>205.2</ele>
        <time>2017-01-08T13:45:17Z</time>
      </trkpt>
      <trkpt lat="43.54235" lon="6.57526">
        <ele>205.7</ele>
        <time>2017-01-08T13:45:27Z</time>
      </trkpt>
      <trkpt lat="43.54225" lon="6.57524">
        <ele>206.2</ele>
        <time>2017-01-08T13:45:36Z</time>
      </trkpt>
      <trkpt lat="43.54215" lon="6.57523">
        <ele>206</ele>
        <time>2017-01-08T13:45:45Z</time>
      </trkpt>
      <trkpt lat="43.54206" lon="6.57521">
        <ele>206.1</ele>
        <time>2017-01-08T13:45:53Z</time>
      </trkpt>
      <trkpt lat="43.54197" lon="6.57525">
        <ele>206.3</ele>
        <time>2017-01-08T13:46:05Z</time>
      </trkpt>
      <trkpt lat="43.54201" lon="6.57536">
        <ele>207.2</ele>
        <time>2017-01-08T13:46:15Z</time>
      </trkpt>
      <trkpt lat="43.54199" lon="6.57549">
        <ele>207.8</ele>
        <time>2017-01-08T13:46:23Z</time>
      </trkpt>
      <trkpt lat="43.54203" lon="6.5756">
        <ele>208.4</ele>
        <time>2017-01-08T13:46:32Z</time>
      </trkpt>
      <trkpt lat="43.54211" lon="6.57569">
        <ele>209</ele>
        <time>2017-01-08T13:46:41Z</time>
      </trkpt>
      <trkpt lat="43.54217" lon="6.57579">
        <ele>209</ele>
        <time>2017-01-08T13:46:46Z</time>
      </trkpt>
      <trkpt lat="43.54223" lon="6.57591">
        <ele>208.7</ele>
        <time>2017-01-08T13:46:51Z</time>
      </trkpt>
      <trkpt lat="43.54229" lon="6.57601">
        <ele>208.6</ele>
        <time>2017-01-08T13:46:58Z</time>
      </trkpt>
      <trkpt lat="43.54225" lon="6.57589">
        <ele>208.5</ele>
        <time>2017-01-08T13:47:16Z</time>
      </trkpt>
      <trkpt lat="43.54218" lon="6.5758">
        <ele>208.8</ele>
        <time>2017-01-08T13:47:21Z</time>
      </trkpt>
      <trkpt lat="43.54213" lon="6.57569">
        <ele>209.3</ele>
        <time>2017-01-08T13:47:28Z</time>
      </trkpt>
      <trkpt lat="43.54206" lon="6.57561">
        <ele>209.2</ele>
        <time>2017-01-08T13:47:35Z</time>
      </trkpt>
      <trkpt lat="43.54198" lon="6.57553">
        <ele>208.9</ele>
        <time>2017-01-08T13:47:41Z</time>
      </trkpt>
      <trkpt lat="43.54188" lon="6.57554">
        <ele>208.8</ele>
        <time>2017-01-08T13:47:49Z</time>
      </trkpt>
      <trkpt lat="43.54178" lon="6.57559">
        <ele>208.9</ele>
        <time>2017-01-08T13:47:56Z</time>
      </trkpt>
      <trkpt lat="43.54172" lon="6.57569">
        <ele>208.8</ele>
        <time>2017-01-08T13:48:03Z</time>
      </trkpt>
      <trkpt lat="43.54165" lon="6.57576">
        <ele>209</ele>
        <time>2017-01-08T13:48:08Z</time>
      </trkpt>
      <trkpt lat="43.54155" lon="6.57583">
        <ele>208.9</ele>
        <time>2017-01-08T13:48:15Z</time>
      </trkpt>
      <trkpt lat="43.54146" lon="6.57589">
        <ele>208.7</ele>
        <time>2017-01-08T13:48:20Z</time>
      </trkpt>
      <trkpt lat="43.54138" lon="6.57596">
        <ele>208.4</ele>
        <time>2017-01-08T13:48:27Z</time>
      </trkpt>
      <trkpt lat="43.54129" lon="6.57604">
        <ele>208.3</ele>
        <time>2017-01-08T13:48:34Z</time>
      </trkpt>
      <trkpt lat="43.54122" lon="6.57612">
        <ele>208.1</ele>
        <time>2017-01-08T13:48:41Z</time>
      </trkpt>
      <trkpt lat="43.54113" lon="6.57616">
        <ele>207.9</ele>
        <time>2017-01-08T13:48:45Z</time>
      </trkpt>
      <trkpt lat="43.54105" lon="6.57621">
        <ele>207.5</ele>
        <time>2017-01-08T13:48:52Z</time>
      </trkpt>
      <trkpt lat="43.54096" lon="6.57628">
        <ele>207.3</ele>
        <time>2017-01-08T13:48:59Z</time>
      </trkpt>
      <trkpt lat="43.54091" lon="6.57639">
        <ele>207</ele>
        <time>2017-01-08T13:49:07Z</time>
      </trkpt>
      <trkpt lat="43.54084" lon="6.57648">
        <ele>206.6</ele>
        <time>2017-01-08T13:49:14Z</time>
      </trkpt>
      <trkpt lat="43.54075" lon="6.57652">
        <ele>206.2</ele>
        <time>2017-01-08T13:49:20Z</time>
      </trkpt>
      <trkpt lat="43.54064" lon="6.57655">
        <ele>205.9</ele>
        <time>2017-01-08T13:49:26Z</time>
      </trkpt>
      <trkpt lat="43.54054" lon="6.57659">
        <ele>205.9</ele>
        <time>2017-01-08T13:49:32Z</time>
      </trkpt>
      <trkpt lat="43.54044" lon="6.57659">
        <ele>205.9</ele>
        <time>2017-01-08T13:49:38Z</time>
      </trkpt>
      <trkpt lat="43.54035" lon="6.57658">
        <ele>206.3</ele>
        <time>2017-01-08T13:49:45Z</time>
      </trkpt>
      <trkpt lat="43.54025" lon="6.57665">
        <ele>205.8</ele>
        <time>2017-01-08T13:49:52Z</time>
      </trkpt>
      <trkpt lat="43.54015" lon="6.5767">
        <ele>205.5</ele>
        <time>2017-01-08T13:49:59Z</time>
      </trkpt>
      <trkpt lat="43.54006" lon="6.57677">
        <ele>205.3</ele>
        <time>2017-01-08T13:50:05Z</time>
      </trkpt>
      <trkpt lat="43.53997" lon="6.57682">
        <ele>205</ele>
        <time>2017-01-08T13:50:11Z</time>
      </trkpt>
      <trkpt lat="43.53989" lon="6.5769">
        <ele>204.8</ele>
        <time>2017-01-08T13:50:19Z</time>
      </trkpt>
      <trkpt lat="43.53989" lon="6.57704">
        <ele>204.7</ele>
        <time>2017-01-08T13:50:26Z</time>
      </trkpt>
      <trkpt lat="43.53981" lon="6.57712">
        <ele>204.3</ele>
        <time>2017-01-08T13:50:32Z</time>
      </trkpt>
      <trkpt lat="43.53972" lon="6.57711">
        <ele>204.1</ele>
        <time>2017-01-08T13:50:40Z</time>
      </trkpt>
      <trkpt lat="43.53963" lon="6.57711">
        <ele>204</ele>
        <time>2017-01-08T13:50:47Z</time>
      </trkpt>
      <trkpt lat="43.53952" lon="6.5771">
        <ele>203.8</ele>
        <time>2017-01-08T13:50:54Z</time>
      </trkpt>
      <trkpt lat="43.53941" lon="6.5771">
        <ele>203.4</ele>
        <time>2017-01-08T13:51:00Z</time>
      </trkpt>
      <trkpt lat="43.53932" lon="6.57713">
        <ele>203</ele>
        <time>2017-01-08T13:51:08Z</time>
      </trkpt>
      <trkpt lat="43.53923" lon="6.57714">
        <ele>202.7</ele>
        <time>2017-01-08T13:51:15Z</time>
      </trkpt>
      <trkpt lat="43.53914" lon="6.57717">
        <ele>202.4</ele>
        <time>2017-01-08T13:51:21Z</time>
      </trkpt>
      <trkpt lat="43.53904" lon="6.5772">
        <ele>202</ele>
        <time>2017-01-08T13:51:28Z</time>
      </trkpt>
      <trkpt lat="43.53894" lon="6.57722">
        <ele>201.8</ele>
        <time>2017-01-08T13:51:34Z</time>
      </trkpt>
      <trkpt lat="43.53885" lon="6.57726">
        <ele>201.1</ele>
        <time>2017-01-08T13:51:41Z</time>
      </trkpt>
      <trkpt lat="43.53876" lon="6.57729">
        <ele>200.8</ele>
        <time>2017-01-08T13:51:50Z</time>
      </trkpt>
      <trkpt lat="43.53866" lon="6.57729">
        <ele>200.4</ele>
        <time>2017-01-08T13:51:57Z</time>
      </trkpt>
      <trkpt lat="43.53856" lon="6.57731">
        <ele>200.2</ele>
        <time>2017-01-08T13:52:04Z</time>
      </trkpt>
      <trkpt lat="43.53848" lon="6.57739">
        <ele>200</ele>
        <time>2017-01-08T13:52:13Z</time>
      </trkpt>
      <trkpt lat="43.53848" lon="6.57752">
        <ele>199.5</ele>
        <time>2017-01-08T13:52:23Z</time>
      </trkpt>
      <trkpt lat="43.53853" lon="6.57763">
        <ele>199</ele>
        <time>2017-01-08T13:52:31Z</time>
      </trkpt>
      <trkpt lat="43.53858" lon="6.57773">
        <ele>198.8</ele>
        <time>2017-01-08T13:52:36Z</time>
      </trkpt>
      <trkpt lat="43.53861" lon="6.57785">
        <ele>198.4</ele>
        <time>2017-01-08T13:52:46Z</time>
      </trkpt>
      <trkpt lat="43.53866" lon="6.57796">
        <ele>198.2</ele>
        <time>2017-01-08T13:52:55Z</time>
      </trkpt>
      <trkpt lat="43.5387" lon="6.57807">
        <ele>198.3</ele>
        <time>2017-01-08T13:53:01Z</time>
      </trkpt>
      <trkpt lat="43.53874" lon="6.5782">
        <ele>198.2</ele>
        <time>2017-01-08T13:53:08Z</time>
      </trkpt>
      <trkpt lat="43.53878" lon="6.57831">
        <ele>198.1</ele>
        <time>2017-01-08T13:53:16Z</time>
      </trkpt>
      <trkpt lat="43.53882" lon="6.57844">
        <ele>197.8</ele>
        <time>2017-01-08T13:53:23Z</time>
      </trkpt>
      <trkpt lat="43.53885" lon="6.57857">
        <ele>197.5</ele>
        <time>2017-01-08T13:53:29Z</time>
      </trkpt>
      <trkpt lat="43.53885" lon="6.5787">
        <ele>197</ele>
        <time>2017-01-08T13:53:37Z</time>
      </trkpt>
      <trkpt lat="43.53887" lon="6.57882">
        <ele>197.1</ele>
        <time>2017-01-08T13:53:43Z</time>
      </trkpt>
      <trkpt lat="43.53891" lon="6.57894">
        <ele>196.8</ele>
        <time>2017-01-08T13:53:49Z</time>
      </trkpt>
      <trkpt lat="43.53893" lon="6.57908">
        <ele>196</ele>
        <time>2017-01-08T13:53:58Z</time>
      </trkpt>
      <trkpt lat="43.53895" lon="6.5792">
        <ele>195.5</ele>
        <time>2017-01-08T13:54:05Z</time>
      </trkpt>
      <trkpt lat="43.53894" lon="6.57934">
        <ele>195.9</ele>
        <time>2017-01-08T13:54:13Z</time>
      </trkpt>
      <trkpt lat="43.53892" lon="6.57946">
        <ele>195.8</ele>
        <time>2017-01-08T13:54:22Z</time>
      </trkpt>
      <trkpt lat="43.53889" lon="6.57959">
        <ele>195</ele>
        <time>2017-01-08T13:54:29Z</time>
      </trkpt>
      <trkpt lat="43.53883" lon="6.57969">
        <ele>194.4</ele>
        <time>2017-01-08T13:54:36Z</time>
      </trkpt>
      <trkpt lat="43.53876" lon="6.57978">
        <ele>194</ele>
        <time>2017-01-08T13:54:42Z</time>
      </trkpt>
      <trkpt lat="43.5387" lon="6.57987">
        <ele>193.7</ele>
        <time>2017-01-08T13:54:49Z</time>
      </trkpt>
      <trkpt lat="43.53862" lon="6.57994">
        <ele>193.8</ele>
        <time>2017-01-08T13:54:57Z</time>
      </trkpt>
      <trkpt lat="43.53853" lon="6.57999">
        <ele>193.2</ele>
        <time>2017-01-08T13:55:04Z</time>
      </trkpt>
      <trkpt lat="43.53844" lon="6.58001">
        <ele>191.8</ele>
        <time>2017-01-08T13:55:13Z</time>
      </trkpt>
      <trkpt lat="43.53835" lon="6.58001">
        <ele>190.8</ele>
        <time>2017-01-08T13:55:22Z</time>
      </trkpt>
      <trkpt lat="43.53827" lon="6.58009">
        <ele>188.9</ele>
        <time>2017-01-08T13:56:04Z</time>
      </trkpt>
      <trkpt lat="43.53825" lon="6.57996">
        <ele>188.9</ele>
        <time>2017-01-08T13:58:34Z</time>
      </trkpt>
      <trkpt lat="43.53827" lon="6.58008">
        <ele>189.3</ele>
        <time>2017-01-08T14:00:01Z</time>
      </trkpt>
      <trkpt lat="43.53823" lon="6.57996">
        <ele>188.8</ele>
        <time>2017-01-08T14:01:29Z</time>
      </trkpt>
      <trkpt lat="43.53815" lon="6.5799">
        <ele>187.5</ele>
        <time>2017-01-08T14:01:42Z</time>
      </trkpt>
      <trkpt lat="43.53809" lon="6.57981">
        <ele>185.4</ele>
        <time>2017-01-08T14:01:57Z</time>
      </trkpt>
      <trkpt lat="43.53801" lon="6.57988">
        <ele>184.1</ele>
        <time>2017-01-08T14:02:11Z</time>
      </trkpt>
      <trkpt lat="43.53804" lon="6.57976">
        <ele>183.5</ele>
        <time>2017-01-08T14:03:29Z</time>
      </trkpt>
      <trkpt lat="43.53798" lon="6.57966">
        <ele>182.1</ele>
        <time>2017-01-08T14:03:36Z</time>
      </trkpt>
      <trkpt lat="43.53793" lon="6.57956">
        <ele>180.3</ele>
        <time>2017-01-08T14:03:49Z</time>
      </trkpt>
      <trkpt lat="43.53787" lon="6.57947">
        <ele>179</ele>
        <time>2017-01-08T14:04:01Z</time>
      </trkpt>
      <trkpt lat="43.53778" lon="6.5794">
        <ele>177.7</ele>
        <time>2017-01-08T14:04:22Z</time>
      </trkpt>
      <trkpt lat="43.5377" lon="6.57933">
        <ele>176.5</ele>
        <time>2017-01-08T14:04:33Z</time>
      </trkpt>
      <trkpt lat="43.53766" lon="6.5792">
        <ele>176</ele>
        <time>2017-01-08T14:04:47Z</time>
      </trkpt>
      <trkpt lat="43.53764" lon="6.57908">
        <ele>175.5</ele>
        <time>2017-01-08T14:04:57Z</time>
      </trkpt>
      <trkpt lat="43.53759" lon="6.57896">
        <ele>174.5</ele>
        <time>2017-01-08T14:05:07Z</time>
      </trkpt>
      <trkpt lat="43.53756" lon="6.57885">
        <ele>173.9</ele>
        <time>2017-01-08T14:05:17Z</time>
      </trkpt>
      <trkpt lat="43.53752" lon="6.57873">
        <ele>172.4</ele>
        <time>2017-01-08T14:05:27Z</time>
      </trkpt>
      <trkpt lat="43.53743" lon="6.57871">
        <ele>171.2</ele>
        <time>2017-01-08T14:05:36Z</time>
      </trkpt>
      <trkpt lat="43.53732" lon="6.57872">
        <ele>170</ele>
        <time>2017-01-08T14:05:47Z</time>
      </trkpt>
      <trkpt lat="43.53723" lon="6.57869">
        <ele>168.7</ele>
        <time>2017-01-08T14:05:57Z</time>
      </trkpt>
      <trkpt lat="43.53714" lon="6.5787">
        <ele>167.9</ele>
        <time>2017-01-08T14:06:04Z</time>
      </trkpt>
      <trkpt lat="43.53704" lon="6.5787">
        <ele>166.9</ele>
        <time>2017-01-08T14:06:15Z</time>
      </trkpt>
      <trkpt lat="43.53695" lon="6.57875">
        <ele>166.2</ele>
        <time>2017-01-08T14:06:23Z</time>
      </trkpt>
      <trkpt lat="43.53685" lon="6.57876">
        <ele>165</ele>
        <time>2017-01-08T14:06:31Z</time>
      </trkpt>
      <trkpt lat="43.53676" lon="6.57875">
        <ele>164.4</ele>
        <time>2017-01-08T14:06:40Z</time>
      </trkpt>
      <trkpt lat="43.53666" lon="6.57875">
        <ele>163.5</ele>
        <time>2017-01-08T14:06:49Z</time>
      </trkpt>
      <trkpt lat="43.53657" lon="6.57876">
        <ele>162.8</ele>
        <time>2017-01-08T14:06:57Z</time>
      </trkpt>
      <trkpt lat="43.53648" lon="6.57875">
        <ele>162.2</ele>
        <time>2017-01-08T14:07:05Z</time>
      </trkpt>
      <trkpt lat="43.53638" lon="6.57875">
        <ele>161.4</ele>
        <time>2017-01-08T14:07:15Z</time>
      </trkpt>
      <trkpt lat="43.53628" lon="6.57874">
        <ele>160.1</ele>
        <time>2017-01-08T14:07:24Z</time>
      </trkpt>
      <trkpt lat="43.53618" lon="6.57874">
        <ele>159.2</ele>
        <time>2017-01-08T14:07:33Z</time>
      </trkpt>
      <trkpt lat="43.53608" lon="6.57875">
        <ele>158.7</ele>
        <time>2017-01-08T14:07:42Z</time>
      </trkpt>
      <trkpt lat="43.53599" lon="6.57878">
        <ele>157.6</ele>
        <time>2017-01-08T14:07:50Z</time>
      </trkpt>
      <trkpt lat="43.53589" lon="6.57878">
        <ele>156.8</ele>
        <time>2017-01-08T14:07:58Z</time>
      </trkpt>
      <trkpt lat="43.53579" lon="6.57877">
        <ele>156</ele>
        <time>2017-01-08T14:08:06Z</time>
      </trkpt>
      <trkpt lat="43.5357" lon="6.57875">
        <ele>155.2</ele>
        <time>2017-01-08T14:08:15Z</time>
      </trkpt>
      <trkpt lat="43.53563" lon="6.57865">
        <ele>154.5</ele>
        <time>2017-01-08T14:08:24Z</time>
      </trkpt>
      <trkpt lat="43.53562" lon="6.57852">
        <ele>154.1</ele>
        <time>2017-01-08T14:08:32Z</time>
      </trkpt>
      <trkpt lat="43.53564" lon="6.57839">
        <ele>153.5</ele>
        <time>2017-01-08T14:08:39Z</time>
      </trkpt>
      <trkpt lat="43.53566" lon="6.57826">
        <ele>153.7</ele>
        <time>2017-01-08T14:08:47Z</time>
      </trkpt>
      <trkpt lat="43.53568" lon="6.57813">
        <ele>153.4</ele>
        <time>2017-01-08T14:08:56Z</time>
      </trkpt>
      <trkpt lat="43.53567" lon="6.578">
        <ele>153.8</ele>
        <time>2017-01-08T14:09:04Z</time>
      </trkpt>
      <trkpt lat="43.53567" lon="6.57787">
        <ele>153.7</ele>
        <time>2017-01-08T14:09:12Z</time>
      </trkpt>
      <trkpt lat="43.53562" lon="6.57776">
        <ele>153.6</ele>
        <time>2017-01-08T14:09:18Z</time>
      </trkpt>
      <trkpt lat="43.53558" lon="6.57764">
        <ele>153.6</ele>
        <time>2017-01-08T14:09:27Z</time>
      </trkpt>
      <trkpt lat="43.53553" lon="6.57753">
        <ele>153.2</ele>
        <time>2017-01-08T14:09:35Z</time>
      </trkpt>
      <trkpt lat="43.53548" lon="6.57742">
        <ele>152.8</ele>
        <time>2017-01-08T14:09:44Z</time>
      </trkpt>
      <trkpt lat="43.53545" lon="6.5773">
        <ele>151.8</ele>
        <time>2017-01-08T14:09:54Z</time>
      </trkpt>
      <trkpt lat="43.53542" lon="6.57716">
        <ele>150.9</ele>
        <time>2017-01-08T14:10:02Z</time>
      </trkpt>
      <trkpt lat="43.53537" lon="6.57705">
        <ele>150.9</ele>
        <time>2017-01-08T14:10:11Z</time>
      </trkpt>
      <trkpt lat="43.53536" lon="6.57692">
        <ele>150.7</ele>
        <time>2017-01-08T14:10:19Z</time>
      </trkpt>
      <trkpt lat="43.53534" lon="6.5768">
        <ele>150.5</ele>
        <time>2017-01-08T14:10:27Z</time>
      </trkpt>
      <trkpt lat="43.53533" lon="6.57666">
        <ele>150.5</ele>
        <time>2017-01-08T14:10:37Z</time>
      </trkpt>
      <trkpt lat="43.53532" lon="6.57652">
        <ele>150</ele>
        <time>2017-01-08T14:10:46Z</time>
      </trkpt>
      <trkpt lat="43.53532" lon="6.57639">
        <ele>150</ele>
        <time>2017-01-08T14:10:53Z</time>
      </trkpt>
      <trkpt lat="43.53531" lon="6.57626">
        <ele>149.9</ele>
        <time>2017-01-08T14:11:00Z</time>
      </trkpt>
      <trkpt lat="43.53531" lon="6.57613">
        <ele>149.7</ele>
        <time>2017-01-08T14:11:10Z</time>
      </trkpt>
      <trkpt lat="43.53531" lon="6.57598">
        <ele>149.7</ele>
        <time>2017-01-08T14:11:19Z</time>
      </trkpt>
      <trkpt lat="43.53532" lon="6.57584">
        <ele>149.4</ele>
        <time>2017-01-08T14:11:27Z</time>
      </trkpt>
      <trkpt lat="43.53534" lon="6.5757">
        <ele>149.2</ele>
        <time>2017-01-08T14:11:34Z</time>
      </trkpt>
      <trkpt lat="43.53537" lon="6.57556">
        <ele>149.2</ele>
        <time>2017-01-08T14:11:41Z</time>
      </trkpt>
      <trkpt lat="43.53541" lon="6.57544">
        <ele>148.9</ele>
        <time>2017-01-08T14:11:50Z</time>
      </trkpt>
      <trkpt lat="43.53538" lon="6.57532">
        <ele>149</ele>
        <time>2017-01-08T14:11:59Z</time>
      </trkpt>
      <trkpt lat="43.53532" lon="6.57522">
        <ele>149.7</ele>
        <time>2017-01-08T14:12:07Z</time>
      </trkpt>
      <trkpt lat="43.53525" lon="6.57514">
        <ele>149.5</ele>
        <time>2017-01-08T14:12:15Z</time>
      </trkpt>
      <trkpt lat="43.53518" lon="6.57505">
        <ele>149.9</ele>
        <time>2017-01-08T14:12:22Z</time>
      </trkpt>
      <trkpt lat="43.5351" lon="6.57497">
        <ele>150.1</ele>
        <time>2017-01-08T14:12:29Z</time>
      </trkpt>
      <trkpt lat="43.53505" lon="6.57486">
        <ele>150</ele>
        <time>2017-01-08T14:12:36Z</time>
      </trkpt>
      <trkpt lat="43.53499" lon="6.57475">
        <ele>150.7</ele>
        <time>2017-01-08T14:12:44Z</time>
      </trkpt>
      <trkpt lat="43.53494" lon="6.57464">
        <ele>150.9</ele>
        <time>2017-01-08T14:12:51Z</time>
      </trkpt>
      <trkpt lat="43.53489" lon="6.57453">
        <ele>150.9</ele>
        <time>2017-01-08T14:12:59Z</time>
      </trkpt>
      <trkpt lat="43.53484" lon="6.57441">
        <ele>151.1</ele>
        <time>2017-01-08T14:13:07Z</time>
      </trkpt>
      <trkpt lat="43.53478" lon="6.5743">
        <ele>151.5</ele>
        <time>2017-01-08T14:13:15Z</time>
      </trkpt>
      <trkpt lat="43.53483" lon="6.57419">
        <ele>152.2</ele>
        <time>2017-01-08T14:14:33Z</time>
      </trkpt>
      <trkpt lat="43.53474" lon="6.5741">
        <ele>152.5</ele>
        <time>2017-01-08T14:16:17Z</time>
      </trkpt>
      <trkpt lat="43.53468" lon="6.57399">
        <ele>153</ele>
        <time>2017-01-08T14:16:26Z</time>
      </trkpt>
      <trkpt lat="43.53463" lon="6.57388">
        <ele>153.2</ele>
        <time>2017-01-08T14:16:34Z</time>
      </trkpt>
      <trkpt lat="43.53458" lon="6.57377">
        <ele>153.2</ele>
        <time>2017-01-08T14:16:42Z</time>
      </trkpt>
      <trkpt lat="43.53452" lon="6.57367">
        <ele>153.3</ele>
        <time>2017-01-08T14:16:50Z</time>
      </trkpt>
      <trkpt lat="43.53447" lon="6.57356">
        <ele>153.8</ele>
        <time>2017-01-08T14:16:58Z</time>
      </trkpt>
      <trkpt lat="43.53442" lon="6.57344">
        <ele>154.5</ele>
        <time>2017-01-08T14:17:06Z</time>
      </trkpt>
      <trkpt lat="43.53439" lon="6.57332">
        <ele>154.4</ele>
        <time>2017-01-08T14:17:15Z</time>
      </trkpt>
      <trkpt lat="43.53436" lon="6.5732">
        <ele>154.3</ele>
        <time>2017-01-08T14:17:23Z</time>
      </trkpt>
      <trkpt lat="43.53433" lon="6.57308">
        <ele>154.3</ele>
        <time>2017-01-08T14:17:31Z</time>
      </trkpt>
      <trkpt lat="43.53428" lon="6.57296">
        <ele>154.6</ele>
        <time>2017-01-08T14:17:40Z</time>
      </trkpt>
      <trkpt lat="43.53423" lon="6.57285">
        <ele>154.8</ele>
        <time>2017-01-08T14:17:47Z</time>
      </trkpt>
      <trkpt lat="43.53418" lon="6.57274">
        <ele>155</ele>
        <time>2017-01-08T14:17:55Z</time>
      </trkpt>
      <trkpt lat="43.53413" lon="6.57263">
        <ele>154.9</ele>
        <time>2017-01-08T14:18:03Z</time>
      </trkpt>
      <trkpt lat="43.53408" lon="6.57252">
        <ele>154.9</ele>
        <time>2017-01-08T14:18:11Z</time>
      </trkpt>
      <trkpt lat="43.53405" lon="6.57239">
        <ele>155</ele>
        <time>2017-01-08T14:18:19Z</time>
      </trkpt>
      <trkpt lat="43.53402" lon="6.57226">
        <ele>155.1</ele>
        <time>2017-01-08T14:18:27Z</time>
      </trkpt>
      <trkpt lat="43.53398" lon="6.57213">
        <ele>155.3</ele>
        <time>2017-01-08T14:18:35Z</time>
      </trkpt>
      <trkpt lat="43.53393" lon="6.57203">
        <ele>155</ele>
        <time>2017-01-08T14:18:42Z</time>
      </trkpt>
      <trkpt lat="43.53388" lon="6.57191">
        <ele>155.1</ele>
        <time>2017-01-08T14:18:49Z</time>
      </trkpt>
      <trkpt lat="43.53383" lon="6.57179">
        <ele>154.9</ele>
        <time>2017-01-08T14:18:57Z</time>
      </trkpt>
      <trkpt lat="43.53379" lon="6.57167">
        <ele>154.4</ele>
        <time>2017-01-08T14:19:06Z</time>
      </trkpt>
      <trkpt lat="43.53375" lon="6.57156">
        <ele>154.4</ele>
        <time>2017-01-08T14:19:13Z</time>
      </trkpt>
      <trkpt lat="43.53367" lon="6.57146">
        <ele>153.8</ele>
        <time>2017-01-08T14:19:32Z</time>
      </trkpt>
      <trkpt lat="43.53361" lon="6.57135">
        <ele>153.4</ele>
        <time>2017-01-08T14:19:41Z</time>
      </trkpt>
      <trkpt lat="43.53354" lon="6.57126">
        <ele>153</ele>
        <time>2017-01-08T14:19:49Z</time>
      </trkpt>
      <trkpt lat="43.53347" lon="6.57117">
        <ele>152</ele>
        <time>2017-01-08T14:19:57Z</time>
      </trkpt>
      <trkpt lat="43.53339" lon="6.57109">
        <ele>151.2</ele>
        <time>2017-01-08T14:20:05Z</time>
      </trkpt>
      <trkpt lat="43.53331" lon="6.571">
        <ele>150.1</ele>
        <time>2017-01-08T14:20:15Z</time>
      </trkpt>
      <trkpt lat="43.53325" lon="6.57091">
        <ele>149.1</ele>
        <time>2017-01-08T14:20:23Z</time>
      </trkpt>
      <trkpt lat="43.53318" lon="6.57081">
        <ele>148.4</ele>
        <time>2017-01-08T14:20:31Z</time>
      </trkpt>
      <trkpt lat="43.53313" lon="6.57069">
        <ele>147.8</ele>
        <time>2017-01-08T14:20:40Z</time>
      </trkpt>
      <trkpt lat="43.5331" lon="6.57057">
        <ele>146.8</ele>
        <time>2017-01-08T14:20:50Z</time>
      </trkpt>
      <trkpt lat="43.53307" lon="6.57044">
        <ele>146.7</ele>
        <time>2017-01-08T14:20:58Z</time>
      </trkpt>
      <trkpt lat="43.53306" lon="6.57031">
        <ele>146.5</ele>
        <time>2017-01-08T14:21:07Z</time>
      </trkpt>
      <trkpt lat="43.53306" lon="6.57018">
        <ele>146.2</ele>
        <time>2017-01-08T14:21:16Z</time>
      </trkpt>
      <trkpt lat="43.53305" lon="6.57005">
        <ele>146.3</ele>
        <time>2017-01-08T14:21:24Z</time>
      </trkpt>
      <trkpt lat="43.53303" lon="6.56992">
        <ele>145.8</ele>
        <time>2017-01-08T14:21:33Z</time>
      </trkpt>
      <trkpt lat="43.533" lon="6.56979">
        <ele>144.5</ele>
        <time>2017-01-08T14:21:42Z</time>
      </trkpt>
      <trkpt lat="43.53297" lon="6.56966">
        <ele>144.1</ele>
        <time>2017-01-08T14:21:51Z</time>
      </trkpt>
      <trkpt lat="43.53295" lon="6.56953">
        <ele>143.6</ele>
        <time>2017-01-08T14:22:04Z</time>
      </trkpt>
      <trkpt lat="43.53298" lon="6.56941">
        <ele>143.8</ele>
        <time>2017-01-08T14:22:16Z</time>
      </trkpt>
      <trkpt lat="43.53297" lon="6.56928">
        <ele>144.3</ele>
        <time>2017-01-08T14:22:27Z</time>
      </trkpt>
      <trkpt lat="43.53296" lon="6.56915">
        <ele>145</ele>
        <time>2017-01-08T14:22:36Z</time>
      </trkpt>
      <trkpt lat="43.53291" lon="6.56904">
        <ele>145.2</ele>
        <time>2017-01-08T14:22:45Z</time>
      </trkpt>
      <trkpt lat="43.53284" lon="6.56895">
        <ele>144.8</ele>
        <time>2017-01-08T14:22:52Z</time>
      </trkpt>
      <trkpt lat="43.53277" lon="6.56885">
        <ele>144.7</ele>
        <time>2017-01-08T14:23:01Z</time>
      </trkpt>
      <trkpt lat="43.5327" lon="6.56878">
        <ele>144.3</ele>
        <time>2017-01-08T14:23:09Z</time>
      </trkpt>
      <trkpt lat="43.5326" lon="6.56872">
        <ele>143.2</ele>
        <time>2017-01-08T14:23:19Z</time>
      </trkpt>
      <trkpt lat="43.53251" lon="6.56868">
        <ele>142.5</ele>
        <time>2017-01-08T14:23:27Z</time>
      </trkpt>
      <trkpt lat="43.53242" lon="6.56863">
        <ele>141.9</ele>
        <time>2017-01-08T14:23:36Z</time>
      </trkpt>
      <trkpt lat="43.53234" lon="6.56857">
        <ele>141.2</ele>
        <time>2017-01-08T14:23:47Z</time>
      </trkpt>
      <trkpt lat="43.53225" lon="6.56853">
        <ele>141.5</ele>
        <time>2017-01-08T14:23:52Z</time>
      </trkpt>
      <trkpt lat="43.53215" lon="6.5685">
        <ele>141.7</ele>
        <time>2017-01-08T14:24:01Z</time>
      </trkpt>
      <trkpt lat="43.53207" lon="6.56845">
        <ele>141.7</ele>
        <time>2017-01-08T14:24:11Z</time>
      </trkpt>
      <trkpt lat="43.53197" lon="6.56844">
        <ele>141.2</ele>
        <time>2017-01-08T14:24:22Z</time>
      </trkpt>
      <trkpt lat="43.53188" lon="6.56841">
        <ele>141.1</ele>
        <time>2017-01-08T14:24:30Z</time>
      </trkpt>
      <trkpt lat="43.53179" lon="6.56836">
        <ele>141</ele>
        <time>2017-01-08T14:24:37Z</time>
      </trkpt>
      <trkpt lat="43.53168" lon="6.56835">
        <ele>140.7</ele>
        <time>2017-01-08T14:24:43Z</time>
      </trkpt>
      <trkpt lat="43.53159" lon="6.56833">
        <ele>140.1</ele>
        <time>2017-01-08T14:24:50Z</time>
      </trkpt>
      <trkpt lat="43.5315" lon="6.56834">
        <ele>139.9</ele>
        <time>2017-01-08T14:24:55Z</time>
      </trkpt>
      <trkpt lat="43.5314" lon="6.56832">
        <ele>139.2</ele>
        <time>2017-01-08T14:25:04Z</time>
      </trkpt>
      <trkpt lat="43.53131" lon="6.5683">
        <ele>138.1</ele>
        <time>2017-01-08T14:25:13Z</time>
      </trkpt>
      <trkpt lat="43.53122" lon="6.56829">
        <ele>137.2</ele>
        <time>2017-01-08T14:25:22Z</time>
      </trkpt>
      <trkpt lat="43.53113" lon="6.56825">
        <ele>136</ele>
        <time>2017-01-08T14:25:31Z</time>
      </trkpt>
      <trkpt lat="43.53103" lon="6.56824">
        <ele>135.2</ele>
        <time>2017-01-08T14:25:38Z</time>
      </trkpt>
      <trkpt lat="43.53094" lon="6.56824">
        <ele>134.6</ele>
        <time>2017-01-08T14:25:46Z</time>
      </trkpt>
      <trkpt lat="43.53085" lon="6.56822">
        <ele>133.7</ele>
        <time>2017-01-08T14:25:54Z</time>
      </trkpt>
      <trkpt lat="43.53075" lon="6.56821">
        <ele>132.7</ele>
        <time>2017-01-08T14:26:04Z</time>
      </trkpt>
      <trkpt lat="43.53066" lon="6.56821">
        <ele>131.3</ele>
        <time>2017-01-08T14:26:11Z</time>
      </trkpt>
      <trkpt lat="43.53056" lon="6.56821">
        <ele>130.4</ele>
        <time>2017-01-08T14:26:18Z</time>
      </trkpt>
      <trkpt lat="43.53047" lon="6.56819">
        <ele>129.9</ele>
        <time>2017-01-08T14:26:23Z</time>
      </trkpt>
      <trkpt lat="43.53037" lon="6.56816">
        <ele>128.6</ele>
        <time>2017-01-08T14:26:33Z</time>
      </trkpt>
      <trkpt lat="43.53028" lon="6.56814">
        <ele>127.7</ele>
        <time>2017-01-08T14:26:42Z</time>
      </trkpt>
      <trkpt lat="43.53024" lon="6.56802">
        <ele>125.8</ele>
        <time>2017-01-08T14:26:54Z</time>
      </trkpt>
      <trkpt lat="43.53026" lon="6.56789">
        <ele>125.8</ele>
        <time>2017-01-08T14:27:03Z</time>
      </trkpt>
      <trkpt lat="43.53024" lon="6.56775">
        <ele>126.1</ele>
        <time>2017-01-08T14:27:12Z</time>
      </trkpt>
      <trkpt lat="43.53025" lon="6.56763">
        <ele>126.8</ele>
        <time>2017-01-08T14:27:20Z</time>
      </trkpt>
      <trkpt lat="43.53029" lon="6.56751">
        <ele>127.4</ele>
        <time>2017-01-08T14:27:29Z</time>
      </trkpt>
      <trkpt lat="43.53034" lon="6.56739">
        <ele>128</ele>
        <time>2017-01-08T14:27:38Z</time>
      </trkpt>
      <trkpt lat="43.53035" lon="6.56726">
        <ele>128.7</ele>
        <time>2017-01-08T14:27:49Z</time>
      </trkpt>
      <trkpt lat="43.53034" lon="6.56714">
        <ele>128.9</ele>
        <time>2017-01-08T14:27:56Z</time>
      </trkpt>
      <trkpt lat="43.53028" lon="6.56702">
        <ele>128.9</ele>
        <time>2017-01-08T14:28:04Z</time>
      </trkpt>
      <trkpt lat="43.53022" lon="6.56693">
        <ele>128.8</ele>
        <time>2017-01-08T14:28:12Z</time>
      </trkpt>
      <trkpt lat="43.53019" lon="6.56705">
        <ele>128.5</ele>
        <time>2017-01-08T14:28:25Z</time>
      </trkpt>
      <trkpt lat="43.53019" lon="6.56691">
        <ele>128.6</ele>
        <time>2017-01-08T14:28:58Z</time>
      </trkpt>
      <trkpt lat="43.53009" lon="6.56686">
        <ele>128.8</ele>
        <time>2017-01-08T14:29:06Z</time>
      </trkpt>
      <trkpt lat="43.53" lon="6.56681">
        <ele>128.7</ele>
        <time>2017-01-08T14:29:13Z</time>
      </trkpt>
      <trkpt lat="43.52991" lon="6.56678">
        <ele>128.1</ele>
        <time>2017-01-08T14:29:20Z</time>
      </trkpt>
      <trkpt lat="43.52982" lon="6.56674">
        <ele>128.1</ele>
        <time>2017-01-08T14:29:27Z</time>
      </trkpt>
      <trkpt lat="43.52972" lon="6.56671">
        <ele>127.7</ele>
        <time>2017-01-08T14:29:35Z</time>
      </trkpt>
      <trkpt lat="43.52963" lon="6.56668">
        <ele>127.1</ele>
        <time>2017-01-08T14:29:42Z</time>
      </trkpt>
      <trkpt lat="43.52953" lon="6.56665">
        <ele>127.6</ele>
        <time>2017-01-08T14:29:50Z</time>
      </trkpt>
      <trkpt lat="43.52944" lon="6.56663">
        <ele>127.4</ele>
        <time>2017-01-08T14:29:58Z</time>
      </trkpt>
      <trkpt lat="43.52935" lon="6.56661">
        <ele>127.5</ele>
        <time>2017-01-08T14:30:09Z</time>
      </trkpt>
      <trkpt lat="43.52925" lon="6.56659">
        <ele>127.1</ele>
        <time>2017-01-08T14:30:17Z</time>
      </trkpt>
      <trkpt lat="43.52916" lon="6.56657">
        <ele>126.8</ele>
        <time>2017-01-08T14:30:25Z</time>
      </trkpt>
      <trkpt lat="43.52907" lon="6.56654">
        <ele>126.5</ele>
        <time>2017-01-08T14:30:32Z</time>
      </trkpt>
      <trkpt lat="43.52897" lon="6.56651">
        <ele>126.8</ele>
        <time>2017-01-08T14:30:39Z</time>
      </trkpt>
      <trkpt lat="43.52887" lon="6.56647">
        <ele>126.6</ele>
        <time>2017-01-08T14:30:46Z</time>
      </trkpt>
      <trkpt lat="43.52878" lon="6.56644">
        <ele>126.7</ele>
        <time>2017-01-08T14:30:53Z</time>
      </trkpt>
      <trkpt lat="43.52868" lon="6.56643">
        <ele>126.8</ele>
        <time>2017-01-08T14:31:00Z</time>
      </trkpt>
      <trkpt lat="43.52858" lon="6.5664">
        <ele>126.5</ele>
        <time>2017-01-08T14:31:07Z</time>
      </trkpt>
      <trkpt lat="43.52848" lon="6.56638">
        <ele>126.1</ele>
        <time>2017-01-08T14:31:14Z</time>
      </trkpt>
      <trkpt lat="43.5284" lon="6.56635">
        <ele>125.8</ele>
        <time>2017-01-08T14:31:21Z</time>
      </trkpt>
      <trkpt lat="43.5283" lon="6.56634">
        <ele>125.5</ele>
        <time>2017-01-08T14:31:28Z</time>
      </trkpt>
      <trkpt lat="43.5282" lon="6.5663">
        <ele>125.3</ele>
        <time>2017-01-08T14:31:35Z</time>
      </trkpt>
      <trkpt lat="43.52811" lon="6.56628">
        <ele>125.3</ele>
        <time>2017-01-08T14:31:42Z</time>
      </trkpt>
      <trkpt lat="43.52802" lon="6.56626">
        <ele>125.2</ele>
        <time>2017-01-08T14:31:49Z</time>
      </trkpt>
      <trkpt lat="43.52793" lon="6.56623">
        <ele>125.3</ele>
        <time>2017-01-08T14:31:56Z</time>
      </trkpt>
      <trkpt lat="43.52783" lon="6.56617">
        <ele>125.1</ele>
        <time>2017-01-08T14:32:03Z</time>
      </trkpt>
      <trkpt lat="43.52774" lon="6.56615">
        <ele>124.9</ele>
        <time>2017-01-08T14:32:09Z</time>
      </trkpt>
      <trkpt lat="43.52765" lon="6.56612">
        <ele>124.3</ele>
        <time>2017-01-08T14:32:15Z</time>
      </trkpt>
      <trkpt lat="43.52757" lon="6.56605">
        <ele>124.3</ele>
        <time>2017-01-08T14:32:22Z</time>
      </trkpt>
      <trkpt lat="43.5275" lon="6.56596">
        <ele>123.8</ele>
        <time>2017-01-08T14:32:31Z</time>
      </trkpt>
      <trkpt lat="43.52741" lon="6.56597">
        <ele>123.3</ele>
        <time>2017-01-08T14:32:43Z</time>
      </trkpt>
      <trkpt lat="43.52733" lon="6.56591">
        <ele>123.2</ele>
        <time>2017-01-08T14:32:54Z</time>
      </trkpt>
      <trkpt lat="43.52724" lon="6.56584">
        <ele>122.9</ele>
        <time>2017-01-08T14:33:03Z</time>
      </trkpt>
      <trkpt lat="43.52714" lon="6.56583">
        <ele>122.4</ele>
        <time>2017-01-08T14:33:12Z</time>
      </trkpt>
      <trkpt lat="43.52705" lon="6.5658">
        <ele>122</ele>
        <time>2017-01-08T14:33:19Z</time>
      </trkpt>
      <trkpt lat="43.52696" lon="6.56581">
        <ele>121.9</ele>
        <time>2017-01-08T14:34:26Z</time>
      </trkpt>
    </trkseg>
  </trk>
</gpx>